<?xml version="1.0" encoding="UTF-8" standalone="no" ?>
<gpx xmlns="http://www.topografix.com/GPX/1/1" xmlns:xsi="http://www.w3.org/2001/XMLSchema-instance" xsi:schemaLocation="http://www.topografix.com/GPX/1/1 http://www.topografix.com/GPX/1/1/gpx.xsd" version="1.1" creator="VisuGPX - https://www.visugpx.com">
  <metadata>
    <name>Hamars</name>
  </metadata>
  <trk>
    <name><![CDATA[track]]></name>
    <trkseg>
      <trkpt lat="48.99737" lon="-0.54553">
        <ele>170</ele>
        <time>2018-06-17T07:58:15Z</time>
      </trkpt>
      <trkpt lat="48.99731" lon="-0.54552">
        <ele>172</ele>
        <time>2018-06-17T07:58:21Z</time>
      </trkpt>
      <trkpt lat="48.99728" lon="-0.54563">
        <ele>172</ele>
        <time>2018-06-17T07:58:25Z</time>
      </trkpt>
      <trkpt lat="48.9972" lon="-0.54567">
        <ele>171</ele>
        <time>2018-06-17T07:58:32Z</time>
      </trkpt>
      <trkpt lat="48.99713" lon="-0.5457">
        <ele>165</ele>
        <time>2018-06-17T07:58:45Z</time>
      </trkpt>
      <trkpt lat="48.99706" lon="-0.54578">
        <ele>164</ele>
        <time>2018-06-17T07:58:57Z</time>
      </trkpt>
      <trkpt lat="48.997" lon="-0.54582">
        <ele>161</ele>
        <time>2018-06-17T07:59:02Z</time>
      </trkpt>
      <trkpt lat="48.99692" lon="-0.54581">
        <ele>162</ele>
        <time>2018-06-17T07:59:09Z</time>
      </trkpt>
      <trkpt lat="48.99684" lon="-0.54582">
        <ele>162</ele>
        <time>2018-06-17T07:59:16Z</time>
      </trkpt>
      <trkpt lat="48.99689" lon="-0.54592">
        <ele>162</ele>
        <time>2018-06-17T07:59:26Z</time>
      </trkpt>
      <trkpt lat="48.99685" lon="-0.54603">
        <ele>164</ele>
        <time>2018-06-17T07:59:33Z</time>
      </trkpt>
      <trkpt lat="48.99681" lon="-0.54615">
        <ele>164</ele>
        <time>2018-06-17T07:59:42Z</time>
      </trkpt>
      <trkpt lat="48.99675" lon="-0.54623">
        <ele>160</ele>
        <time>2018-06-17T07:59:51Z</time>
      </trkpt>
      <trkpt lat="48.9967" lon="-0.54633">
        <ele>160</ele>
        <time>2018-06-17T07:59:59Z</time>
      </trkpt>
      <trkpt lat="48.99665" lon="-0.54644">
        <ele>159</ele>
        <time>2018-06-17T08:00:07Z</time>
      </trkpt>
      <trkpt lat="48.9966" lon="-0.54654">
        <ele>159</ele>
        <time>2018-06-17T08:00:16Z</time>
      </trkpt>
      <trkpt lat="48.99656" lon="-0.54665">
        <ele>158</ele>
        <time>2018-06-17T08:00:24Z</time>
      </trkpt>
      <trkpt lat="48.9965" lon="-0.54675">
        <ele>158</ele>
        <time>2018-06-17T08:00:32Z</time>
      </trkpt>
      <trkpt lat="48.99644" lon="-0.54684">
        <ele>156</ele>
        <time>2018-06-17T08:00:39Z</time>
      </trkpt>
      <trkpt lat="48.9964" lon="-0.54695">
        <ele>156</ele>
        <time>2018-06-17T08:00:46Z</time>
      </trkpt>
      <trkpt lat="48.99636" lon="-0.54705">
        <ele>155</ele>
        <time>2018-06-17T08:00:53Z</time>
      </trkpt>
      <trkpt lat="48.99631" lon="-0.54714">
        <ele>156</ele>
        <time>2018-06-17T08:01:01Z</time>
      </trkpt>
      <trkpt lat="48.99625" lon="-0.54724">
        <ele>153</ele>
        <time>2018-06-17T08:01:09Z</time>
      </trkpt>
      <trkpt lat="48.99624" lon="-0.54735">
        <ele>154</ele>
        <time>2018-06-17T08:01:16Z</time>
      </trkpt>
      <trkpt lat="48.99619" lon="-0.54746">
        <ele>153</ele>
        <time>2018-06-17T08:01:25Z</time>
      </trkpt>
      <trkpt lat="48.99614" lon="-0.54757">
        <ele>151</ele>
        <time>2018-06-17T08:01:33Z</time>
      </trkpt>
      <trkpt lat="48.9961" lon="-0.54766">
        <ele>150</ele>
        <time>2018-06-17T08:01:40Z</time>
      </trkpt>
      <trkpt lat="48.99605" lon="-0.54777">
        <ele>150</ele>
        <time>2018-06-17T08:01:48Z</time>
      </trkpt>
      <trkpt lat="48.996" lon="-0.54785">
        <ele>149</ele>
        <time>2018-06-17T08:01:56Z</time>
      </trkpt>
      <trkpt lat="48.99597" lon="-0.54796">
        <ele>152</ele>
        <time>2018-06-17T08:02:03Z</time>
      </trkpt>
      <trkpt lat="48.99593" lon="-0.54808">
        <ele>151</ele>
        <time>2018-06-17T08:02:11Z</time>
      </trkpt>
      <trkpt lat="48.99589" lon="-0.54819">
        <ele>149</ele>
        <time>2018-06-17T08:02:20Z</time>
      </trkpt>
      <trkpt lat="48.99584" lon="-0.54829">
        <ele>147</ele>
        <time>2018-06-17T08:02:27Z</time>
      </trkpt>
      <trkpt lat="48.99579" lon="-0.5484">
        <ele>146</ele>
        <time>2018-06-17T08:02:36Z</time>
      </trkpt>
      <trkpt lat="48.99574" lon="-0.54849">
        <ele>145</ele>
        <time>2018-06-17T08:02:43Z</time>
      </trkpt>
      <trkpt lat="48.99568" lon="-0.54859">
        <ele>147</ele>
        <time>2018-06-17T08:02:51Z</time>
      </trkpt>
      <trkpt lat="48.99563" lon="-0.54869">
        <ele>146</ele>
        <time>2018-06-17T08:03:00Z</time>
      </trkpt>
      <trkpt lat="48.99559" lon="-0.5488">
        <ele>145</ele>
        <time>2018-06-17T08:03:08Z</time>
      </trkpt>
      <trkpt lat="48.99555" lon="-0.54891">
        <ele>145</ele>
        <time>2018-06-17T08:03:17Z</time>
      </trkpt>
      <trkpt lat="48.99549" lon="-0.54901">
        <ele>145</ele>
        <time>2018-06-17T08:03:27Z</time>
      </trkpt>
      <trkpt lat="48.99542" lon="-0.54909">
        <ele>143</ele>
        <time>2018-06-17T08:03:35Z</time>
      </trkpt>
      <trkpt lat="48.99537" lon="-0.54918">
        <ele>142</ele>
        <time>2018-06-17T08:03:42Z</time>
      </trkpt>
      <trkpt lat="48.99531" lon="-0.54927">
        <ele>141</ele>
        <time>2018-06-17T08:03:54Z</time>
      </trkpt>
      <trkpt lat="48.99526" lon="-0.54937">
        <ele>140</ele>
        <time>2018-06-17T08:04:04Z</time>
      </trkpt>
      <trkpt lat="48.99519" lon="-0.54942">
        <ele>136</ele>
        <time>2018-06-17T08:04:10Z</time>
      </trkpt>
      <trkpt lat="48.99512" lon="-0.54948">
        <ele>131</ele>
        <time>2018-06-17T08:04:19Z</time>
      </trkpt>
      <trkpt lat="48.99505" lon="-0.54954">
        <ele>132</ele>
        <time>2018-06-17T08:04:26Z</time>
      </trkpt>
      <trkpt lat="48.99498" lon="-0.54962">
        <ele>131</ele>
        <time>2018-06-17T08:04:32Z</time>
      </trkpt>
      <trkpt lat="48.9949" lon="-0.54964">
        <ele>130</ele>
        <time>2018-06-17T08:04:39Z</time>
      </trkpt>
      <trkpt lat="48.99482" lon="-0.54969">
        <ele>129</ele>
        <time>2018-06-17T08:04:47Z</time>
      </trkpt>
      <trkpt lat="48.99475" lon="-0.54972">
        <ele>126</ele>
        <time>2018-06-17T08:04:58Z</time>
      </trkpt>
      <trkpt lat="48.99466" lon="-0.54976">
        <ele>123</ele>
        <time>2018-06-17T08:05:05Z</time>
      </trkpt>
      <trkpt lat="48.99458" lon="-0.54978">
        <ele>120</ele>
        <time>2018-06-17T08:05:13Z</time>
      </trkpt>
      <trkpt lat="48.99449" lon="-0.54981">
        <ele>119</ele>
        <time>2018-06-17T08:05:20Z</time>
      </trkpt>
      <trkpt lat="48.99441" lon="-0.54978">
        <ele>116</ele>
        <time>2018-06-17T08:05:31Z</time>
      </trkpt>
      <trkpt lat="48.99433" lon="-0.54983">
        <ele>116</ele>
        <time>2018-06-17T08:05:38Z</time>
      </trkpt>
      <trkpt lat="48.99425" lon="-0.54986">
        <ele>115</ele>
        <time>2018-06-17T08:05:46Z</time>
      </trkpt>
      <trkpt lat="48.99417" lon="-0.54992">
        <ele>112</ele>
        <time>2018-06-17T08:05:52Z</time>
      </trkpt>
      <trkpt lat="48.99413" lon="-0.55001">
        <ele>115</ele>
        <time>2018-06-17T08:06:03Z</time>
      </trkpt>
      <trkpt lat="48.99404" lon="-0.55004">
        <ele>111</ele>
        <time>2018-06-17T08:06:11Z</time>
      </trkpt>
      <trkpt lat="48.99399" lon="-0.55014">
        <ele>115</ele>
        <time>2018-06-17T08:06:20Z</time>
      </trkpt>
      <trkpt lat="48.99391" lon="-0.55019">
        <ele>111</ele>
        <time>2018-06-17T08:06:25Z</time>
      </trkpt>
      <trkpt lat="48.99385" lon="-0.55026">
        <ele>112</ele>
        <time>2018-06-17T08:06:32Z</time>
      </trkpt>
      <trkpt lat="48.9938" lon="-0.55036">
        <ele>117</ele>
        <time>2018-06-17T08:06:39Z</time>
      </trkpt>
      <trkpt lat="48.99372" lon="-0.55043">
        <ele>116</ele>
        <time>2018-06-17T08:06:46Z</time>
      </trkpt>
      <trkpt lat="48.99367" lon="-0.55052">
        <ele>114</ele>
        <time>2018-06-17T08:06:55Z</time>
      </trkpt>
      <trkpt lat="48.99358" lon="-0.55052">
        <ele>113</ele>
        <time>2018-06-17T08:07:04Z</time>
      </trkpt>
      <trkpt lat="48.99352" lon="-0.55061">
        <ele>109</ele>
        <time>2018-06-17T08:07:10Z</time>
      </trkpt>
      <trkpt lat="48.9935" lon="-0.55073">
        <ele>110</ele>
        <time>2018-06-17T08:07:17Z</time>
      </trkpt>
      <trkpt lat="48.99345" lon="-0.55084">
        <ele>112</ele>
        <time>2018-06-17T08:07:24Z</time>
      </trkpt>
      <trkpt lat="48.9934" lon="-0.55095">
        <ele>114</ele>
        <time>2018-06-17T08:07:31Z</time>
      </trkpt>
      <trkpt lat="48.99335" lon="-0.55103">
        <ele>111</ele>
        <time>2018-06-17T08:07:41Z</time>
      </trkpt>
      <trkpt lat="48.99328" lon="-0.55111">
        <ele>107</ele>
        <time>2018-06-17T08:07:47Z</time>
      </trkpt>
      <trkpt lat="48.99324" lon="-0.55122">
        <ele>109</ele>
        <time>2018-06-17T08:07:55Z</time>
      </trkpt>
      <trkpt lat="48.9932" lon="-0.55132">
        <ele>110</ele>
        <time>2018-06-17T08:08:04Z</time>
      </trkpt>
      <trkpt lat="48.99316" lon="-0.55143">
        <ele>112</ele>
        <time>2018-06-17T08:08:13Z</time>
      </trkpt>
      <trkpt lat="48.99311" lon="-0.55154">
        <ele>110</ele>
        <time>2018-06-17T08:08:21Z</time>
      </trkpt>
      <trkpt lat="48.99307" lon="-0.55165">
        <ele>108</ele>
        <time>2018-06-17T08:08:31Z</time>
      </trkpt>
      <trkpt lat="48.99303" lon="-0.55176">
        <ele>110</ele>
        <time>2018-06-17T08:08:39Z</time>
      </trkpt>
      <trkpt lat="48.99296" lon="-0.55186">
        <ele>108</ele>
        <time>2018-06-17T08:08:45Z</time>
      </trkpt>
      <trkpt lat="48.99289" lon="-0.55193">
        <ele>106</ele>
        <time>2018-06-17T08:08:50Z</time>
      </trkpt>
      <trkpt lat="48.99283" lon="-0.55203">
        <ele>106</ele>
        <time>2018-06-17T08:08:57Z</time>
      </trkpt>
      <trkpt lat="48.99278" lon="-0.55214">
        <ele>108</ele>
        <time>2018-06-17T08:09:10Z</time>
      </trkpt>
      <trkpt lat="48.9927" lon="-0.55218">
        <ele>104</ele>
        <time>2018-06-17T08:09:16Z</time>
      </trkpt>
      <trkpt lat="48.99263" lon="-0.55226">
        <ele>102</ele>
        <time>2018-06-17T08:09:25Z</time>
      </trkpt>
      <trkpt lat="48.99256" lon="-0.55232">
        <ele>99</ele>
        <time>2018-06-17T08:09:35Z</time>
      </trkpt>
      <trkpt lat="48.99252" lon="-0.55243">
        <ele>103</ele>
        <time>2018-06-17T08:09:45Z</time>
      </trkpt>
      <trkpt lat="48.99246" lon="-0.55252">
        <ele>104</ele>
        <time>2018-06-17T08:09:51Z</time>
      </trkpt>
      <trkpt lat="48.99239" lon="-0.55257">
        <ele>106</ele>
        <time>2018-06-17T08:09:57Z</time>
      </trkpt>
      <trkpt lat="48.99234" lon="-0.55267">
        <ele>105</ele>
        <time>2018-06-17T08:10:04Z</time>
      </trkpt>
      <trkpt lat="48.99229" lon="-0.55276">
        <ele>105</ele>
        <time>2018-06-17T08:10:12Z</time>
      </trkpt>
      <trkpt lat="48.99221" lon="-0.55284">
        <ele>105</ele>
        <time>2018-06-17T08:10:17Z</time>
      </trkpt>
      <trkpt lat="48.99213" lon="-0.5529">
        <ele>102</ele>
        <time>2018-06-17T08:10:22Z</time>
      </trkpt>
      <trkpt lat="48.99204" lon="-0.55287">
        <ele>101</ele>
        <time>2018-06-17T08:10:42Z</time>
      </trkpt>
      <trkpt lat="48.99195" lon="-0.55289">
        <ele>101</ele>
        <time>2018-06-17T08:10:50Z</time>
      </trkpt>
      <trkpt lat="48.99188" lon="-0.5529">
        <ele>99</ele>
        <time>2018-06-17T08:10:54Z</time>
      </trkpt>
      <trkpt lat="48.99181" lon="-0.55289">
        <ele>100</ele>
        <time>2018-06-17T08:11:01Z</time>
      </trkpt>
      <trkpt lat="48.99172" lon="-0.55291">
        <ele>102</ele>
        <time>2018-06-17T08:11:08Z</time>
      </trkpt>
      <trkpt lat="48.99164" lon="-0.55291">
        <ele>104</ele>
        <time>2018-06-17T08:11:16Z</time>
      </trkpt>
      <trkpt lat="48.99155" lon="-0.55289">
        <ele>104</ele>
        <time>2018-06-17T08:11:24Z</time>
      </trkpt>
      <trkpt lat="48.99148" lon="-0.55289">
        <ele>104</ele>
        <time>2018-06-17T08:11:32Z</time>
      </trkpt>
      <trkpt lat="48.99141" lon="-0.55287">
        <ele>102</ele>
        <time>2018-06-17T08:11:38Z</time>
      </trkpt>
      <trkpt lat="48.99133" lon="-0.55287">
        <ele>107</ele>
        <time>2018-06-17T08:11:48Z</time>
      </trkpt>
      <trkpt lat="48.99124" lon="-0.55286">
        <ele>107</ele>
        <time>2018-06-17T08:11:58Z</time>
      </trkpt>
      <trkpt lat="48.99116" lon="-0.55286">
        <ele>109</ele>
        <time>2018-06-17T08:12:05Z</time>
      </trkpt>
      <trkpt lat="48.99107" lon="-0.55286">
        <ele>109</ele>
        <time>2018-06-17T08:12:16Z</time>
      </trkpt>
      <trkpt lat="48.99101" lon="-0.55293">
        <ele>112</ele>
        <time>2018-06-17T08:12:26Z</time>
      </trkpt>
      <trkpt lat="48.99086" lon="-0.55267">
        <ele>119</ele>
        <time>2018-06-17T08:12:31Z</time>
      </trkpt>
      <trkpt lat="48.99077" lon="-0.5527">
        <ele>121</ele>
        <time>2018-06-17T08:12:40Z</time>
      </trkpt>
      <trkpt lat="48.99069" lon="-0.55268">
        <ele>118</ele>
        <time>2018-06-17T08:12:50Z</time>
      </trkpt>
      <trkpt lat="48.99061" lon="-0.55266">
        <ele>118</ele>
        <time>2018-06-17T08:13:00Z</time>
      </trkpt>
      <trkpt lat="48.99055" lon="-0.55269">
        <ele>115</ele>
        <time>2018-06-17T08:13:15Z</time>
      </trkpt>
      <trkpt lat="48.99046" lon="-0.5527">
        <ele>113</ele>
        <time>2018-06-17T08:13:52Z</time>
      </trkpt>
      <trkpt lat="48.99038" lon="-0.55276">
        <ele>117</ele>
        <time>2018-06-17T08:14:04Z</time>
      </trkpt>
      <trkpt lat="48.99031" lon="-0.55283">
        <ele>118</ele>
        <time>2018-06-17T08:14:09Z</time>
      </trkpt>
      <trkpt lat="48.99025" lon="-0.5529">
        <ele>119</ele>
        <time>2018-06-17T08:14:16Z</time>
      </trkpt>
      <trkpt lat="48.99019" lon="-0.55301">
        <ele>121</ele>
        <time>2018-06-17T08:14:24Z</time>
      </trkpt>
      <trkpt lat="48.99014" lon="-0.55311">
        <ele>124</ele>
        <time>2018-06-17T08:14:33Z</time>
      </trkpt>
      <trkpt lat="48.9901" lon="-0.55322">
        <ele>122</ele>
        <time>2018-06-17T08:14:44Z</time>
      </trkpt>
      <trkpt lat="48.99005" lon="-0.55331">
        <ele>122</ele>
        <time>2018-06-17T08:14:52Z</time>
      </trkpt>
      <trkpt lat="48.99002" lon="-0.55343">
        <ele>125</ele>
        <time>2018-06-17T08:15:02Z</time>
      </trkpt>
      <trkpt lat="48.99001" lon="-0.55356">
        <ele>128</ele>
        <time>2018-06-17T08:15:10Z</time>
      </trkpt>
      <trkpt lat="48.98999" lon="-0.55368">
        <ele>129</ele>
        <time>2018-06-17T08:15:20Z</time>
      </trkpt>
      <trkpt lat="48.98997" lon="-0.55381">
        <ele>130</ele>
        <time>2018-06-17T08:15:38Z</time>
      </trkpt>
      <trkpt lat="48.98996" lon="-0.55395">
        <ele>131</ele>
        <time>2018-06-17T08:15:47Z</time>
      </trkpt>
      <trkpt lat="48.98993" lon="-0.55408">
        <ele>132</ele>
        <time>2018-06-17T08:15:57Z</time>
      </trkpt>
      <trkpt lat="48.98986" lon="-0.55429">
        <ele>131</ele>
        <time>2018-06-17T08:16:01Z</time>
      </trkpt>
      <trkpt lat="48.98989" lon="-0.5544">
        <ele>135</ele>
        <time>2018-06-17T08:16:08Z</time>
      </trkpt>
      <trkpt lat="48.98985" lon="-0.55453">
        <ele>137</ele>
        <time>2018-06-17T08:16:19Z</time>
      </trkpt>
      <trkpt lat="48.98981" lon="-0.55464">
        <ele>136</ele>
        <time>2018-06-17T08:16:27Z</time>
      </trkpt>
      <trkpt lat="48.98978" lon="-0.55475">
        <ele>136</ele>
        <time>2018-06-17T08:16:35Z</time>
      </trkpt>
      <trkpt lat="48.98975" lon="-0.55487">
        <ele>137</ele>
        <time>2018-06-17T08:16:43Z</time>
      </trkpt>
      <trkpt lat="48.98972" lon="-0.555">
        <ele>139</ele>
        <time>2018-06-17T08:16:52Z</time>
      </trkpt>
      <trkpt lat="48.98968" lon="-0.55512">
        <ele>140</ele>
        <time>2018-06-17T08:17:04Z</time>
      </trkpt>
      <trkpt lat="48.9896" lon="-0.55516">
        <ele>139</ele>
        <time>2018-06-17T08:17:10Z</time>
      </trkpt>
      <trkpt lat="48.98954" lon="-0.55525">
        <ele>142</ele>
        <time>2018-06-17T08:17:19Z</time>
      </trkpt>
      <trkpt lat="48.98947" lon="-0.55532">
        <ele>141</ele>
        <time>2018-06-17T08:17:26Z</time>
      </trkpt>
      <trkpt lat="48.9894" lon="-0.55537">
        <ele>139</ele>
        <time>2018-06-17T08:17:52Z</time>
      </trkpt>
      <trkpt lat="48.98932" lon="-0.55544">
        <ele>136</ele>
        <time>2018-06-17T08:17:57Z</time>
      </trkpt>
      <trkpt lat="48.98927" lon="-0.55553">
        <ele>145</ele>
        <time>2018-06-17T08:18:27Z</time>
      </trkpt>
      <trkpt lat="48.98914" lon="-0.55564">
        <ele>147</ele>
        <time>2018-06-17T08:18:31Z</time>
      </trkpt>
      <trkpt lat="48.98906" lon="-0.55575">
        <ele>145</ele>
        <time>2018-06-17T08:18:35Z</time>
      </trkpt>
      <trkpt lat="48.98899" lon="-0.55579">
        <ele>146</ele>
        <time>2018-06-17T08:18:43Z</time>
      </trkpt>
      <trkpt lat="48.98895" lon="-0.55587">
        <ele>143</ele>
        <time>2018-06-17T08:18:47Z</time>
      </trkpt>
      <trkpt lat="48.98889" lon="-0.55595">
        <ele>140</ele>
        <time>2018-06-17T08:18:51Z</time>
      </trkpt>
      <trkpt lat="48.98882" lon="-0.55605">
        <ele>138</ele>
        <time>2018-06-17T08:18:56Z</time>
      </trkpt>
      <trkpt lat="48.98878" lon="-0.55614">
        <ele>140</ele>
        <time>2018-06-17T08:19:04Z</time>
      </trkpt>
      <trkpt lat="48.98873" lon="-0.55625">
        <ele>137</ele>
        <time>2018-06-17T08:19:10Z</time>
      </trkpt>
      <trkpt lat="48.98869" lon="-0.55636">
        <ele>136</ele>
        <time>2018-06-17T08:19:20Z</time>
      </trkpt>
      <trkpt lat="48.98864" lon="-0.55647">
        <ele>137</ele>
        <time>2018-06-17T08:19:29Z</time>
      </trkpt>
      <trkpt lat="48.98859" lon="-0.55657">
        <ele>140</ele>
        <time>2018-06-17T08:19:37Z</time>
      </trkpt>
      <trkpt lat="48.98855" lon="-0.55668">
        <ele>147</ele>
        <time>2018-06-17T08:20:00Z</time>
      </trkpt>
      <trkpt lat="48.98849" lon="-0.55678">
        <ele>145</ele>
        <time>2018-06-17T08:20:09Z</time>
      </trkpt>
      <trkpt lat="48.98844" lon="-0.55688">
        <ele>143</ele>
        <time>2018-06-17T08:20:17Z</time>
      </trkpt>
      <trkpt lat="48.9884" lon="-0.55697">
        <ele>142</ele>
        <time>2018-06-17T08:20:25Z</time>
      </trkpt>
      <trkpt lat="48.98836" lon="-0.55706">
        <ele>147</ele>
        <time>2018-06-17T08:20:31Z</time>
      </trkpt>
      <trkpt lat="48.98833" lon="-0.55716">
        <ele>146</ele>
        <time>2018-06-17T08:20:37Z</time>
      </trkpt>
      <trkpt lat="48.98827" lon="-0.55726">
        <ele>147</ele>
        <time>2018-06-17T08:20:43Z</time>
      </trkpt>
      <trkpt lat="48.98821" lon="-0.55735">
        <ele>148</ele>
        <time>2018-06-17T08:20:47Z</time>
      </trkpt>
      <trkpt lat="48.98818" lon="-0.55743">
        <ele>148</ele>
        <time>2018-06-17T08:20:53Z</time>
      </trkpt>
      <trkpt lat="48.98818" lon="-0.55756">
        <ele>148</ele>
        <time>2018-06-17T08:20:59Z</time>
      </trkpt>
      <trkpt lat="48.98817" lon="-0.55768">
        <ele>148</ele>
        <time>2018-06-17T08:21:06Z</time>
      </trkpt>
      <trkpt lat="48.98818" lon="-0.55782">
        <ele>150</ele>
        <time>2018-06-17T08:21:14Z</time>
      </trkpt>
      <trkpt lat="48.98818" lon="-0.55794">
        <ele>150</ele>
        <time>2018-06-17T08:21:21Z</time>
      </trkpt>
      <trkpt lat="48.98818" lon="-0.55807">
        <ele>148</ele>
        <time>2018-06-17T08:21:28Z</time>
      </trkpt>
      <trkpt lat="48.9882" lon="-0.5582">
        <ele>148</ele>
        <time>2018-06-17T08:21:35Z</time>
      </trkpt>
      <trkpt lat="48.98822" lon="-0.55832">
        <ele>147</ele>
        <time>2018-06-17T08:21:42Z</time>
      </trkpt>
      <trkpt lat="48.98825" lon="-0.55842">
        <ele>145</ele>
        <time>2018-06-17T08:21:49Z</time>
      </trkpt>
      <trkpt lat="48.98827" lon="-0.55855">
        <ele>142</ele>
        <time>2018-06-17T08:21:57Z</time>
      </trkpt>
      <trkpt lat="48.98829" lon="-0.55868">
        <ele>146</ele>
        <time>2018-06-17T08:22:06Z</time>
      </trkpt>
      <trkpt lat="48.98832" lon="-0.5588">
        <ele>146</ele>
        <time>2018-06-17T08:22:16Z</time>
      </trkpt>
      <trkpt lat="48.98834" lon="-0.55893">
        <ele>147</ele>
        <time>2018-06-17T08:22:25Z</time>
      </trkpt>
      <trkpt lat="48.98837" lon="-0.55905">
        <ele>148</ele>
        <time>2018-06-17T08:22:35Z</time>
      </trkpt>
      <trkpt lat="48.98838" lon="-0.55916">
        <ele>153</ele>
        <time>2018-06-17T08:22:46Z</time>
      </trkpt>
      <trkpt lat="48.98837" lon="-0.55929">
        <ele>154</ele>
        <time>2018-06-17T08:22:53Z</time>
      </trkpt>
      <trkpt lat="48.98839" lon="-0.55941">
        <ele>154</ele>
        <time>2018-06-17T08:22:58Z</time>
      </trkpt>
      <trkpt lat="48.9884" lon="-0.55953">
        <ele>153</ele>
        <time>2018-06-17T08:23:08Z</time>
      </trkpt>
      <trkpt lat="48.98842" lon="-0.55966">
        <ele>153</ele>
        <time>2018-06-17T08:23:16Z</time>
      </trkpt>
      <trkpt lat="48.98845" lon="-0.55978">
        <ele>154</ele>
        <time>2018-06-17T08:23:23Z</time>
      </trkpt>
      <trkpt lat="48.98848" lon="-0.55991">
        <ele>156</ele>
        <time>2018-06-17T08:23:32Z</time>
      </trkpt>
      <trkpt lat="48.98849" lon="-0.56004">
        <ele>154</ele>
        <time>2018-06-17T08:23:40Z</time>
      </trkpt>
      <trkpt lat="48.98851" lon="-0.56017">
        <ele>156</ele>
        <time>2018-06-17T08:23:50Z</time>
      </trkpt>
      <trkpt lat="48.98853" lon="-0.56029">
        <ele>154</ele>
        <time>2018-06-17T08:23:57Z</time>
      </trkpt>
      <trkpt lat="48.98853" lon="-0.56042">
        <ele>153</ele>
        <time>2018-06-17T08:24:03Z</time>
      </trkpt>
      <trkpt lat="48.98855" lon="-0.56055">
        <ele>153</ele>
        <time>2018-06-17T08:24:11Z</time>
      </trkpt>
      <trkpt lat="48.98857" lon="-0.56067">
        <ele>152</ele>
        <time>2018-06-17T08:24:18Z</time>
      </trkpt>
      <trkpt lat="48.98857" lon="-0.5608">
        <ele>153</ele>
        <time>2018-06-17T08:24:26Z</time>
      </trkpt>
      <trkpt lat="48.98858" lon="-0.56092">
        <ele>154</ele>
        <time>2018-06-17T08:24:33Z</time>
      </trkpt>
      <trkpt lat="48.98859" lon="-0.56108">
        <ele>155</ele>
        <time>2018-06-17T08:24:37Z</time>
      </trkpt>
      <trkpt lat="48.98859" lon="-0.56121">
        <ele>153</ele>
        <time>2018-06-17T08:24:44Z</time>
      </trkpt>
      <trkpt lat="48.98859" lon="-0.56133">
        <ele>155</ele>
        <time>2018-06-17T08:24:52Z</time>
      </trkpt>
      <trkpt lat="48.9886" lon="-0.56147">
        <ele>155</ele>
        <time>2018-06-17T08:25:07Z</time>
      </trkpt>
      <trkpt lat="48.98861" lon="-0.5616">
        <ele>156</ele>
        <time>2018-06-17T08:25:15Z</time>
      </trkpt>
      <trkpt lat="48.98861" lon="-0.56173">
        <ele>155</ele>
        <time>2018-06-17T08:25:23Z</time>
      </trkpt>
      <trkpt lat="48.98862" lon="-0.56186">
        <ele>154</ele>
        <time>2018-06-17T08:25:31Z</time>
      </trkpt>
      <trkpt lat="48.98866" lon="-0.56197">
        <ele>158</ele>
        <time>2018-06-17T08:25:40Z</time>
      </trkpt>
      <trkpt lat="48.98869" lon="-0.56208">
        <ele>157</ele>
        <time>2018-06-17T08:25:48Z</time>
      </trkpt>
      <trkpt lat="48.9887" lon="-0.56221">
        <ele>156</ele>
        <time>2018-06-17T08:25:55Z</time>
      </trkpt>
      <trkpt lat="48.98872" lon="-0.56234">
        <ele>155</ele>
        <time>2018-06-17T08:26:03Z</time>
      </trkpt>
      <trkpt lat="48.98872" lon="-0.56241">
        <ele>154</ele>
        <time>2018-06-17T08:26:16Z</time>
      </trkpt>
      <trkpt lat="48.98873" lon="-0.56253">
        <ele>154</ele>
        <time>2018-06-17T08:26:20Z</time>
      </trkpt>
      <trkpt lat="48.98876" lon="-0.56263">
        <ele>152</ele>
        <time>2018-06-17T08:26:25Z</time>
      </trkpt>
      <trkpt lat="48.98879" lon="-0.56275">
        <ele>155</ele>
        <time>2018-06-17T08:26:34Z</time>
      </trkpt>
      <trkpt lat="48.98877" lon="-0.56283">
        <ele>156</ele>
        <time>2018-06-17T08:26:56Z</time>
      </trkpt>
      <trkpt lat="48.98872" lon="-0.56293">
        <ele>154</ele>
        <time>2018-06-17T08:27:29Z</time>
      </trkpt>
      <trkpt lat="48.98866" lon="-0.56302">
        <ele>153</ele>
        <time>2018-06-17T08:27:34Z</time>
      </trkpt>
      <trkpt lat="48.98859" lon="-0.5631">
        <ele>149</ele>
        <time>2018-06-17T08:27:42Z</time>
      </trkpt>
      <trkpt lat="48.98856" lon="-0.56323">
        <ele>149</ele>
        <time>2018-06-17T08:27:52Z</time>
      </trkpt>
      <trkpt lat="48.98851" lon="-0.56332">
        <ele>147</ele>
        <time>2018-06-17T08:28:00Z</time>
      </trkpt>
      <trkpt lat="48.98844" lon="-0.5634">
        <ele>146</ele>
        <time>2018-06-17T08:28:09Z</time>
      </trkpt>
      <trkpt lat="48.98841" lon="-0.5635">
        <ele>144</ele>
        <time>2018-06-17T08:28:19Z</time>
      </trkpt>
      <trkpt lat="48.98835" lon="-0.5636">
        <ele>145</ele>
        <time>2018-06-17T08:28:27Z</time>
      </trkpt>
      <trkpt lat="48.98829" lon="-0.56369">
        <ele>146</ele>
        <time>2018-06-17T08:28:39Z</time>
      </trkpt>
      <trkpt lat="48.98823" lon="-0.56378">
        <ele>143</ele>
        <time>2018-06-17T08:29:40Z</time>
      </trkpt>
      <trkpt lat="48.98819" lon="-0.56389">
        <ele>140</ele>
        <time>2018-06-17T08:29:51Z</time>
      </trkpt>
      <trkpt lat="48.98819" lon="-0.56401">
        <ele>139</ele>
        <time>2018-06-17T08:29:58Z</time>
      </trkpt>
      <trkpt lat="48.98817" lon="-0.56414">
        <ele>144</ele>
        <time>2018-06-17T08:30:09Z</time>
      </trkpt>
      <trkpt lat="48.98816" lon="-0.56426">
        <ele>145</ele>
        <time>2018-06-17T08:30:19Z</time>
      </trkpt>
      <trkpt lat="48.9881" lon="-0.56435">
        <ele>143</ele>
        <time>2018-06-17T08:30:25Z</time>
      </trkpt>
      <trkpt lat="48.98804" lon="-0.56445">
        <ele>145</ele>
        <time>2018-06-17T08:30:36Z</time>
      </trkpt>
      <trkpt lat="48.98797" lon="-0.5645">
        <ele>141</ele>
        <time>2018-06-17T08:30:52Z</time>
      </trkpt>
      <trkpt lat="48.9879" lon="-0.56458">
        <ele>143</ele>
        <time>2018-06-17T08:31:00Z</time>
      </trkpt>
      <trkpt lat="48.98784" lon="-0.56466">
        <ele>144</ele>
        <time>2018-06-17T08:31:07Z</time>
      </trkpt>
      <trkpt lat="48.98778" lon="-0.56473">
        <ele>142</ele>
        <time>2018-06-17T08:31:16Z</time>
      </trkpt>
      <trkpt lat="48.98771" lon="-0.5648">
        <ele>145</ele>
        <time>2018-06-17T08:31:24Z</time>
      </trkpt>
      <trkpt lat="48.98763" lon="-0.56484">
        <ele>143</ele>
        <time>2018-06-17T08:31:36Z</time>
      </trkpt>
      <trkpt lat="48.98756" lon="-0.56489">
        <ele>146</ele>
        <time>2018-06-17T08:31:44Z</time>
      </trkpt>
      <trkpt lat="48.98747" lon="-0.56492">
        <ele>145</ele>
        <time>2018-06-17T08:31:51Z</time>
      </trkpt>
      <trkpt lat="48.98739" lon="-0.56488">
        <ele>144</ele>
        <time>2018-06-17T08:32:08Z</time>
      </trkpt>
      <trkpt lat="48.98731" lon="-0.56487">
        <ele>143</ele>
        <time>2018-06-17T08:32:15Z</time>
      </trkpt>
      <trkpt lat="48.98723" lon="-0.5649">
        <ele>139</ele>
        <time>2018-06-17T08:32:23Z</time>
      </trkpt>
      <trkpt lat="48.98715" lon="-0.56492">
        <ele>136</ele>
        <time>2018-06-17T08:32:32Z</time>
      </trkpt>
      <trkpt lat="48.98708" lon="-0.56496">
        <ele>140</ele>
        <time>2018-06-17T08:32:41Z</time>
      </trkpt>
      <trkpt lat="48.98699" lon="-0.56501">
        <ele>141</ele>
        <time>2018-06-17T08:32:49Z</time>
      </trkpt>
      <trkpt lat="48.98688" lon="-0.56508">
        <ele>144</ele>
        <time>2018-06-17T08:32:54Z</time>
      </trkpt>
      <trkpt lat="48.9868" lon="-0.56513">
        <ele>149</ele>
        <time>2018-06-17T08:33:04Z</time>
      </trkpt>
      <trkpt lat="48.98672" lon="-0.56516">
        <ele>149</ele>
        <time>2018-06-17T08:33:12Z</time>
      </trkpt>
      <trkpt lat="48.98665" lon="-0.56522">
        <ele>147</ele>
        <time>2018-06-17T08:33:20Z</time>
      </trkpt>
      <trkpt lat="48.98657" lon="-0.56528">
        <ele>145</ele>
        <time>2018-06-17T08:33:28Z</time>
      </trkpt>
      <trkpt lat="48.98648" lon="-0.56532">
        <ele>144</ele>
        <time>2018-06-17T08:33:38Z</time>
      </trkpt>
      <trkpt lat="48.98641" lon="-0.56539">
        <ele>144</ele>
        <time>2018-06-17T08:33:45Z</time>
      </trkpt>
      <trkpt lat="48.98634" lon="-0.56545">
        <ele>143</ele>
        <time>2018-06-17T08:33:53Z</time>
      </trkpt>
      <trkpt lat="48.98627" lon="-0.56553">
        <ele>146</ele>
        <time>2018-06-17T08:34:02Z</time>
      </trkpt>
      <trkpt lat="48.98619" lon="-0.56558">
        <ele>146</ele>
        <time>2018-06-17T08:34:09Z</time>
      </trkpt>
      <trkpt lat="48.98612" lon="-0.56564">
        <ele>147</ele>
        <time>2018-06-17T08:34:17Z</time>
      </trkpt>
      <trkpt lat="48.98605" lon="-0.56572">
        <ele>146</ele>
        <time>2018-06-17T08:34:26Z</time>
      </trkpt>
      <trkpt lat="48.98596" lon="-0.56575">
        <ele>144</ele>
        <time>2018-06-17T08:34:57Z</time>
      </trkpt>
      <trkpt lat="48.9859" lon="-0.56581">
        <ele>147</ele>
        <time>2018-06-17T08:35:05Z</time>
      </trkpt>
      <trkpt lat="48.98583" lon="-0.56588">
        <ele>147</ele>
        <time>2018-06-17T08:35:13Z</time>
      </trkpt>
      <trkpt lat="48.98576" lon="-0.56594">
        <ele>149</ele>
        <time>2018-06-17T08:35:20Z</time>
      </trkpt>
      <trkpt lat="48.98569" lon="-0.56601">
        <ele>150</ele>
        <time>2018-06-17T08:35:29Z</time>
      </trkpt>
      <trkpt lat="48.98561" lon="-0.56607">
        <ele>151</ele>
        <time>2018-06-17T08:35:37Z</time>
      </trkpt>
      <trkpt lat="48.98553" lon="-0.56612">
        <ele>152</ele>
        <time>2018-06-17T08:35:45Z</time>
      </trkpt>
      <trkpt lat="48.98545" lon="-0.56617">
        <ele>151</ele>
        <time>2018-06-17T08:35:52Z</time>
      </trkpt>
      <trkpt lat="48.98538" lon="-0.56625">
        <ele>151</ele>
        <time>2018-06-17T08:36:00Z</time>
      </trkpt>
      <trkpt lat="48.98531" lon="-0.56632">
        <ele>153</ele>
        <time>2018-06-17T08:36:07Z</time>
      </trkpt>
      <trkpt lat="48.98524" lon="-0.56639">
        <ele>154</ele>
        <time>2018-06-17T08:36:17Z</time>
      </trkpt>
      <trkpt lat="48.98517" lon="-0.56646">
        <ele>154</ele>
        <time>2018-06-17T08:36:25Z</time>
      </trkpt>
      <trkpt lat="48.9851" lon="-0.56652">
        <ele>154</ele>
        <time>2018-06-17T08:36:32Z</time>
      </trkpt>
      <trkpt lat="48.98502" lon="-0.56657">
        <ele>157</ele>
        <time>2018-06-17T08:36:40Z</time>
      </trkpt>
      <trkpt lat="48.98496" lon="-0.56667">
        <ele>157</ele>
        <time>2018-06-17T08:36:47Z</time>
      </trkpt>
      <trkpt lat="48.98489" lon="-0.56674">
        <ele>156</ele>
        <time>2018-06-17T08:36:55Z</time>
      </trkpt>
      <trkpt lat="48.98483" lon="-0.56683">
        <ele>150</ele>
        <time>2018-06-17T08:37:36Z</time>
      </trkpt>
      <trkpt lat="48.98481" lon="-0.56697">
        <ele>153</ele>
        <time>2018-06-17T08:37:47Z</time>
      </trkpt>
      <trkpt lat="48.98481" lon="-0.5671">
        <ele>159</ele>
        <time>2018-06-17T08:39:45Z</time>
      </trkpt>
      <trkpt lat="48.9848" lon="-0.56722">
        <ele>160</ele>
        <time>2018-06-17T08:39:54Z</time>
      </trkpt>
      <trkpt lat="48.98479" lon="-0.56735">
        <ele>159</ele>
        <time>2018-06-17T08:40:01Z</time>
      </trkpt>
      <trkpt lat="48.98478" lon="-0.56748">
        <ele>160</ele>
        <time>2018-06-17T08:40:09Z</time>
      </trkpt>
      <trkpt lat="48.98479" lon="-0.56761">
        <ele>162</ele>
        <time>2018-06-17T08:40:46Z</time>
      </trkpt>
      <trkpt lat="48.98478" lon="-0.56774">
        <ele>162</ele>
        <time>2018-06-17T08:40:52Z</time>
      </trkpt>
      <trkpt lat="48.98476" lon="-0.56787">
        <ele>165</ele>
        <time>2018-06-17T08:41:00Z</time>
      </trkpt>
      <trkpt lat="48.9847" lon="-0.56796">
        <ele>168</ele>
        <time>2018-06-17T08:41:13Z</time>
      </trkpt>
      <trkpt lat="48.98464" lon="-0.56803">
        <ele>169</ele>
        <time>2018-06-17T08:41:22Z</time>
      </trkpt>
      <trkpt lat="48.98455" lon="-0.56804">
        <ele>165</ele>
        <time>2018-06-17T08:41:31Z</time>
      </trkpt>
      <trkpt lat="48.9845" lon="-0.56805">
        <ele>164</ele>
        <time>2018-06-17T08:42:05Z</time>
      </trkpt>
      <trkpt lat="48.98442" lon="-0.56803">
        <ele>161</ele>
        <time>2018-06-17T08:42:10Z</time>
      </trkpt>
      <trkpt lat="48.98432" lon="-0.56806">
        <ele>161</ele>
        <time>2018-06-17T08:42:15Z</time>
      </trkpt>
      <trkpt lat="48.98426" lon="-0.56818">
        <ele>162</ele>
        <time>2018-06-17T08:42:19Z</time>
      </trkpt>
      <trkpt lat="48.98418" lon="-0.56812">
        <ele>164</ele>
        <time>2018-06-17T08:42:35Z</time>
      </trkpt>
      <trkpt lat="48.9841" lon="-0.56819">
        <ele>169</ele>
        <time>2018-06-17T08:42:56Z</time>
      </trkpt>
      <trkpt lat="48.98402" lon="-0.56826">
        <ele>171</ele>
        <time>2018-06-17T08:43:06Z</time>
      </trkpt>
      <trkpt lat="48.98395" lon="-0.56828">
        <ele>170</ele>
        <time>2018-06-17T08:43:19Z</time>
      </trkpt>
      <trkpt lat="48.98387" lon="-0.56833">
        <ele>174</ele>
        <time>2018-06-17T08:43:25Z</time>
      </trkpt>
      <trkpt lat="48.98382" lon="-0.56842">
        <ele>176</ele>
        <time>2018-06-17T08:43:46Z</time>
      </trkpt>
      <trkpt lat="48.98377" lon="-0.56852">
        <ele>179</ele>
        <time>2018-06-17T08:43:52Z</time>
      </trkpt>
      <trkpt lat="48.9837" lon="-0.56859">
        <ele>180</ele>
        <time>2018-06-17T08:43:57Z</time>
      </trkpt>
      <trkpt lat="48.98365" lon="-0.56869">
        <ele>184</ele>
        <time>2018-06-17T08:44:06Z</time>
      </trkpt>
      <trkpt lat="48.98359" lon="-0.56879">
        <ele>185</ele>
        <time>2018-06-17T08:44:17Z</time>
      </trkpt>
      <trkpt lat="48.98352" lon="-0.56887">
        <ele>188</ele>
        <time>2018-06-17T08:44:43Z</time>
      </trkpt>
      <trkpt lat="48.98346" lon="-0.56894">
        <ele>187</ele>
        <time>2018-06-17T08:44:50Z</time>
      </trkpt>
      <trkpt lat="48.98339" lon="-0.56902">
        <ele>192</ele>
        <time>2018-06-17T08:44:56Z</time>
      </trkpt>
      <trkpt lat="48.98334" lon="-0.56912">
        <ele>195</ele>
        <time>2018-06-17T08:45:04Z</time>
      </trkpt>
      <trkpt lat="48.98327" lon="-0.56915">
        <ele>192</ele>
        <time>2018-06-17T08:45:09Z</time>
      </trkpt>
      <trkpt lat="48.9832" lon="-0.56922">
        <ele>196</ele>
        <time>2018-06-17T08:45:17Z</time>
      </trkpt>
      <trkpt lat="48.98311" lon="-0.56925">
        <ele>197</ele>
        <time>2018-06-17T08:45:41Z</time>
      </trkpt>
      <trkpt lat="48.98303" lon="-0.56927">
        <ele>195</ele>
        <time>2018-06-17T08:46:13Z</time>
      </trkpt>
      <trkpt lat="48.98307" lon="-0.56938">
        <ele>192</ele>
        <time>2018-06-17T08:47:32Z</time>
      </trkpt>
      <trkpt lat="48.98313" lon="-0.56949">
        <ele>193</ele>
        <time>2018-06-17T08:47:38Z</time>
      </trkpt>
      <trkpt lat="48.98315" lon="-0.56961">
        <ele>191</ele>
        <time>2018-06-17T08:47:44Z</time>
      </trkpt>
      <trkpt lat="48.98318" lon="-0.56973">
        <ele>191</ele>
        <time>2018-06-17T08:47:51Z</time>
      </trkpt>
      <trkpt lat="48.98324" lon="-0.56984">
        <ele>193</ele>
        <time>2018-06-17T08:48:01Z</time>
      </trkpt>
      <trkpt lat="48.98331" lon="-0.56992">
        <ele>194</ele>
        <time>2018-06-17T08:48:12Z</time>
      </trkpt>
      <trkpt lat="48.98335" lon="-0.57003">
        <ele>193</ele>
        <time>2018-06-17T08:48:23Z</time>
      </trkpt>
      <trkpt lat="48.98338" lon="-0.57014">
        <ele>193</ele>
        <time>2018-06-17T08:48:28Z</time>
      </trkpt>
      <trkpt lat="48.98343" lon="-0.57025">
        <ele>189</ele>
        <time>2018-06-17T08:48:34Z</time>
      </trkpt>
      <trkpt lat="48.9835" lon="-0.57031">
        <ele>191</ele>
        <time>2018-06-17T08:48:43Z</time>
      </trkpt>
      <trkpt lat="48.98359" lon="-0.57027">
        <ele>194</ele>
        <time>2018-06-17T08:48:48Z</time>
      </trkpt>
      <trkpt lat="48.98366" lon="-0.57035">
        <ele>197</ele>
        <time>2018-06-17T08:49:01Z</time>
      </trkpt>
      <trkpt lat="48.98373" lon="-0.57037">
        <ele>196</ele>
        <time>2018-06-17T08:49:07Z</time>
      </trkpt>
      <trkpt lat="48.98381" lon="-0.57041">
        <ele>193</ele>
        <time>2018-06-17T08:49:14Z</time>
      </trkpt>
      <trkpt lat="48.98386" lon="-0.5705">
        <ele>193</ele>
        <time>2018-06-17T08:49:19Z</time>
      </trkpt>
      <trkpt lat="48.98393" lon="-0.57059">
        <ele>192</ele>
        <time>2018-06-17T08:49:27Z</time>
      </trkpt>
      <trkpt lat="48.98397" lon="-0.57071">
        <ele>190</ele>
        <time>2018-06-17T08:49:37Z</time>
      </trkpt>
      <trkpt lat="48.984" lon="-0.57084">
        <ele>191</ele>
        <time>2018-06-17T08:49:44Z</time>
      </trkpt>
      <trkpt lat="48.98402" lon="-0.57095">
        <ele>191</ele>
        <time>2018-06-17T08:49:51Z</time>
      </trkpt>
      <trkpt lat="48.98407" lon="-0.57104">
        <ele>190</ele>
        <time>2018-06-17T08:49:59Z</time>
      </trkpt>
      <trkpt lat="48.98411" lon="-0.57115">
        <ele>193</ele>
        <time>2018-06-17T08:50:06Z</time>
      </trkpt>
      <trkpt lat="48.98416" lon="-0.57126">
        <ele>194</ele>
        <time>2018-06-17T08:50:13Z</time>
      </trkpt>
      <trkpt lat="48.98421" lon="-0.57136">
        <ele>196</ele>
        <time>2018-06-17T08:50:22Z</time>
      </trkpt>
      <trkpt lat="48.98424" lon="-0.57146">
        <ele>196</ele>
        <time>2018-06-17T08:50:31Z</time>
      </trkpt>
      <trkpt lat="48.98427" lon="-0.57159">
        <ele>197</ele>
        <time>2018-06-17T08:50:40Z</time>
      </trkpt>
      <trkpt lat="48.98426" lon="-0.57172">
        <ele>196</ele>
        <time>2018-06-17T08:50:47Z</time>
      </trkpt>
      <trkpt lat="48.98426" lon="-0.57185">
        <ele>195</ele>
        <time>2018-06-17T08:50:57Z</time>
      </trkpt>
      <trkpt lat="48.9843" lon="-0.57198">
        <ele>197</ele>
        <time>2018-06-17T08:51:01Z</time>
      </trkpt>
      <trkpt lat="48.9843" lon="-0.57212">
        <ele>203</ele>
        <time>2018-06-17T08:51:16Z</time>
      </trkpt>
      <trkpt lat="48.98434" lon="-0.57221">
        <ele>203</ele>
        <time>2018-06-17T08:51:24Z</time>
      </trkpt>
      <trkpt lat="48.98438" lon="-0.57233">
        <ele>206</ele>
        <time>2018-06-17T08:51:40Z</time>
      </trkpt>
      <trkpt lat="48.98442" lon="-0.57245">
        <ele>206</ele>
        <time>2018-06-17T08:51:50Z</time>
      </trkpt>
      <trkpt lat="48.98446" lon="-0.57257">
        <ele>206</ele>
        <time>2018-06-17T08:51:56Z</time>
      </trkpt>
      <trkpt lat="48.9845" lon="-0.57268">
        <ele>214</ele>
        <time>2018-06-17T08:52:11Z</time>
      </trkpt>
      <trkpt lat="48.98451" lon="-0.5728">
        <ele>211</ele>
        <time>2018-06-17T08:52:16Z</time>
      </trkpt>
      <trkpt lat="48.98456" lon="-0.57288">
        <ele>213</ele>
        <time>2018-06-17T08:52:21Z</time>
      </trkpt>
      <trkpt lat="48.98458" lon="-0.573">
        <ele>213</ele>
        <time>2018-06-17T08:52:31Z</time>
      </trkpt>
      <trkpt lat="48.98457" lon="-0.57312">
        <ele>215</ele>
        <time>2018-06-17T08:52:41Z</time>
      </trkpt>
      <trkpt lat="48.98454" lon="-0.57324">
        <ele>215</ele>
        <time>2018-06-17T08:53:19Z</time>
      </trkpt>
      <trkpt lat="48.9845" lon="-0.57333">
        <ele>217</ele>
        <time>2018-06-17T08:53:24Z</time>
      </trkpt>
      <trkpt lat="48.98446" lon="-0.57344">
        <ele>220</ele>
        <time>2018-06-17T08:53:29Z</time>
      </trkpt>
      <trkpt lat="48.98443" lon="-0.57356">
        <ele>223</ele>
        <time>2018-06-17T08:53:36Z</time>
      </trkpt>
      <trkpt lat="48.98448" lon="-0.57369">
        <ele>222</ele>
        <time>2018-06-17T08:53:41Z</time>
      </trkpt>
      <trkpt lat="48.98446" lon="-0.57381">
        <ele>221</ele>
        <time>2018-06-17T08:53:48Z</time>
      </trkpt>
      <trkpt lat="48.98445" lon="-0.57392">
        <ele>227</ele>
        <time>2018-06-17T08:54:34Z</time>
      </trkpt>
      <trkpt lat="48.98444" lon="-0.57403">
        <ele>226</ele>
        <time>2018-06-17T08:54:38Z</time>
      </trkpt>
      <trkpt lat="48.98444" lon="-0.57416">
        <ele>230</ele>
        <time>2018-06-17T08:54:46Z</time>
      </trkpt>
      <trkpt lat="48.98437" lon="-0.57425">
        <ele>237</ele>
        <time>2018-06-17T08:54:56Z</time>
      </trkpt>
      <trkpt lat="48.98437" lon="-0.57439">
        <ele>238</ele>
        <time>2018-06-17T08:55:06Z</time>
      </trkpt>
      <trkpt lat="48.9844" lon="-0.5745">
        <ele>233</ele>
        <time>2018-06-17T08:55:26Z</time>
      </trkpt>
      <trkpt lat="48.98445" lon="-0.57461">
        <ele>233</ele>
        <time>2018-06-17T08:55:32Z</time>
      </trkpt>
      <trkpt lat="48.9845" lon="-0.57477">
        <ele>228</ele>
        <time>2018-06-17T08:55:37Z</time>
      </trkpt>
      <trkpt lat="48.98451" lon="-0.57488">
        <ele>232</ele>
        <time>2018-06-17T08:55:43Z</time>
      </trkpt>
      <trkpt lat="48.98455" lon="-0.57499">
        <ele>228</ele>
        <time>2018-06-17T08:55:50Z</time>
      </trkpt>
      <trkpt lat="48.98451" lon="-0.57511">
        <ele>237</ele>
        <time>2018-06-17T08:56:00Z</time>
      </trkpt>
      <trkpt lat="48.98449" lon="-0.57523">
        <ele>239</ele>
        <time>2018-06-17T08:56:34Z</time>
      </trkpt>
      <trkpt lat="48.98447" lon="-0.57536">
        <ele>241</ele>
        <time>2018-06-17T08:56:40Z</time>
      </trkpt>
      <trkpt lat="48.98443" lon="-0.57547">
        <ele>244</ele>
        <time>2018-06-17T08:56:47Z</time>
      </trkpt>
      <trkpt lat="48.98447" lon="-0.57557">
        <ele>243</ele>
        <time>2018-06-17T08:56:54Z</time>
      </trkpt>
      <trkpt lat="48.98449" lon="-0.57568">
        <ele>243</ele>
        <time>2018-06-17T08:57:05Z</time>
      </trkpt>
      <trkpt lat="48.98452" lon="-0.5758">
        <ele>242</ele>
        <time>2018-06-17T08:57:15Z</time>
      </trkpt>
      <trkpt lat="48.98454" lon="-0.57592">
        <ele>242</ele>
        <time>2018-06-17T08:57:22Z</time>
      </trkpt>
      <trkpt lat="48.98456" lon="-0.57604">
        <ele>241</ele>
        <time>2018-06-17T08:57:30Z</time>
      </trkpt>
      <trkpt lat="48.98457" lon="-0.57616">
        <ele>241</ele>
        <time>2018-06-17T08:57:38Z</time>
      </trkpt>
      <trkpt lat="48.98461" lon="-0.57627">
        <ele>238</ele>
        <time>2018-06-17T08:57:44Z</time>
      </trkpt>
      <trkpt lat="48.98456" lon="-0.57638">
        <ele>235</ele>
        <time>2018-06-17T08:57:56Z</time>
      </trkpt>
      <trkpt lat="48.98455" lon="-0.5765">
        <ele>236</ele>
        <time>2018-06-17T08:58:08Z</time>
      </trkpt>
      <trkpt lat="48.98457" lon="-0.57661">
        <ele>235</ele>
        <time>2018-06-17T08:58:13Z</time>
      </trkpt>
      <trkpt lat="48.98456" lon="-0.57675">
        <ele>233</ele>
        <time>2018-06-17T08:58:19Z</time>
      </trkpt>
      <trkpt lat="48.98455" lon="-0.57688">
        <ele>234</ele>
        <time>2018-06-17T08:58:28Z</time>
      </trkpt>
      <trkpt lat="48.98455" lon="-0.577">
        <ele>234</ele>
        <time>2018-06-17T08:58:41Z</time>
      </trkpt>
      <trkpt lat="48.98456" lon="-0.57713">
        <ele>235</ele>
        <time>2018-06-17T08:58:47Z</time>
      </trkpt>
      <trkpt lat="48.98457" lon="-0.57725">
        <ele>234</ele>
        <time>2018-06-17T08:58:57Z</time>
      </trkpt>
      <trkpt lat="48.98457" lon="-0.57736">
        <ele>231</ele>
        <time>2018-06-17T08:59:28Z</time>
      </trkpt>
      <trkpt lat="48.98462" lon="-0.57747">
        <ele>231</ele>
        <time>2018-06-17T08:59:38Z</time>
      </trkpt>
      <trkpt lat="48.98462" lon="-0.5776">
        <ele>232</ele>
        <time>2018-06-17T08:59:46Z</time>
      </trkpt>
      <trkpt lat="48.98462" lon="-0.57772">
        <ele>235</ele>
        <time>2018-06-17T08:59:53Z</time>
      </trkpt>
      <trkpt lat="48.98464" lon="-0.57785">
        <ele>237</ele>
        <time>2018-06-17T09:00:01Z</time>
      </trkpt>
      <trkpt lat="48.98463" lon="-0.57797">
        <ele>235</ele>
        <time>2018-06-17T09:00:09Z</time>
      </trkpt>
      <trkpt lat="48.98464" lon="-0.5781">
        <ele>237</ele>
        <time>2018-06-17T09:00:16Z</time>
      </trkpt>
      <trkpt lat="48.98466" lon="-0.57821">
        <ele>236</ele>
        <time>2018-06-17T09:00:22Z</time>
      </trkpt>
      <trkpt lat="48.98467" lon="-0.57834">
        <ele>238</ele>
        <time>2018-06-17T09:00:36Z</time>
      </trkpt>
      <trkpt lat="48.9847" lon="-0.57846">
        <ele>239</ele>
        <time>2018-06-17T09:00:45Z</time>
      </trkpt>
      <trkpt lat="48.98473" lon="-0.57856">
        <ele>238</ele>
        <time>2018-06-17T09:00:52Z</time>
      </trkpt>
      <trkpt lat="48.98474" lon="-0.57868">
        <ele>236</ele>
        <time>2018-06-17T09:00:59Z</time>
      </trkpt>
      <trkpt lat="48.98477" lon="-0.5788">
        <ele>238</ele>
        <time>2018-06-17T09:01:07Z</time>
      </trkpt>
      <trkpt lat="48.98475" lon="-0.57892">
        <ele>237</ele>
        <time>2018-06-17T09:01:13Z</time>
      </trkpt>
      <trkpt lat="48.98476" lon="-0.57905">
        <ele>234</ele>
        <time>2018-06-17T09:01:21Z</time>
      </trkpt>
      <trkpt lat="48.98478" lon="-0.57917">
        <ele>236</ele>
        <time>2018-06-17T09:01:29Z</time>
      </trkpt>
      <trkpt lat="48.98478" lon="-0.5793">
        <ele>241</ele>
        <time>2018-06-17T09:01:42Z</time>
      </trkpt>
      <trkpt lat="48.98479" lon="-0.57944">
        <ele>242</ele>
        <time>2018-06-17T09:01:49Z</time>
      </trkpt>
      <trkpt lat="48.98476" lon="-0.57957">
        <ele>241</ele>
        <time>2018-06-17T09:01:57Z</time>
      </trkpt>
      <trkpt lat="48.98475" lon="-0.5797">
        <ele>240</ele>
        <time>2018-06-17T09:02:06Z</time>
      </trkpt>
      <trkpt lat="48.98477" lon="-0.57982">
        <ele>239</ele>
        <time>2018-06-17T09:02:14Z</time>
      </trkpt>
      <trkpt lat="48.98478" lon="-0.57995">
        <ele>243</ele>
        <time>2018-06-17T09:02:22Z</time>
      </trkpt>
      <trkpt lat="48.98483" lon="-0.58006">
        <ele>247</ele>
        <time>2018-06-17T09:02:30Z</time>
      </trkpt>
      <trkpt lat="48.98484" lon="-0.58018">
        <ele>246</ele>
        <time>2018-06-17T09:02:37Z</time>
      </trkpt>
      <trkpt lat="48.98484" lon="-0.58029">
        <ele>244</ele>
        <time>2018-06-17T09:02:52Z</time>
      </trkpt>
      <trkpt lat="48.98485" lon="-0.58041">
        <ele>242</ele>
        <time>2018-06-17T09:02:59Z</time>
      </trkpt>
      <trkpt lat="48.98488" lon="-0.58054">
        <ele>242</ele>
        <time>2018-06-17T09:03:06Z</time>
      </trkpt>
      <trkpt lat="48.9849" lon="-0.58067">
        <ele>245</ele>
        <time>2018-06-17T09:03:13Z</time>
      </trkpt>
      <trkpt lat="48.98493" lon="-0.58078">
        <ele>246</ele>
        <time>2018-06-17T09:03:20Z</time>
      </trkpt>
      <trkpt lat="48.98493" lon="-0.58091">
        <ele>243</ele>
        <time>2018-06-17T09:03:27Z</time>
      </trkpt>
      <trkpt lat="48.98492" lon="-0.58104">
        <ele>243</ele>
        <time>2018-06-17T09:03:41Z</time>
      </trkpt>
      <trkpt lat="48.98491" lon="-0.58114">
        <ele>246</ele>
        <time>2018-06-17T09:03:51Z</time>
      </trkpt>
      <trkpt lat="48.98492" lon="-0.58125">
        <ele>246</ele>
        <time>2018-06-17T09:03:56Z</time>
      </trkpt>
      <trkpt lat="48.98492" lon="-0.58138">
        <ele>247</ele>
        <time>2018-06-17T09:04:04Z</time>
      </trkpt>
      <trkpt lat="48.98491" lon="-0.5815">
        <ele>247</ele>
        <time>2018-06-17T09:04:09Z</time>
      </trkpt>
      <trkpt lat="48.98484" lon="-0.58158">
        <ele>245</ele>
        <time>2018-06-17T09:04:17Z</time>
      </trkpt>
      <trkpt lat="48.98487" lon="-0.58171">
        <ele>251</ele>
        <time>2018-06-17T09:05:23Z</time>
      </trkpt>
      <trkpt lat="48.98483" lon="-0.5819">
        <ele>251</ele>
        <time>2018-06-17T09:05:28Z</time>
      </trkpt>
      <trkpt lat="48.9848" lon="-0.58202">
        <ele>249</ele>
        <time>2018-06-17T09:05:50Z</time>
      </trkpt>
      <trkpt lat="48.98477" lon="-0.58214">
        <ele>251</ele>
        <time>2018-06-17T09:05:59Z</time>
      </trkpt>
      <trkpt lat="48.98479" lon="-0.58227">
        <ele>257</ele>
        <time>2018-06-17T09:06:07Z</time>
      </trkpt>
      <trkpt lat="48.98475" lon="-0.58239">
        <ele>252</ele>
        <time>2018-06-17T09:06:13Z</time>
      </trkpt>
      <trkpt lat="48.98471" lon="-0.5825">
        <ele>254</ele>
        <time>2018-06-17T09:06:31Z</time>
      </trkpt>
      <trkpt lat="48.98476" lon="-0.58262">
        <ele>252</ele>
        <time>2018-06-17T09:06:57Z</time>
      </trkpt>
      <trkpt lat="48.98481" lon="-0.58271">
        <ele>254</ele>
        <time>2018-06-17T09:07:07Z</time>
      </trkpt>
      <trkpt lat="48.98487" lon="-0.5828">
        <ele>254</ele>
        <time>2018-06-17T09:07:12Z</time>
      </trkpt>
      <trkpt lat="48.98493" lon="-0.58288">
        <ele>251</ele>
        <time>2018-06-17T09:07:26Z</time>
      </trkpt>
      <trkpt lat="48.98499" lon="-0.58298">
        <ele>251</ele>
        <time>2018-06-17T09:07:43Z</time>
      </trkpt>
      <trkpt lat="48.98506" lon="-0.58307">
        <ele>251</ele>
        <time>2018-06-17T09:07:47Z</time>
      </trkpt>
      <trkpt lat="48.98511" lon="-0.58316">
        <ele>251</ele>
        <time>2018-06-17T09:07:56Z</time>
      </trkpt>
      <trkpt lat="48.98516" lon="-0.58325">
        <ele>246</ele>
        <time>2018-06-17T09:08:04Z</time>
      </trkpt>
      <trkpt lat="48.98523" lon="-0.58333">
        <ele>247</ele>
        <time>2018-06-17T09:08:24Z</time>
      </trkpt>
      <trkpt lat="48.98527" lon="-0.58344">
        <ele>245</ele>
        <time>2018-06-17T09:08:32Z</time>
      </trkpt>
      <trkpt lat="48.98532" lon="-0.58354">
        <ele>242</ele>
        <time>2018-06-17T09:08:37Z</time>
      </trkpt>
      <trkpt lat="48.98536" lon="-0.58365">
        <ele>242</ele>
        <time>2018-06-17T09:08:46Z</time>
      </trkpt>
      <trkpt lat="48.98542" lon="-0.58373">
        <ele>241</ele>
        <time>2018-06-17T09:08:53Z</time>
      </trkpt>
      <trkpt lat="48.98547" lon="-0.58382">
        <ele>240</ele>
        <time>2018-06-17T09:08:58Z</time>
      </trkpt>
      <trkpt lat="48.98552" lon="-0.58393">
        <ele>241</ele>
        <time>2018-06-17T09:09:07Z</time>
      </trkpt>
      <trkpt lat="48.98557" lon="-0.584">
        <ele>240</ele>
        <time>2018-06-17T09:09:14Z</time>
      </trkpt>
      <trkpt lat="48.98562" lon="-0.58411">
        <ele>236</ele>
        <time>2018-06-17T09:09:22Z</time>
      </trkpt>
      <trkpt lat="48.98566" lon="-0.58422">
        <ele>234</ele>
        <time>2018-06-17T09:09:31Z</time>
      </trkpt>
      <trkpt lat="48.98571" lon="-0.5843">
        <ele>234</ele>
        <time>2018-06-17T09:09:36Z</time>
      </trkpt>
      <trkpt lat="48.98576" lon="-0.58438">
        <ele>236</ele>
        <time>2018-06-17T09:09:44Z</time>
      </trkpt>
      <trkpt lat="48.98582" lon="-0.58444">
        <ele>238</ele>
        <time>2018-06-17T09:09:50Z</time>
      </trkpt>
      <trkpt lat="48.98582" lon="-0.58458">
        <ele>241</ele>
        <time>2018-06-17T09:09:59Z</time>
      </trkpt>
      <trkpt lat="48.9859" lon="-0.58464">
        <ele>238</ele>
        <time>2018-06-17T09:10:09Z</time>
      </trkpt>
      <trkpt lat="48.98591" lon="-0.58474">
        <ele>239</ele>
        <time>2018-06-17T09:10:17Z</time>
      </trkpt>
      <trkpt lat="48.98599" lon="-0.58484">
        <ele>235</ele>
        <time>2018-06-17T09:10:22Z</time>
      </trkpt>
      <trkpt lat="48.98605" lon="-0.58489">
        <ele>234</ele>
        <time>2018-06-17T09:10:26Z</time>
      </trkpt>
      <trkpt lat="48.9861" lon="-0.58496">
        <ele>231</ele>
        <time>2018-06-17T09:10:33Z</time>
      </trkpt>
      <trkpt lat="48.9862" lon="-0.585">
        <ele>229</ele>
        <time>2018-06-17T09:10:38Z</time>
      </trkpt>
      <trkpt lat="48.98625" lon="-0.58509">
        <ele>231</ele>
        <time>2018-06-17T09:10:48Z</time>
      </trkpt>
      <trkpt lat="48.98632" lon="-0.58517">
        <ele>233</ele>
        <time>2018-06-17T09:10:57Z</time>
      </trkpt>
      <trkpt lat="48.98638" lon="-0.58524">
        <ele>230</ele>
        <time>2018-06-17T09:11:03Z</time>
      </trkpt>
      <trkpt lat="48.98645" lon="-0.58533">
        <ele>229</ele>
        <time>2018-06-17T09:11:12Z</time>
      </trkpt>
      <trkpt lat="48.98649" lon="-0.58545">
        <ele>229</ele>
        <time>2018-06-17T09:11:18Z</time>
      </trkpt>
      <trkpt lat="48.98656" lon="-0.58552">
        <ele>226</ele>
        <time>2018-06-17T09:11:25Z</time>
      </trkpt>
      <trkpt lat="48.98661" lon="-0.58562">
        <ele>227</ele>
        <time>2018-06-17T09:11:33Z</time>
      </trkpt>
      <trkpt lat="48.98668" lon="-0.58569">
        <ele>227</ele>
        <time>2018-06-17T09:11:40Z</time>
      </trkpt>
      <trkpt lat="48.98674" lon="-0.58578">
        <ele>229</ele>
        <time>2018-06-17T09:11:52Z</time>
      </trkpt>
      <trkpt lat="48.9868" lon="-0.58587">
        <ele>227</ele>
        <time>2018-06-17T09:11:57Z</time>
      </trkpt>
      <trkpt lat="48.98677" lon="-0.58599">
        <ele>226</ele>
        <time>2018-06-17T09:12:27Z</time>
      </trkpt>
      <trkpt lat="48.9867" lon="-0.58604">
        <ele>231</ele>
        <time>2018-06-17T09:13:07Z</time>
      </trkpt>
      <trkpt lat="48.98663" lon="-0.58608">
        <ele>229</ele>
        <time>2018-06-17T09:13:17Z</time>
      </trkpt>
      <trkpt lat="48.98657" lon="-0.58615">
        <ele>233</ele>
        <time>2018-06-17T09:13:26Z</time>
      </trkpt>
      <trkpt lat="48.9865" lon="-0.5862">
        <ele>234</ele>
        <time>2018-06-17T09:13:32Z</time>
      </trkpt>
      <trkpt lat="48.98645" lon="-0.58631">
        <ele>234</ele>
        <time>2018-06-17T09:13:43Z</time>
      </trkpt>
      <trkpt lat="48.9864" lon="-0.58642">
        <ele>236</ele>
        <time>2018-06-17T09:13:53Z</time>
      </trkpt>
      <trkpt lat="48.98637" lon="-0.58654">
        <ele>239</ele>
        <time>2018-06-17T09:14:40Z</time>
      </trkpt>
      <trkpt lat="48.98635" lon="-0.58665">
        <ele>241</ele>
        <time>2018-06-17T09:14:52Z</time>
      </trkpt>
      <trkpt lat="48.9863" lon="-0.58677">
        <ele>240</ele>
        <time>2018-06-17T09:15:04Z</time>
      </trkpt>
      <trkpt lat="48.98631" lon="-0.5869">
        <ele>239</ele>
        <time>2018-06-17T09:15:10Z</time>
      </trkpt>
      <trkpt lat="48.98629" lon="-0.58702">
        <ele>241</ele>
        <time>2018-06-17T09:15:16Z</time>
      </trkpt>
      <trkpt lat="48.98629" lon="-0.58714">
        <ele>242</ele>
        <time>2018-06-17T09:15:24Z</time>
      </trkpt>
      <trkpt lat="48.98627" lon="-0.58728">
        <ele>241</ele>
        <time>2018-06-17T09:15:35Z</time>
      </trkpt>
      <trkpt lat="48.98628" lon="-0.58741">
        <ele>241</ele>
        <time>2018-06-17T09:15:42Z</time>
      </trkpt>
      <trkpt lat="48.98626" lon="-0.58754">
        <ele>238</ele>
        <time>2018-06-17T09:15:50Z</time>
      </trkpt>
      <trkpt lat="48.98626" lon="-0.58765">
        <ele>235</ele>
        <time>2018-06-17T09:15:56Z</time>
      </trkpt>
      <trkpt lat="48.98619" lon="-0.58772">
        <ele>234</ele>
        <time>2018-06-17T09:16:02Z</time>
      </trkpt>
      <trkpt lat="48.986" lon="-0.58783">
        <ele>233</ele>
        <time>2018-06-17T09:16:06Z</time>
      </trkpt>
      <trkpt lat="48.98605" lon="-0.58795">
        <ele>234</ele>
        <time>2018-06-17T09:16:10Z</time>
      </trkpt>
      <trkpt lat="48.98613" lon="-0.58806">
        <ele>235</ele>
        <time>2018-06-17T09:16:15Z</time>
      </trkpt>
      <trkpt lat="48.98617" lon="-0.58816">
        <ele>236</ele>
        <time>2018-06-17T09:16:21Z</time>
      </trkpt>
      <trkpt lat="48.98614" lon="-0.58827">
        <ele>237</ele>
        <time>2018-06-17T09:16:28Z</time>
      </trkpt>
      <trkpt lat="48.98616" lon="-0.58837">
        <ele>238</ele>
        <time>2018-06-17T09:16:32Z</time>
      </trkpt>
      <trkpt lat="48.98619" lon="-0.58848">
        <ele>236</ele>
        <time>2018-06-17T09:16:38Z</time>
      </trkpt>
      <trkpt lat="48.98624" lon="-0.58856">
        <ele>233</ele>
        <time>2018-06-17T09:16:43Z</time>
      </trkpt>
      <trkpt lat="48.98631" lon="-0.58864">
        <ele>232</ele>
        <time>2018-06-17T09:16:49Z</time>
      </trkpt>
      <trkpt lat="48.98636" lon="-0.58873">
        <ele>232</ele>
        <time>2018-06-17T09:16:58Z</time>
      </trkpt>
      <trkpt lat="48.98642" lon="-0.58883">
        <ele>224</ele>
        <time>2018-06-17T09:17:12Z</time>
      </trkpt>
      <trkpt lat="48.98647" lon="-0.58893">
        <ele>227</ele>
        <time>2018-06-17T09:17:20Z</time>
      </trkpt>
      <trkpt lat="48.98654" lon="-0.58901">
        <ele>228</ele>
        <time>2018-06-17T09:17:26Z</time>
      </trkpt>
      <trkpt lat="48.98659" lon="-0.58911">
        <ele>230</ele>
        <time>2018-06-17T09:17:32Z</time>
      </trkpt>
      <trkpt lat="48.98663" lon="-0.5892">
        <ele>230</ele>
        <time>2018-06-17T09:17:38Z</time>
      </trkpt>
      <trkpt lat="48.98669" lon="-0.58929">
        <ele>231</ele>
        <time>2018-06-17T09:17:46Z</time>
      </trkpt>
      <trkpt lat="48.98674" lon="-0.58938">
        <ele>229</ele>
        <time>2018-06-17T09:18:04Z</time>
      </trkpt>
      <trkpt lat="48.98681" lon="-0.58947">
        <ele>227</ele>
        <time>2018-06-17T09:18:12Z</time>
      </trkpt>
      <trkpt lat="48.98685" lon="-0.58956">
        <ele>228</ele>
        <time>2018-06-17T09:18:19Z</time>
      </trkpt>
      <trkpt lat="48.98688" lon="-0.58967">
        <ele>230</ele>
        <time>2018-06-17T09:18:25Z</time>
      </trkpt>
      <trkpt lat="48.98689" lon="-0.5898">
        <ele>230</ele>
        <time>2018-06-17T09:18:32Z</time>
      </trkpt>
      <trkpt lat="48.98694" lon="-0.5899">
        <ele>230</ele>
        <time>2018-06-17T09:18:39Z</time>
      </trkpt>
      <trkpt lat="48.98691" lon="-0.59003">
        <ele>229</ele>
        <time>2018-06-17T09:18:46Z</time>
      </trkpt>
      <trkpt lat="48.98692" lon="-0.59015">
        <ele>232</ele>
        <time>2018-06-17T09:18:53Z</time>
      </trkpt>
      <trkpt lat="48.98694" lon="-0.59027">
        <ele>232</ele>
        <time>2018-06-17T09:18:59Z</time>
      </trkpt>
      <trkpt lat="48.98696" lon="-0.59037">
        <ele>230</ele>
        <time>2018-06-17T09:19:05Z</time>
      </trkpt>
      <trkpt lat="48.98695" lon="-0.59052">
        <ele>231</ele>
        <time>2018-06-17T09:19:10Z</time>
      </trkpt>
      <trkpt lat="48.9869" lon="-0.59064">
        <ele>230</ele>
        <time>2018-06-17T09:19:19Z</time>
      </trkpt>
      <trkpt lat="48.98686" lon="-0.59075">
        <ele>231</ele>
        <time>2018-06-17T09:19:26Z</time>
      </trkpt>
      <trkpt lat="48.98681" lon="-0.59084">
        <ele>230</ele>
        <time>2018-06-17T09:19:33Z</time>
      </trkpt>
      <trkpt lat="48.98686" lon="-0.59095">
        <ele>230</ele>
        <time>2018-06-17T09:19:44Z</time>
      </trkpt>
      <trkpt lat="48.9869" lon="-0.59105">
        <ele>232</ele>
        <time>2018-06-17T09:19:51Z</time>
      </trkpt>
      <trkpt lat="48.98696" lon="-0.59115">
        <ele>229</ele>
        <time>2018-06-17T09:19:57Z</time>
      </trkpt>
      <trkpt lat="48.98697" lon="-0.59127">
        <ele>232</ele>
        <time>2018-06-17T09:20:07Z</time>
      </trkpt>
      <trkpt lat="48.98703" lon="-0.59136">
        <ele>235</ele>
        <time>2018-06-17T09:20:14Z</time>
      </trkpt>
      <trkpt lat="48.98707" lon="-0.59146">
        <ele>241</ele>
        <time>2018-06-17T09:20:23Z</time>
      </trkpt>
      <trkpt lat="48.9871" lon="-0.59159">
        <ele>237</ele>
        <time>2018-06-17T09:20:31Z</time>
      </trkpt>
      <trkpt lat="48.98714" lon="-0.5917">
        <ele>236</ele>
        <time>2018-06-17T09:20:39Z</time>
      </trkpt>
      <trkpt lat="48.98718" lon="-0.59179">
        <ele>236</ele>
        <time>2018-06-17T09:20:45Z</time>
      </trkpt>
      <trkpt lat="48.98717" lon="-0.5919">
        <ele>233</ele>
        <time>2018-06-17T09:20:51Z</time>
      </trkpt>
      <trkpt lat="48.98724" lon="-0.59195">
        <ele>235</ele>
        <time>2018-06-17T09:20:57Z</time>
      </trkpt>
      <trkpt lat="48.98729" lon="-0.59204">
        <ele>231</ele>
        <time>2018-06-17T09:21:03Z</time>
      </trkpt>
      <trkpt lat="48.98734" lon="-0.59214">
        <ele>232</ele>
        <time>2018-06-17T09:21:10Z</time>
      </trkpt>
      <trkpt lat="48.98743" lon="-0.59216">
        <ele>231</ele>
        <time>2018-06-17T09:21:20Z</time>
      </trkpt>
      <trkpt lat="48.9875" lon="-0.59221">
        <ele>230</ele>
        <time>2018-06-17T09:21:27Z</time>
      </trkpt>
      <trkpt lat="48.98758" lon="-0.59225">
        <ele>230</ele>
        <time>2018-06-17T09:21:34Z</time>
      </trkpt>
      <trkpt lat="48.98764" lon="-0.59233">
        <ele>230</ele>
        <time>2018-06-17T09:21:39Z</time>
      </trkpt>
      <trkpt lat="48.98771" lon="-0.59238">
        <ele>229</ele>
        <time>2018-06-17T09:21:44Z</time>
      </trkpt>
      <trkpt lat="48.98778" lon="-0.59246">
        <ele>229</ele>
        <time>2018-06-17T09:21:53Z</time>
      </trkpt>
      <trkpt lat="48.98784" lon="-0.59253">
        <ele>228</ele>
        <time>2018-06-17T09:21:59Z</time>
      </trkpt>
      <trkpt lat="48.98789" lon="-0.59263">
        <ele>227</ele>
        <time>2018-06-17T09:22:05Z</time>
      </trkpt>
      <trkpt lat="48.98794" lon="-0.59275">
        <ele>225</ele>
        <time>2018-06-17T09:22:14Z</time>
      </trkpt>
      <trkpt lat="48.98797" lon="-0.59287">
        <ele>227</ele>
        <time>2018-06-17T09:22:24Z</time>
      </trkpt>
      <trkpt lat="48.98799" lon="-0.593">
        <ele>224</ele>
        <time>2018-06-17T09:22:31Z</time>
      </trkpt>
      <trkpt lat="48.98805" lon="-0.59309">
        <ele>221</ele>
        <time>2018-06-17T09:22:36Z</time>
      </trkpt>
      <trkpt lat="48.98807" lon="-0.59321">
        <ele>220</ele>
        <time>2018-06-17T09:22:43Z</time>
      </trkpt>
      <trkpt lat="48.98811" lon="-0.59332">
        <ele>218</ele>
        <time>2018-06-17T09:22:51Z</time>
      </trkpt>
      <trkpt lat="48.98817" lon="-0.5934">
        <ele>216</ele>
        <time>2018-06-17T09:22:58Z</time>
      </trkpt>
      <trkpt lat="48.98823" lon="-0.5935">
        <ele>215</ele>
        <time>2018-06-17T09:23:05Z</time>
      </trkpt>
      <trkpt lat="48.98826" lon="-0.59362">
        <ele>216</ele>
        <time>2018-06-17T09:23:18Z</time>
      </trkpt>
      <trkpt lat="48.98833" lon="-0.5937">
        <ele>216</ele>
        <time>2018-06-17T09:23:25Z</time>
      </trkpt>
      <trkpt lat="48.98834" lon="-0.59384">
        <ele>218</ele>
        <time>2018-06-17T09:23:35Z</time>
      </trkpt>
      <trkpt lat="48.98838" lon="-0.59393">
        <ele>220</ele>
        <time>2018-06-17T09:24:21Z</time>
      </trkpt>
      <trkpt lat="48.98843" lon="-0.59404">
        <ele>215</ele>
        <time>2018-06-17T09:24:27Z</time>
      </trkpt>
      <trkpt lat="48.98849" lon="-0.59413">
        <ele>219</ele>
        <time>2018-06-17T09:24:31Z</time>
      </trkpt>
      <trkpt lat="48.98852" lon="-0.59426">
        <ele>218</ele>
        <time>2018-06-17T09:24:39Z</time>
      </trkpt>
      <trkpt lat="48.98855" lon="-0.59436">
        <ele>220</ele>
        <time>2018-06-17T09:24:44Z</time>
      </trkpt>
      <trkpt lat="48.98859" lon="-0.59447">
        <ele>220</ele>
        <time>2018-06-17T09:24:49Z</time>
      </trkpt>
      <trkpt lat="48.98861" lon="-0.59457">
        <ele>217</ele>
        <time>2018-06-17T09:25:01Z</time>
      </trkpt>
      <trkpt lat="48.98865" lon="-0.59468">
        <ele>219</ele>
        <time>2018-06-17T09:25:10Z</time>
      </trkpt>
      <trkpt lat="48.98868" lon="-0.5948">
        <ele>217</ele>
        <time>2018-06-17T09:25:19Z</time>
      </trkpt>
      <trkpt lat="48.98871" lon="-0.59493">
        <ele>219</ele>
        <time>2018-06-17T09:25:29Z</time>
      </trkpt>
      <trkpt lat="48.98872" lon="-0.59506">
        <ele>219</ele>
        <time>2018-06-17T09:25:37Z</time>
      </trkpt>
      <trkpt lat="48.98875" lon="-0.59518">
        <ele>220</ele>
        <time>2018-06-17T09:25:46Z</time>
      </trkpt>
      <trkpt lat="48.98876" lon="-0.59531">
        <ele>221</ele>
        <time>2018-06-17T09:25:55Z</time>
      </trkpt>
      <trkpt lat="48.98879" lon="-0.59539">
        <ele>222</ele>
        <time>2018-06-17T09:26:01Z</time>
      </trkpt>
      <trkpt lat="48.98889" lon="-0.59547">
        <ele>225</ele>
        <time>2018-06-17T09:26:06Z</time>
      </trkpt>
      <trkpt lat="48.98892" lon="-0.59559">
        <ele>225</ele>
        <time>2018-06-17T09:26:45Z</time>
      </trkpt>
      <trkpt lat="48.98893" lon="-0.59571">
        <ele>228</ele>
        <time>2018-06-17T09:27:11Z</time>
      </trkpt>
      <trkpt lat="48.98896" lon="-0.59582">
        <ele>228</ele>
        <time>2018-06-17T09:27:17Z</time>
      </trkpt>
      <trkpt lat="48.98894" lon="-0.59595">
        <ele>231</ele>
        <time>2018-06-17T09:27:26Z</time>
      </trkpt>
      <trkpt lat="48.98893" lon="-0.59609">
        <ele>227</ele>
        <time>2018-06-17T09:27:35Z</time>
      </trkpt>
      <trkpt lat="48.98897" lon="-0.59619">
        <ele>227</ele>
        <time>2018-06-17T09:27:44Z</time>
      </trkpt>
      <trkpt lat="48.989" lon="-0.5963">
        <ele>226</ele>
        <time>2018-06-17T09:27:55Z</time>
      </trkpt>
      <trkpt lat="48.98901" lon="-0.59641">
        <ele>221</ele>
        <time>2018-06-17T09:28:07Z</time>
      </trkpt>
      <trkpt lat="48.98902" lon="-0.59654">
        <ele>219</ele>
        <time>2018-06-17T09:28:47Z</time>
      </trkpt>
      <trkpt lat="48.98906" lon="-0.59663">
        <ele>216</ele>
        <time>2018-06-17T09:28:53Z</time>
      </trkpt>
      <trkpt lat="48.98908" lon="-0.59673">
        <ele>219</ele>
        <time>2018-06-17T09:29:09Z</time>
      </trkpt>
      <trkpt lat="48.98914" lon="-0.59682">
        <ele>215</ele>
        <time>2018-06-17T09:29:13Z</time>
      </trkpt>
      <trkpt lat="48.98919" lon="-0.59693">
        <ele>213</ele>
        <time>2018-06-17T09:29:18Z</time>
      </trkpt>
      <trkpt lat="48.98915" lon="-0.59704">
        <ele>212</ele>
        <time>2018-06-17T09:29:25Z</time>
      </trkpt>
      <trkpt lat="48.98921" lon="-0.59714">
        <ele>216</ele>
        <time>2018-06-17T09:29:35Z</time>
      </trkpt>
      <trkpt lat="48.98925" lon="-0.59724">
        <ele>218</ele>
        <time>2018-06-17T09:29:41Z</time>
      </trkpt>
      <trkpt lat="48.98932" lon="-0.59732">
        <ele>219</ele>
        <time>2018-06-17T09:30:22Z</time>
      </trkpt>
      <trkpt lat="48.98941" lon="-0.59736">
        <ele>218</ele>
        <time>2018-06-17T09:30:26Z</time>
      </trkpt>
      <trkpt lat="48.98949" lon="-0.59736">
        <ele>218</ele>
        <time>2018-06-17T09:30:45Z</time>
      </trkpt>
      <trkpt lat="48.98954" lon="-0.59732">
        <ele>215</ele>
        <time>2018-06-17T09:30:57Z</time>
      </trkpt>
      <trkpt lat="48.98965" lon="-0.59728">
        <ele>216</ele>
        <time>2018-06-17T09:31:02Z</time>
      </trkpt>
      <trkpt lat="48.98973" lon="-0.5973">
        <ele>217</ele>
        <time>2018-06-17T09:31:08Z</time>
      </trkpt>
      <trkpt lat="48.9898" lon="-0.5973">
        <ele>219</ele>
        <time>2018-06-17T09:31:38Z</time>
      </trkpt>
      <trkpt lat="48.98995" lon="-0.59741">
        <ele>213</ele>
        <time>2018-06-17T09:31:43Z</time>
      </trkpt>
      <trkpt lat="48.99004" lon="-0.59745">
        <ele>216</ele>
        <time>2018-06-17T09:31:50Z</time>
      </trkpt>
      <trkpt lat="48.99012" lon="-0.59749">
        <ele>215</ele>
        <time>2018-06-17T09:32:00Z</time>
      </trkpt>
      <trkpt lat="48.99019" lon="-0.59752">
        <ele>214</ele>
        <time>2018-06-17T09:32:18Z</time>
      </trkpt>
      <trkpt lat="48.99029" lon="-0.59759">
        <ele>213</ele>
        <time>2018-06-17T09:32:22Z</time>
      </trkpt>
      <trkpt lat="48.99038" lon="-0.59768">
        <ele>207</ele>
        <time>2018-06-17T09:32:26Z</time>
      </trkpt>
      <trkpt lat="48.99045" lon="-0.59774">
        <ele>208</ele>
        <time>2018-06-17T09:32:39Z</time>
      </trkpt>
      <trkpt lat="48.99052" lon="-0.59784">
        <ele>207</ele>
        <time>2018-06-17T09:32:44Z</time>
      </trkpt>
      <trkpt lat="48.99058" lon="-0.59791">
        <ele>209</ele>
        <time>2018-06-17T09:32:50Z</time>
      </trkpt>
      <trkpt lat="48.99065" lon="-0.59799">
        <ele>211</ele>
        <time>2018-06-17T09:32:55Z</time>
      </trkpt>
      <trkpt lat="48.99071" lon="-0.59808">
        <ele>211</ele>
        <time>2018-06-17T09:33:05Z</time>
      </trkpt>
      <trkpt lat="48.9908" lon="-0.59813">
        <ele>211</ele>
        <time>2018-06-17T09:33:22Z</time>
      </trkpt>
      <trkpt lat="48.99087" lon="-0.59816">
        <ele>210</ele>
        <time>2018-06-17T09:34:53Z</time>
      </trkpt>
      <trkpt lat="48.99095" lon="-0.59822">
        <ele>206</ele>
        <time>2018-06-17T09:34:59Z</time>
      </trkpt>
      <trkpt lat="48.99103" lon="-0.59829">
        <ele>206</ele>
        <time>2018-06-17T09:35:15Z</time>
      </trkpt>
      <trkpt lat="48.99109" lon="-0.59836">
        <ele>205</ele>
        <time>2018-06-17T09:35:24Z</time>
      </trkpt>
      <trkpt lat="48.99116" lon="-0.59841">
        <ele>206</ele>
        <time>2018-06-17T09:35:31Z</time>
      </trkpt>
      <trkpt lat="48.99124" lon="-0.59845">
        <ele>208</ele>
        <time>2018-06-17T09:35:36Z</time>
      </trkpt>
      <trkpt lat="48.99132" lon="-0.59848">
        <ele>209</ele>
        <time>2018-06-17T09:35:44Z</time>
      </trkpt>
      <trkpt lat="48.99139" lon="-0.59849">
        <ele>209</ele>
        <time>2018-06-17T09:35:51Z</time>
      </trkpt>
      <trkpt lat="48.99148" lon="-0.59851">
        <ele>210</ele>
        <time>2018-06-17T09:36:01Z</time>
      </trkpt>
      <trkpt lat="48.99156" lon="-0.59856">
        <ele>211</ele>
        <time>2018-06-17T09:36:08Z</time>
      </trkpt>
      <trkpt lat="48.99163" lon="-0.59863">
        <ele>213</ele>
        <time>2018-06-17T09:36:16Z</time>
      </trkpt>
      <trkpt lat="48.9917" lon="-0.59871">
        <ele>209</ele>
        <time>2018-06-17T09:36:22Z</time>
      </trkpt>
      <trkpt lat="48.99174" lon="-0.59884">
        <ele>203</ele>
        <time>2018-06-17T09:37:17Z</time>
      </trkpt>
      <trkpt lat="48.9918" lon="-0.59892">
        <ele>202</ele>
        <time>2018-06-17T09:38:34Z</time>
      </trkpt>
      <trkpt lat="48.99186" lon="-0.59902">
        <ele>205</ele>
        <time>2018-06-17T09:39:14Z</time>
      </trkpt>
      <trkpt lat="48.99194" lon="-0.59907">
        <ele>208</ele>
        <time>2018-06-17T09:39:21Z</time>
      </trkpt>
      <trkpt lat="48.99199" lon="-0.59916">
        <ele>205</ele>
        <time>2018-06-17T09:39:44Z</time>
      </trkpt>
      <trkpt lat="48.99199" lon="-0.59929">
        <ele>204</ele>
        <time>2018-06-17T09:39:49Z</time>
      </trkpt>
      <trkpt lat="48.99202" lon="-0.59934">
        <ele>206</ele>
        <time>2018-06-17T09:40:36Z</time>
      </trkpt>
      <trkpt lat="48.99212" lon="-0.59952">
        <ele>203</ele>
        <time>2018-06-17T09:40:41Z</time>
      </trkpt>
      <trkpt lat="48.99221" lon="-0.59956">
        <ele>204</ele>
        <time>2018-06-17T09:40:47Z</time>
      </trkpt>
      <trkpt lat="48.99229" lon="-0.59967">
        <ele>207</ele>
        <time>2018-06-17T09:40:51Z</time>
      </trkpt>
      <trkpt lat="48.99231" lon="-0.59979">
        <ele>205</ele>
        <time>2018-06-17T09:41:40Z</time>
      </trkpt>
      <trkpt lat="48.99239" lon="-0.59981">
        <ele>207</ele>
        <time>2018-06-17T09:41:51Z</time>
      </trkpt>
      <trkpt lat="48.99246" lon="-0.59983">
        <ele>208</ele>
        <time>2018-06-17T09:41:58Z</time>
      </trkpt>
      <trkpt lat="48.99254" lon="-0.59988">
        <ele>206</ele>
        <time>2018-06-17T09:42:04Z</time>
      </trkpt>
      <trkpt lat="48.99263" lon="-0.59992">
        <ele>205</ele>
        <time>2018-06-17T09:42:13Z</time>
      </trkpt>
      <trkpt lat="48.99271" lon="-0.59995">
        <ele>201</ele>
        <time>2018-06-17T09:42:48Z</time>
      </trkpt>
      <trkpt lat="48.99279" lon="-0.59998">
        <ele>201</ele>
        <time>2018-06-17T09:42:54Z</time>
      </trkpt>
      <trkpt lat="48.99288" lon="-0.6">
        <ele>204</ele>
        <time>2018-06-17T09:42:59Z</time>
      </trkpt>
      <trkpt lat="48.99295" lon="-0.59997">
        <ele>205</ele>
        <time>2018-06-17T09:43:09Z</time>
      </trkpt>
      <trkpt lat="48.99303" lon="-0.59995">
        <ele>202</ele>
        <time>2018-06-17T09:43:19Z</time>
      </trkpt>
      <trkpt lat="48.99311" lon="-0.59997">
        <ele>200</ele>
        <time>2018-06-17T09:43:30Z</time>
      </trkpt>
      <trkpt lat="48.99321" lon="-0.59996">
        <ele>204</ele>
        <time>2018-06-17T09:43:35Z</time>
      </trkpt>
      <trkpt lat="48.99329" lon="-0.59994">
        <ele>205</ele>
        <time>2018-06-17T09:43:41Z</time>
      </trkpt>
      <trkpt lat="48.99337" lon="-0.59994">
        <ele>206</ele>
        <time>2018-06-17T09:43:48Z</time>
      </trkpt>
      <trkpt lat="48.99346" lon="-0.59991">
        <ele>206</ele>
        <time>2018-06-17T09:43:52Z</time>
      </trkpt>
      <trkpt lat="48.99354" lon="-0.59989">
        <ele>209</ele>
        <time>2018-06-17T09:43:56Z</time>
      </trkpt>
      <trkpt lat="48.99364" lon="-0.5999">
        <ele>207</ele>
        <time>2018-06-17T09:44:01Z</time>
      </trkpt>
      <trkpt lat="48.99373" lon="-0.5999">
        <ele>204</ele>
        <time>2018-06-17T09:44:12Z</time>
      </trkpt>
      <trkpt lat="48.9938" lon="-0.59985">
        <ele>199</ele>
        <time>2018-06-17T09:44:18Z</time>
      </trkpt>
      <trkpt lat="48.99388" lon="-0.59978">
        <ele>199</ele>
        <time>2018-06-17T09:44:29Z</time>
      </trkpt>
      <trkpt lat="48.99395" lon="-0.59979">
        <ele>203</ele>
        <time>2018-06-17T09:44:35Z</time>
      </trkpt>
      <trkpt lat="48.99403" lon="-0.59978">
        <ele>205</ele>
        <time>2018-06-17T09:44:41Z</time>
      </trkpt>
      <trkpt lat="48.99412" lon="-0.59973">
        <ele>204</ele>
        <time>2018-06-17T09:44:49Z</time>
      </trkpt>
      <trkpt lat="48.99421" lon="-0.59974">
        <ele>206</ele>
        <time>2018-06-17T09:44:54Z</time>
      </trkpt>
      <trkpt lat="48.99429" lon="-0.59981">
        <ele>204</ele>
        <time>2018-06-17T09:45:43Z</time>
      </trkpt>
      <trkpt lat="48.99437" lon="-0.59984">
        <ele>201</ele>
        <time>2018-06-17T09:45:58Z</time>
      </trkpt>
      <trkpt lat="48.99446" lon="-0.59983">
        <ele>199</ele>
        <time>2018-06-17T09:46:05Z</time>
      </trkpt>
      <trkpt lat="48.99455" lon="-0.59981">
        <ele>207</ele>
        <time>2018-06-17T09:46:33Z</time>
      </trkpt>
      <trkpt lat="48.99464" lon="-0.59986">
        <ele>206</ele>
        <time>2018-06-17T09:46:37Z</time>
      </trkpt>
      <trkpt lat="48.9947" lon="-0.59994">
        <ele>202</ele>
        <time>2018-06-17T09:46:41Z</time>
      </trkpt>
      <trkpt lat="48.99476" lon="-0.60002">
        <ele>203</ele>
        <time>2018-06-17T09:46:48Z</time>
      </trkpt>
      <trkpt lat="48.99484" lon="-0.60008">
        <ele>207</ele>
        <time>2018-06-17T09:46:53Z</time>
      </trkpt>
      <trkpt lat="48.9949" lon="-0.60016">
        <ele>205</ele>
        <time>2018-06-17T09:47:00Z</time>
      </trkpt>
      <trkpt lat="48.99496" lon="-0.60022">
        <ele>203</ele>
        <time>2018-06-17T09:47:05Z</time>
      </trkpt>
      <trkpt lat="48.99503" lon="-0.60024">
        <ele>208</ele>
        <time>2018-06-17T09:47:12Z</time>
      </trkpt>
      <trkpt lat="48.99511" lon="-0.60026">
        <ele>205</ele>
        <time>2018-06-17T09:47:17Z</time>
      </trkpt>
      <trkpt lat="48.9952" lon="-0.60027">
        <ele>201</ele>
        <time>2018-06-17T09:47:25Z</time>
      </trkpt>
      <trkpt lat="48.99527" lon="-0.60019">
        <ele>196</ele>
        <time>2018-06-17T09:47:31Z</time>
      </trkpt>
      <trkpt lat="48.99529" lon="-0.60007">
        <ele>197</ele>
        <time>2018-06-17T09:47:41Z</time>
      </trkpt>
      <trkpt lat="48.99521" lon="-0.60001">
        <ele>198</ele>
        <time>2018-06-17T09:47:50Z</time>
      </trkpt>
      <trkpt lat="48.99514" lon="-0.59994">
        <ele>201</ele>
        <time>2018-06-17T09:47:59Z</time>
      </trkpt>
      <trkpt lat="48.99507" lon="-0.59987">
        <ele>200</ele>
        <time>2018-06-17T09:48:10Z</time>
      </trkpt>
      <trkpt lat="48.995" lon="-0.59982">
        <ele>201</ele>
        <time>2018-06-17T09:48:16Z</time>
      </trkpt>
      <trkpt lat="48.99495" lon="-0.59974">
        <ele>205</ele>
        <time>2018-06-17T09:48:21Z</time>
      </trkpt>
      <trkpt lat="48.99487" lon="-0.59969">
        <ele>202</ele>
        <time>2018-06-17T09:48:28Z</time>
      </trkpt>
      <trkpt lat="48.9948" lon="-0.59963">
        <ele>198</ele>
        <time>2018-06-17T09:48:35Z</time>
      </trkpt>
      <trkpt lat="48.99473" lon="-0.59957">
        <ele>199</ele>
        <time>2018-06-17T09:48:43Z</time>
      </trkpt>
      <trkpt lat="48.99469" lon="-0.59947">
        <ele>201</ele>
        <time>2018-06-17T09:48:49Z</time>
      </trkpt>
      <trkpt lat="48.99472" lon="-0.59935">
        <ele>200</ele>
        <time>2018-06-17T09:48:56Z</time>
      </trkpt>
      <trkpt lat="48.99475" lon="-0.59925">
        <ele>200</ele>
        <time>2018-06-17T09:49:20Z</time>
      </trkpt>
      <trkpt lat="48.99475" lon="-0.59913">
        <ele>198</ele>
        <time>2018-06-17T09:49:25Z</time>
      </trkpt>
      <trkpt lat="48.99475" lon="-0.59897">
        <ele>202</ele>
        <time>2018-06-17T09:49:30Z</time>
      </trkpt>
      <trkpt lat="48.99474" lon="-0.59884">
        <ele>198</ele>
        <time>2018-06-17T09:49:43Z</time>
      </trkpt>
      <trkpt lat="48.99472" lon="-0.59871">
        <ele>197</ele>
        <time>2018-06-17T09:50:17Z</time>
      </trkpt>
      <trkpt lat="48.9947" lon="-0.59857">
        <ele>195</ele>
        <time>2018-06-17T09:50:21Z</time>
      </trkpt>
      <trkpt lat="48.99465" lon="-0.59846">
        <ele>194</ele>
        <time>2018-06-17T09:50:25Z</time>
      </trkpt>
      <trkpt lat="48.99459" lon="-0.59837">
        <ele>195</ele>
        <time>2018-06-17T09:50:36Z</time>
      </trkpt>
      <trkpt lat="48.99455" lon="-0.59825">
        <ele>192</ele>
        <time>2018-06-17T09:50:41Z</time>
      </trkpt>
      <trkpt lat="48.99452" lon="-0.59816">
        <ele>192</ele>
        <time>2018-06-17T09:50:59Z</time>
      </trkpt>
      <trkpt lat="48.99444" lon="-0.59808">
        <ele>193</ele>
        <time>2018-06-17T09:51:04Z</time>
      </trkpt>
      <trkpt lat="48.9944" lon="-0.59797">
        <ele>191</ele>
        <time>2018-06-17T09:51:09Z</time>
      </trkpt>
      <trkpt lat="48.99438" lon="-0.59784">
        <ele>189</ele>
        <time>2018-06-17T09:51:17Z</time>
      </trkpt>
      <trkpt lat="48.99437" lon="-0.59773">
        <ele>191</ele>
        <time>2018-06-17T09:51:22Z</time>
      </trkpt>
      <trkpt lat="48.99434" lon="-0.59762">
        <ele>196</ele>
        <time>2018-06-17T09:51:28Z</time>
      </trkpt>
      <trkpt lat="48.99428" lon="-0.59761">
        <ele>191</ele>
        <time>2018-06-17T09:51:34Z</time>
      </trkpt>
      <trkpt lat="48.99425" lon="-0.59749">
        <ele>190</ele>
        <time>2018-06-17T09:51:42Z</time>
      </trkpt>
      <trkpt lat="48.99416" lon="-0.59746">
        <ele>193</ele>
        <time>2018-06-17T09:51:46Z</time>
      </trkpt>
      <trkpt lat="48.99418" lon="-0.59731">
        <ele>192</ele>
        <time>2018-06-17T09:51:51Z</time>
      </trkpt>
      <trkpt lat="48.99418" lon="-0.59718">
        <ele>188</ele>
        <time>2018-06-17T09:51:59Z</time>
      </trkpt>
      <trkpt lat="48.99411" lon="-0.59712">
        <ele>193</ele>
        <time>2018-06-17T09:52:08Z</time>
      </trkpt>
      <trkpt lat="48.99407" lon="-0.59701">
        <ele>192</ele>
        <time>2018-06-17T09:52:15Z</time>
      </trkpt>
      <trkpt lat="48.99408" lon="-0.59688">
        <ele>194</ele>
        <time>2018-06-17T09:52:21Z</time>
      </trkpt>
      <trkpt lat="48.99409" lon="-0.59675">
        <ele>195</ele>
        <time>2018-06-17T09:52:30Z</time>
      </trkpt>
      <trkpt lat="48.99406" lon="-0.59663">
        <ele>199</ele>
        <time>2018-06-17T09:52:37Z</time>
      </trkpt>
      <trkpt lat="48.99402" lon="-0.59652">
        <ele>198</ele>
        <time>2018-06-17T09:52:45Z</time>
      </trkpt>
      <trkpt lat="48.99398" lon="-0.59639">
        <ele>195</ele>
        <time>2018-06-17T09:52:54Z</time>
      </trkpt>
      <trkpt lat="48.99398" lon="-0.59628">
        <ele>197</ele>
        <time>2018-06-17T09:52:59Z</time>
      </trkpt>
      <trkpt lat="48.99402" lon="-0.59617">
        <ele>196</ele>
        <time>2018-06-17T09:53:03Z</time>
      </trkpt>
      <trkpt lat="48.99396" lon="-0.59608">
        <ele>193</ele>
        <time>2018-06-17T09:53:12Z</time>
      </trkpt>
      <trkpt lat="48.99395" lon="-0.59596">
        <ele>197</ele>
        <time>2018-06-17T09:53:22Z</time>
      </trkpt>
      <trkpt lat="48.99391" lon="-0.59585">
        <ele>196</ele>
        <time>2018-06-17T09:53:28Z</time>
      </trkpt>
      <trkpt lat="48.99393" lon="-0.59573">
        <ele>192</ele>
        <time>2018-06-17T09:53:36Z</time>
      </trkpt>
      <trkpt lat="48.9939" lon="-0.5956">
        <ele>188</ele>
        <time>2018-06-17T09:53:44Z</time>
      </trkpt>
      <trkpt lat="48.99387" lon="-0.59551">
        <ele>190</ele>
        <time>2018-06-17T09:53:54Z</time>
      </trkpt>
      <trkpt lat="48.99384" lon="-0.59539">
        <ele>189</ele>
        <time>2018-06-17T09:54:01Z</time>
      </trkpt>
      <trkpt lat="48.99388" lon="-0.59528">
        <ele>188</ele>
        <time>2018-06-17T09:54:12Z</time>
      </trkpt>
      <trkpt lat="48.99386" lon="-0.59515">
        <ele>186</ele>
        <time>2018-06-17T09:54:19Z</time>
      </trkpt>
      <trkpt lat="48.99382" lon="-0.59503">
        <ele>183</ele>
        <time>2018-06-17T09:54:24Z</time>
      </trkpt>
      <trkpt lat="48.9938" lon="-0.59493">
        <ele>183</ele>
        <time>2018-06-17T09:54:35Z</time>
      </trkpt>
      <trkpt lat="48.99374" lon="-0.59481">
        <ele>181</ele>
        <time>2018-06-17T09:54:40Z</time>
      </trkpt>
      <trkpt lat="48.9937" lon="-0.59475">
        <ele>186</ele>
        <time>2018-06-17T09:54:46Z</time>
      </trkpt>
      <trkpt lat="48.99367" lon="-0.59463">
        <ele>181</ele>
        <time>2018-06-17T09:54:54Z</time>
      </trkpt>
      <trkpt lat="48.99363" lon="-0.5945">
        <ele>178</ele>
        <time>2018-06-17T09:55:03Z</time>
      </trkpt>
      <trkpt lat="48.99363" lon="-0.59439">
        <ele>179</ele>
        <time>2018-06-17T09:55:12Z</time>
      </trkpt>
      <trkpt lat="48.99359" lon="-0.59427">
        <ele>180</ele>
        <time>2018-06-17T09:56:20Z</time>
      </trkpt>
      <trkpt lat="48.99359" lon="-0.59414">
        <ele>181</ele>
        <time>2018-06-17T09:56:29Z</time>
      </trkpt>
      <trkpt lat="48.99356" lon="-0.59401">
        <ele>182</ele>
        <time>2018-06-17T09:56:39Z</time>
      </trkpt>
      <trkpt lat="48.99356" lon="-0.59389">
        <ele>180</ele>
        <time>2018-06-17T09:56:58Z</time>
      </trkpt>
      <trkpt lat="48.99355" lon="-0.59376">
        <ele>176</ele>
        <time>2018-06-17T09:57:04Z</time>
      </trkpt>
      <trkpt lat="48.99351" lon="-0.59365">
        <ele>179</ele>
        <time>2018-06-17T09:57:08Z</time>
      </trkpt>
      <trkpt lat="48.99349" lon="-0.59353">
        <ele>179</ele>
        <time>2018-06-17T09:57:17Z</time>
      </trkpt>
      <trkpt lat="48.99349" lon="-0.59339">
        <ele>181</ele>
        <time>2018-06-17T09:57:46Z</time>
      </trkpt>
      <trkpt lat="48.99348" lon="-0.59327">
        <ele>181</ele>
        <time>2018-06-17T09:57:55Z</time>
      </trkpt>
      <trkpt lat="48.99346" lon="-0.59317">
        <ele>179</ele>
        <time>2018-06-17T09:58:00Z</time>
      </trkpt>
      <trkpt lat="48.99345" lon="-0.59305">
        <ele>176</ele>
        <time>2018-06-17T09:58:05Z</time>
      </trkpt>
      <trkpt lat="48.99343" lon="-0.59293">
        <ele>170</ele>
        <time>2018-06-17T09:58:12Z</time>
      </trkpt>
      <trkpt lat="48.99339" lon="-0.59281">
        <ele>171</ele>
        <time>2018-06-17T09:58:20Z</time>
      </trkpt>
      <trkpt lat="48.99341" lon="-0.59268">
        <ele>171</ele>
        <time>2018-06-17T09:58:25Z</time>
      </trkpt>
      <trkpt lat="48.99337" lon="-0.5926">
        <ele>173</ele>
        <time>2018-06-17T09:59:03Z</time>
      </trkpt>
      <trkpt lat="48.99335" lon="-0.59247">
        <ele>174</ele>
        <time>2018-06-17T09:59:08Z</time>
      </trkpt>
      <trkpt lat="48.99329" lon="-0.59237">
        <ele>174</ele>
        <time>2018-06-17T09:59:15Z</time>
      </trkpt>
      <trkpt lat="48.99331" lon="-0.59226">
        <ele>178</ele>
        <time>2018-06-17T09:59:25Z</time>
      </trkpt>
      <trkpt lat="48.99328" lon="-0.59216">
        <ele>177</ele>
        <time>2018-06-17T09:59:31Z</time>
      </trkpt>
      <trkpt lat="48.99324" lon="-0.59203">
        <ele>175</ele>
        <time>2018-06-17T09:59:39Z</time>
      </trkpt>
      <trkpt lat="48.99325" lon="-0.59191">
        <ele>172</ele>
        <time>2018-06-17T09:59:48Z</time>
      </trkpt>
      <trkpt lat="48.99326" lon="-0.5918">
        <ele>174</ele>
        <time>2018-06-17T09:59:54Z</time>
      </trkpt>
      <trkpt lat="48.99326" lon="-0.59168">
        <ele>173</ele>
        <time>2018-06-17T10:00:01Z</time>
      </trkpt>
      <trkpt lat="48.99323" lon="-0.59158">
        <ele>176</ele>
        <time>2018-06-17T10:00:06Z</time>
      </trkpt>
      <trkpt lat="48.99325" lon="-0.59146">
        <ele>177</ele>
        <time>2018-06-17T10:00:12Z</time>
      </trkpt>
      <trkpt lat="48.99321" lon="-0.59134">
        <ele>173</ele>
        <time>2018-06-17T10:00:19Z</time>
      </trkpt>
      <trkpt lat="48.99321" lon="-0.59122">
        <ele>170</ele>
        <time>2018-06-17T10:00:27Z</time>
      </trkpt>
      <trkpt lat="48.99323" lon="-0.5911">
        <ele>172</ele>
        <time>2018-06-17T10:00:36Z</time>
      </trkpt>
      <trkpt lat="48.99325" lon="-0.59101">
        <ele>175</ele>
        <time>2018-06-17T10:00:41Z</time>
      </trkpt>
      <trkpt lat="48.99324" lon="-0.59088">
        <ele>178</ele>
        <time>2018-06-17T10:00:48Z</time>
      </trkpt>
      <trkpt lat="48.9932" lon="-0.59078">
        <ele>178</ele>
        <time>2018-06-17T10:01:12Z</time>
      </trkpt>
      <trkpt lat="48.99311" lon="-0.5906">
        <ele>182</ele>
        <time>2018-06-17T10:01:17Z</time>
      </trkpt>
      <trkpt lat="48.99314" lon="-0.59048">
        <ele>179</ele>
        <time>2018-06-17T10:01:22Z</time>
      </trkpt>
      <trkpt lat="48.99313" lon="-0.59038">
        <ele>179</ele>
        <time>2018-06-17T10:01:28Z</time>
      </trkpt>
      <trkpt lat="48.99315" lon="-0.59024">
        <ele>176</ele>
        <time>2018-06-17T10:01:32Z</time>
      </trkpt>
      <trkpt lat="48.99316" lon="-0.59011">
        <ele>174</ele>
        <time>2018-06-17T10:01:39Z</time>
      </trkpt>
      <trkpt lat="48.99313" lon="-0.58999">
        <ele>176</ele>
        <time>2018-06-17T10:01:47Z</time>
      </trkpt>
      <trkpt lat="48.99309" lon="-0.58989">
        <ele>176</ele>
        <time>2018-06-17T10:01:52Z</time>
      </trkpt>
      <trkpt lat="48.99308" lon="-0.58977">
        <ele>172</ele>
        <time>2018-06-17T10:01:58Z</time>
      </trkpt>
      <trkpt lat="48.99307" lon="-0.58966">
        <ele>169</ele>
        <time>2018-06-17T10:02:02Z</time>
      </trkpt>
      <trkpt lat="48.99307" lon="-0.58953">
        <ele>169</ele>
        <time>2018-06-17T10:02:10Z</time>
      </trkpt>
      <trkpt lat="48.99308" lon="-0.5894">
        <ele>167</ele>
        <time>2018-06-17T10:02:17Z</time>
      </trkpt>
      <trkpt lat="48.9931" lon="-0.58928">
        <ele>165</ele>
        <time>2018-06-17T10:02:21Z</time>
      </trkpt>
      <trkpt lat="48.99306" lon="-0.58917">
        <ele>169</ele>
        <time>2018-06-17T10:02:29Z</time>
      </trkpt>
      <trkpt lat="48.99306" lon="-0.58904">
        <ele>167</ele>
        <time>2018-06-17T10:02:38Z</time>
      </trkpt>
      <trkpt lat="48.99302" lon="-0.58893">
        <ele>168</ele>
        <time>2018-06-17T10:02:46Z</time>
      </trkpt>
      <trkpt lat="48.993" lon="-0.5888">
        <ele>168</ele>
        <time>2018-06-17T10:02:52Z</time>
      </trkpt>
      <trkpt lat="48.99299" lon="-0.58868">
        <ele>172</ele>
        <time>2018-06-17T10:03:02Z</time>
      </trkpt>
      <trkpt lat="48.99299" lon="-0.58854">
        <ele>171</ele>
        <time>2018-06-17T10:03:07Z</time>
      </trkpt>
      <trkpt lat="48.99296" lon="-0.58843">
        <ele>171</ele>
        <time>2018-06-17T10:03:14Z</time>
      </trkpt>
      <trkpt lat="48.99296" lon="-0.58832">
        <ele>171</ele>
        <time>2018-06-17T10:03:20Z</time>
      </trkpt>
      <trkpt lat="48.99291" lon="-0.5882">
        <ele>172</ele>
        <time>2018-06-17T10:03:27Z</time>
      </trkpt>
      <trkpt lat="48.9929" lon="-0.58809">
        <ele>175</ele>
        <time>2018-06-17T10:03:34Z</time>
      </trkpt>
      <trkpt lat="48.99291" lon="-0.58796">
        <ele>168</ele>
        <time>2018-06-17T10:03:43Z</time>
      </trkpt>
      <trkpt lat="48.9929" lon="-0.58783">
        <ele>168</ele>
        <time>2018-06-17T10:03:52Z</time>
      </trkpt>
      <trkpt lat="48.99289" lon="-0.58771">
        <ele>168</ele>
        <time>2018-06-17T10:04:00Z</time>
      </trkpt>
      <trkpt lat="48.99287" lon="-0.58758">
        <ele>169</ele>
        <time>2018-06-17T10:04:09Z</time>
      </trkpt>
      <trkpt lat="48.99282" lon="-0.58747">
        <ele>170</ele>
        <time>2018-06-17T10:04:15Z</time>
      </trkpt>
      <trkpt lat="48.99284" lon="-0.58735">
        <ele>168</ele>
        <time>2018-06-17T10:04:22Z</time>
      </trkpt>
      <trkpt lat="48.99286" lon="-0.58722">
        <ele>166</ele>
        <time>2018-06-17T10:04:30Z</time>
      </trkpt>
      <trkpt lat="48.99286" lon="-0.5871">
        <ele>167</ele>
        <time>2018-06-17T10:04:38Z</time>
      </trkpt>
      <trkpt lat="48.99285" lon="-0.58697">
        <ele>169</ele>
        <time>2018-06-17T10:04:43Z</time>
      </trkpt>
      <trkpt lat="48.99284" lon="-0.58686">
        <ele>169</ele>
        <time>2018-06-17T10:04:49Z</time>
      </trkpt>
      <trkpt lat="48.99284" lon="-0.58673">
        <ele>170</ele>
        <time>2018-06-17T10:04:56Z</time>
      </trkpt>
      <trkpt lat="48.99282" lon="-0.5866">
        <ele>178</ele>
        <time>2018-06-17T10:05:05Z</time>
      </trkpt>
      <trkpt lat="48.99284" lon="-0.58649">
        <ele>173</ele>
        <time>2018-06-17T10:05:36Z</time>
      </trkpt>
      <trkpt lat="48.99282" lon="-0.58636">
        <ele>177</ele>
        <time>2018-06-17T10:05:43Z</time>
      </trkpt>
      <trkpt lat="48.99283" lon="-0.58623">
        <ele>176</ele>
        <time>2018-06-17T10:05:52Z</time>
      </trkpt>
      <trkpt lat="48.99284" lon="-0.5861">
        <ele>174</ele>
        <time>2018-06-17T10:06:00Z</time>
      </trkpt>
      <trkpt lat="48.99285" lon="-0.58598">
        <ele>179</ele>
        <time>2018-06-17T10:06:10Z</time>
      </trkpt>
      <trkpt lat="48.99287" lon="-0.58585">
        <ele>179</ele>
        <time>2018-06-17T10:06:18Z</time>
      </trkpt>
      <trkpt lat="48.99286" lon="-0.58572">
        <ele>177</ele>
        <time>2018-06-17T10:06:26Z</time>
      </trkpt>
      <trkpt lat="48.99289" lon="-0.5856">
        <ele>175</ele>
        <time>2018-06-17T10:06:34Z</time>
      </trkpt>
      <trkpt lat="48.9929" lon="-0.58547">
        <ele>174</ele>
        <time>2018-06-17T10:06:44Z</time>
      </trkpt>
      <trkpt lat="48.99289" lon="-0.58534">
        <ele>179</ele>
        <time>2018-06-17T10:07:11Z</time>
      </trkpt>
      <trkpt lat="48.99288" lon="-0.58522">
        <ele>180</ele>
        <time>2018-06-17T10:07:18Z</time>
      </trkpt>
      <trkpt lat="48.9929" lon="-0.58508">
        <ele>180</ele>
        <time>2018-06-17T10:07:27Z</time>
      </trkpt>
      <trkpt lat="48.99291" lon="-0.58496">
        <ele>177</ele>
        <time>2018-06-17T10:07:39Z</time>
      </trkpt>
      <trkpt lat="48.9929" lon="-0.58484">
        <ele>179</ele>
        <time>2018-06-17T10:07:45Z</time>
      </trkpt>
      <trkpt lat="48.99288" lon="-0.58472">
        <ele>181</ele>
        <time>2018-06-17T10:07:52Z</time>
      </trkpt>
      <trkpt lat="48.99288" lon="-0.58459">
        <ele>181</ele>
        <time>2018-06-17T10:07:59Z</time>
      </trkpt>
      <trkpt lat="48.9929" lon="-0.58446">
        <ele>179</ele>
        <time>2018-06-17T10:08:15Z</time>
      </trkpt>
      <trkpt lat="48.99292" lon="-0.58434">
        <ele>177</ele>
        <time>2018-06-17T10:08:20Z</time>
      </trkpt>
      <trkpt lat="48.99293" lon="-0.58422">
        <ele>178</ele>
        <time>2018-06-17T10:08:27Z</time>
      </trkpt>
      <trkpt lat="48.99296" lon="-0.5841">
        <ele>179</ele>
        <time>2018-06-17T10:08:35Z</time>
      </trkpt>
      <trkpt lat="48.99296" lon="-0.58397">
        <ele>179</ele>
        <time>2018-06-17T10:08:45Z</time>
      </trkpt>
      <trkpt lat="48.99295" lon="-0.58385">
        <ele>177</ele>
        <time>2018-06-17T10:08:56Z</time>
      </trkpt>
      <trkpt lat="48.99299" lon="-0.58375">
        <ele>177</ele>
        <time>2018-06-17T10:09:02Z</time>
      </trkpt>
      <trkpt lat="48.99299" lon="-0.58362">
        <ele>174</ele>
        <time>2018-06-17T10:09:11Z</time>
      </trkpt>
      <trkpt lat="48.99299" lon="-0.58351">
        <ele>175</ele>
        <time>2018-06-17T10:09:17Z</time>
      </trkpt>
      <trkpt lat="48.99298" lon="-0.58338">
        <ele>175</ele>
        <time>2018-06-17T10:09:27Z</time>
      </trkpt>
      <trkpt lat="48.99299" lon="-0.58326">
        <ele>175</ele>
        <time>2018-06-17T10:09:36Z</time>
      </trkpt>
      <trkpt lat="48.99297" lon="-0.58313">
        <ele>172</ele>
        <time>2018-06-17T10:09:43Z</time>
      </trkpt>
      <trkpt lat="48.99295" lon="-0.583">
        <ele>173</ele>
        <time>2018-06-17T10:09:52Z</time>
      </trkpt>
      <trkpt lat="48.99294" lon="-0.58287">
        <ele>178</ele>
        <time>2018-06-17T10:10:05Z</time>
      </trkpt>
      <trkpt lat="48.9929" lon="-0.58275">
        <ele>176</ele>
        <time>2018-06-17T10:10:15Z</time>
      </trkpt>
      <trkpt lat="48.99287" lon="-0.58262">
        <ele>173</ele>
        <time>2018-06-17T10:10:27Z</time>
      </trkpt>
      <trkpt lat="48.99284" lon="-0.5825">
        <ele>174</ele>
        <time>2018-06-17T10:10:48Z</time>
      </trkpt>
      <trkpt lat="48.9928" lon="-0.58242">
        <ele>175</ele>
        <time>2018-06-17T10:11:53Z</time>
      </trkpt>
      <trkpt lat="48.99276" lon="-0.5823">
        <ele>175</ele>
        <time>2018-06-17T10:12:03Z</time>
      </trkpt>
      <trkpt lat="48.99271" lon="-0.58219">
        <ele>172</ele>
        <time>2018-06-17T10:12:12Z</time>
      </trkpt>
      <trkpt lat="48.99271" lon="-0.58206">
        <ele>170</ele>
        <time>2018-06-17T10:12:22Z</time>
      </trkpt>
      <trkpt lat="48.99273" lon="-0.58193">
        <ele>169</ele>
        <time>2018-06-17T10:17:44Z</time>
      </trkpt>
      <trkpt lat="48.99268" lon="-0.58182">
        <ele>164</ele>
        <time>2018-06-17T10:17:49Z</time>
      </trkpt>
      <trkpt lat="48.99266" lon="-0.5817">
        <ele>164</ele>
        <time>2018-06-17T10:17:56Z</time>
      </trkpt>
      <trkpt lat="48.99261" lon="-0.5816">
        <ele>167</ele>
        <time>2018-06-17T10:18:08Z</time>
      </trkpt>
      <trkpt lat="48.99255" lon="-0.58151">
        <ele>169</ele>
        <time>2018-06-17T10:18:18Z</time>
      </trkpt>
      <trkpt lat="48.99247" lon="-0.58145">
        <ele>168</ele>
        <time>2018-06-17T10:18:28Z</time>
      </trkpt>
      <trkpt lat="48.99242" lon="-0.58134">
        <ele>167</ele>
        <time>2018-06-17T10:18:41Z</time>
      </trkpt>
      <trkpt lat="48.99238" lon="-0.58122">
        <ele>167</ele>
        <time>2018-06-17T10:18:50Z</time>
      </trkpt>
      <trkpt lat="48.99236" lon="-0.58109">
        <ele>162</ele>
        <time>2018-06-17T10:18:56Z</time>
      </trkpt>
      <trkpt lat="48.99232" lon="-0.581">
        <ele>162</ele>
        <time>2018-06-17T10:19:03Z</time>
      </trkpt>
      <trkpt lat="48.9923" lon="-0.58087">
        <ele>164</ele>
        <time>2018-06-17T10:19:10Z</time>
      </trkpt>
      <trkpt lat="48.99227" lon="-0.58076">
        <ele>165</ele>
        <time>2018-06-17T10:19:19Z</time>
      </trkpt>
      <trkpt lat="48.99225" lon="-0.58063">
        <ele>161</ele>
        <time>2018-06-17T10:19:23Z</time>
      </trkpt>
      <trkpt lat="48.99226" lon="-0.58049">
        <ele>158</ele>
        <time>2018-06-17T10:19:34Z</time>
      </trkpt>
      <trkpt lat="48.99227" lon="-0.58044">
        <ele>160</ele>
        <time>2018-06-17T10:19:38Z</time>
      </trkpt>
      <trkpt lat="48.99226" lon="-0.58001">
        <ele>146</ele>
        <time>2018-06-17T10:20:03Z</time>
      </trkpt>
      <trkpt lat="48.99224" lon="-0.57991">
        <ele>151</ele>
        <time>2018-06-17T10:20:29Z</time>
      </trkpt>
      <trkpt lat="48.9922" lon="-0.57979">
        <ele>155</ele>
        <time>2018-06-17T10:20:38Z</time>
      </trkpt>
      <trkpt lat="48.99216" lon="-0.57968">
        <ele>153</ele>
        <time>2018-06-17T10:20:45Z</time>
      </trkpt>
      <trkpt lat="48.99211" lon="-0.57957">
        <ele>156</ele>
        <time>2018-06-17T10:21:10Z</time>
      </trkpt>
      <trkpt lat="48.99208" lon="-0.57946">
        <ele>152</ele>
        <time>2018-06-17T10:21:19Z</time>
      </trkpt>
      <trkpt lat="48.99204" lon="-0.57937">
        <ele>152</ele>
        <time>2018-06-17T10:21:34Z</time>
      </trkpt>
      <trkpt lat="48.99202" lon="-0.57925">
        <ele>149</ele>
        <time>2018-06-17T10:21:38Z</time>
      </trkpt>
      <trkpt lat="48.992" lon="-0.57915">
        <ele>145</ele>
        <time>2018-06-17T10:21:44Z</time>
      </trkpt>
      <trkpt lat="48.99197" lon="-0.57903">
        <ele>142</ele>
        <time>2018-06-17T10:21:50Z</time>
      </trkpt>
      <trkpt lat="48.99191" lon="-0.57894">
        <ele>147</ele>
        <time>2018-06-17T10:21:58Z</time>
      </trkpt>
      <trkpt lat="48.99189" lon="-0.57882">
        <ele>142</ele>
        <time>2018-06-17T10:22:13Z</time>
      </trkpt>
      <trkpt lat="48.99187" lon="-0.57873">
        <ele>140</ele>
        <time>2018-06-17T10:22:18Z</time>
      </trkpt>
      <trkpt lat="48.99184" lon="-0.5786">
        <ele>139</ele>
        <time>2018-06-17T10:22:23Z</time>
      </trkpt>
      <trkpt lat="48.99179" lon="-0.5785">
        <ele>141</ele>
        <time>2018-06-17T10:22:32Z</time>
      </trkpt>
      <trkpt lat="48.99175" lon="-0.57842">
        <ele>140</ele>
        <time>2018-06-17T10:22:37Z</time>
      </trkpt>
      <trkpt lat="48.99174" lon="-0.57829">
        <ele>139</ele>
        <time>2018-06-17T10:22:43Z</time>
      </trkpt>
      <trkpt lat="48.99167" lon="-0.5782">
        <ele>143</ele>
        <time>2018-06-17T10:22:52Z</time>
      </trkpt>
      <trkpt lat="48.99163" lon="-0.57808">
        <ele>139</ele>
        <time>2018-06-17T10:22:57Z</time>
      </trkpt>
      <trkpt lat="48.99162" lon="-0.57798">
        <ele>140</ele>
        <time>2018-06-17T10:23:07Z</time>
      </trkpt>
      <trkpt lat="48.99159" lon="-0.57785">
        <ele>143</ele>
        <time>2018-06-17T10:23:44Z</time>
      </trkpt>
      <trkpt lat="48.99156" lon="-0.57771">
        <ele>142</ele>
        <time>2018-06-17T10:23:48Z</time>
      </trkpt>
      <trkpt lat="48.99153" lon="-0.57759">
        <ele>151</ele>
        <time>2018-06-17T10:23:55Z</time>
      </trkpt>
      <trkpt lat="48.99149" lon="-0.57752">
        <ele>147</ele>
        <time>2018-06-17T10:24:02Z</time>
      </trkpt>
      <trkpt lat="48.99147" lon="-0.5774">
        <ele>144</ele>
        <time>2018-06-17T10:24:07Z</time>
      </trkpt>
      <trkpt lat="48.99144" lon="-0.57728">
        <ele>139</ele>
        <time>2018-06-17T10:24:12Z</time>
      </trkpt>
      <trkpt lat="48.99141" lon="-0.5772">
        <ele>139</ele>
        <time>2018-06-17T10:24:18Z</time>
      </trkpt>
      <trkpt lat="48.99139" lon="-0.57708">
        <ele>137</ele>
        <time>2018-06-17T10:24:25Z</time>
      </trkpt>
      <trkpt lat="48.99138" lon="-0.57695">
        <ele>140</ele>
        <time>2018-06-17T10:24:35Z</time>
      </trkpt>
      <trkpt lat="48.99133" lon="-0.57684">
        <ele>142</ele>
        <time>2018-06-17T10:24:44Z</time>
      </trkpt>
      <trkpt lat="48.99131" lon="-0.57672">
        <ele>143</ele>
        <time>2018-06-17T10:24:54Z</time>
      </trkpt>
      <trkpt lat="48.99128" lon="-0.5766">
        <ele>145</ele>
        <time>2018-06-17T10:25:02Z</time>
      </trkpt>
      <trkpt lat="48.99125" lon="-0.57648">
        <ele>145</ele>
        <time>2018-06-17T10:25:09Z</time>
      </trkpt>
      <trkpt lat="48.99124" lon="-0.57637">
        <ele>140</ele>
        <time>2018-06-17T10:25:14Z</time>
      </trkpt>
      <trkpt lat="48.99121" lon="-0.57625">
        <ele>140</ele>
        <time>2018-06-17T10:25:19Z</time>
      </trkpt>
      <trkpt lat="48.99118" lon="-0.57614">
        <ele>141</ele>
        <time>2018-06-17T10:25:24Z</time>
      </trkpt>
      <trkpt lat="48.99115" lon="-0.57601">
        <ele>143</ele>
        <time>2018-06-17T10:25:35Z</time>
      </trkpt>
      <trkpt lat="48.99119" lon="-0.57589">
        <ele>141</ele>
        <time>2018-06-17T10:25:46Z</time>
      </trkpt>
      <trkpt lat="48.99121" lon="-0.5758">
        <ele>141</ele>
        <time>2018-06-17T10:25:54Z</time>
      </trkpt>
      <trkpt lat="48.99123" lon="-0.57569">
        <ele>142</ele>
        <time>2018-06-17T10:26:02Z</time>
      </trkpt>
      <trkpt lat="48.99126" lon="-0.57558">
        <ele>142</ele>
        <time>2018-06-17T10:26:07Z</time>
      </trkpt>
      <trkpt lat="48.99121" lon="-0.57535">
        <ele>137</ele>
        <time>2018-06-17T10:26:11Z</time>
      </trkpt>
      <trkpt lat="48.99124" lon="-0.57523">
        <ele>135</ele>
        <time>2018-06-17T10:26:23Z</time>
      </trkpt>
      <trkpt lat="48.99118" lon="-0.57514">
        <ele>138</ele>
        <time>2018-06-17T10:26:29Z</time>
      </trkpt>
      <trkpt lat="48.99113" lon="-0.57506">
        <ele>139</ele>
        <time>2018-06-17T10:26:34Z</time>
      </trkpt>
      <trkpt lat="48.99103" lon="-0.57485">
        <ele>141</ele>
        <time>2018-06-17T10:26:38Z</time>
      </trkpt>
      <trkpt lat="48.99106" lon="-0.57479">
        <ele>140</ele>
        <time>2018-06-17T10:26:42Z</time>
      </trkpt>
      <trkpt lat="48.99104" lon="-0.57466">
        <ele>140</ele>
        <time>2018-06-17T10:27:16Z</time>
      </trkpt>
      <trkpt lat="48.99099" lon="-0.57456">
        <ele>140</ele>
        <time>2018-06-17T10:27:24Z</time>
      </trkpt>
      <trkpt lat="48.99096" lon="-0.57452">
        <ele>141</ele>
        <time>2018-06-17T10:27:28Z</time>
      </trkpt>
      <trkpt lat="48.99098" lon="-0.57444">
        <ele>141</ele>
        <time>2018-06-17T10:28:05Z</time>
      </trkpt>
      <trkpt lat="48.99105" lon="-0.57436">
        <ele>145</ele>
        <time>2018-06-17T10:28:17Z</time>
      </trkpt>
      <trkpt lat="48.99105" lon="-0.57423">
        <ele>143</ele>
        <time>2018-06-17T10:28:23Z</time>
      </trkpt>
      <trkpt lat="48.99107" lon="-0.5741">
        <ele>145</ele>
        <time>2018-06-17T10:28:33Z</time>
      </trkpt>
      <trkpt lat="48.99108" lon="-0.57397">
        <ele>145</ele>
        <time>2018-06-17T10:28:40Z</time>
      </trkpt>
      <trkpt lat="48.99106" lon="-0.57387">
        <ele>143</ele>
        <time>2018-06-17T10:29:02Z</time>
      </trkpt>
      <trkpt lat="48.99108" lon="-0.57374">
        <ele>147</ele>
        <time>2018-06-17T10:29:08Z</time>
      </trkpt>
      <trkpt lat="48.99111" lon="-0.57362">
        <ele>152</ele>
        <time>2018-06-17T10:29:14Z</time>
      </trkpt>
      <trkpt lat="48.99116" lon="-0.57353">
        <ele>153</ele>
        <time>2018-06-17T10:29:20Z</time>
      </trkpt>
      <trkpt lat="48.99118" lon="-0.57341">
        <ele>152</ele>
        <time>2018-06-17T10:29:27Z</time>
      </trkpt>
      <trkpt lat="48.99117" lon="-0.57327">
        <ele>148</ele>
        <time>2018-06-17T10:29:32Z</time>
      </trkpt>
      <trkpt lat="48.99123" lon="-0.57319">
        <ele>148</ele>
        <time>2018-06-17T10:29:44Z</time>
      </trkpt>
      <trkpt lat="48.99128" lon="-0.57309">
        <ele>150</ele>
        <time>2018-06-17T10:29:53Z</time>
      </trkpt>
      <trkpt lat="48.99132" lon="-0.57297">
        <ele>151</ele>
        <time>2018-06-17T10:30:03Z</time>
      </trkpt>
      <trkpt lat="48.99135" lon="-0.57286">
        <ele>148</ele>
        <time>2018-06-17T10:30:14Z</time>
      </trkpt>
      <trkpt lat="48.99134" lon="-0.57273">
        <ele>147</ele>
        <time>2018-06-17T10:30:21Z</time>
      </trkpt>
      <trkpt lat="48.99135" lon="-0.5726">
        <ele>144</ele>
        <time>2018-06-17T10:30:28Z</time>
      </trkpt>
      <trkpt lat="48.99136" lon="-0.57247">
        <ele>147</ele>
        <time>2018-06-17T10:30:52Z</time>
      </trkpt>
      <trkpt lat="48.99137" lon="-0.57235">
        <ele>144</ele>
        <time>2018-06-17T10:30:56Z</time>
      </trkpt>
      <trkpt lat="48.99136" lon="-0.57218">
        <ele>144</ele>
        <time>2018-06-17T10:31:01Z</time>
      </trkpt>
      <trkpt lat="48.99138" lon="-0.57207">
        <ele>149</ele>
        <time>2018-06-17T10:31:09Z</time>
      </trkpt>
      <trkpt lat="48.99142" lon="-0.57196">
        <ele>148</ele>
        <time>2018-06-17T10:31:16Z</time>
      </trkpt>
      <trkpt lat="48.99144" lon="-0.57184">
        <ele>153</ele>
        <time>2018-06-17T10:31:24Z</time>
      </trkpt>
      <trkpt lat="48.99148" lon="-0.57173">
        <ele>153</ele>
        <time>2018-06-17T10:31:30Z</time>
      </trkpt>
      <trkpt lat="48.99154" lon="-0.57165">
        <ele>152</ele>
        <time>2018-06-17T10:31:43Z</time>
      </trkpt>
      <trkpt lat="48.99156" lon="-0.57154">
        <ele>152</ele>
        <time>2018-06-17T10:31:48Z</time>
      </trkpt>
      <trkpt lat="48.99158" lon="-0.5714">
        <ele>156</ele>
        <time>2018-06-17T10:31:53Z</time>
      </trkpt>
      <trkpt lat="48.99164" lon="-0.57136">
        <ele>153</ele>
        <time>2018-06-17T10:31:58Z</time>
      </trkpt>
      <trkpt lat="48.9917" lon="-0.57129">
        <ele>154</ele>
        <time>2018-06-17T10:32:04Z</time>
      </trkpt>
      <trkpt lat="48.9917" lon="-0.57125">
        <ele>158</ele>
        <time>2018-06-17T10:32:50Z</time>
      </trkpt>
      <trkpt lat="48.99168" lon="-0.57108">
        <ele>145</ele>
        <time>2018-06-17T10:32:55Z</time>
      </trkpt>
      <trkpt lat="48.99167" lon="-0.57097">
        <ele>144</ele>
        <time>2018-06-17T10:33:01Z</time>
      </trkpt>
      <trkpt lat="48.99161" lon="-0.57087">
        <ele>141</ele>
        <time>2018-06-17T10:33:07Z</time>
      </trkpt>
      <trkpt lat="48.99163" lon="-0.57074">
        <ele>136</ele>
        <time>2018-06-17T10:33:40Z</time>
      </trkpt>
      <trkpt lat="48.9916" lon="-0.57062">
        <ele>138</ele>
        <time>2018-06-17T10:33:47Z</time>
      </trkpt>
      <trkpt lat="48.9916" lon="-0.57049">
        <ele>138</ele>
        <time>2018-06-17T10:33:52Z</time>
      </trkpt>
      <trkpt lat="48.99155" lon="-0.57039">
        <ele>141</ele>
        <time>2018-06-17T10:33:58Z</time>
      </trkpt>
      <trkpt lat="48.99154" lon="-0.57027">
        <ele>141</ele>
        <time>2018-06-17T10:34:03Z</time>
      </trkpt>
      <trkpt lat="48.99145" lon="-0.57022">
        <ele>142</ele>
        <time>2018-06-17T10:34:08Z</time>
      </trkpt>
      <trkpt lat="48.99143" lon="-0.57009">
        <ele>142</ele>
        <time>2018-06-17T10:34:22Z</time>
      </trkpt>
      <trkpt lat="48.99146" lon="-0.56997">
        <ele>141</ele>
        <time>2018-06-17T10:35:09Z</time>
      </trkpt>
      <trkpt lat="48.99148" lon="-0.56984">
        <ele>137</ele>
        <time>2018-06-17T10:35:15Z</time>
      </trkpt>
      <trkpt lat="48.9915" lon="-0.56971">
        <ele>136</ele>
        <time>2018-06-17T10:35:22Z</time>
      </trkpt>
      <trkpt lat="48.99146" lon="-0.56959">
        <ele>138</ele>
        <time>2018-06-17T10:35:28Z</time>
      </trkpt>
      <trkpt lat="48.99152" lon="-0.56949">
        <ele>135</ele>
        <time>2018-06-17T10:35:36Z</time>
      </trkpt>
      <trkpt lat="48.9916" lon="-0.56945">
        <ele>133</ele>
        <time>2018-06-17T10:35:47Z</time>
      </trkpt>
      <trkpt lat="48.99166" lon="-0.56937">
        <ele>131</ele>
        <time>2018-06-17T10:35:53Z</time>
      </trkpt>
      <trkpt lat="48.99167" lon="-0.56924">
        <ele>130</ele>
        <time>2018-06-17T10:37:20Z</time>
      </trkpt>
      <trkpt lat="48.99167" lon="-0.56912">
        <ele>138</ele>
        <time>2018-06-17T10:37:51Z</time>
      </trkpt>
      <trkpt lat="48.99168" lon="-0.56899">
        <ele>135</ele>
        <time>2018-06-17T10:38:01Z</time>
      </trkpt>
      <trkpt lat="48.9917" lon="-0.56886">
        <ele>133</ele>
        <time>2018-06-17T10:38:08Z</time>
      </trkpt>
      <trkpt lat="48.99167" lon="-0.56875">
        <ele>133</ele>
        <time>2018-06-17T10:38:17Z</time>
      </trkpt>
      <trkpt lat="48.99172" lon="-0.56863">
        <ele>124</ele>
        <time>2018-06-17T10:38:42Z</time>
      </trkpt>
      <trkpt lat="48.99175" lon="-0.56851">
        <ele>122</ele>
        <time>2018-06-17T10:38:52Z</time>
      </trkpt>
      <trkpt lat="48.99181" lon="-0.56845">
        <ele>121</ele>
        <time>2018-06-17T10:38:56Z</time>
      </trkpt>
      <trkpt lat="48.9918" lon="-0.56835">
        <ele>121</ele>
        <time>2018-06-17T10:39:00Z</time>
      </trkpt>
      <trkpt lat="48.99185" lon="-0.56821">
        <ele>119</ele>
        <time>2018-06-17T10:39:05Z</time>
      </trkpt>
      <trkpt lat="48.99196" lon="-0.56813">
        <ele>121</ele>
        <time>2018-06-17T10:39:09Z</time>
      </trkpt>
      <trkpt lat="48.99194" lon="-0.568">
        <ele>124</ele>
        <time>2018-06-17T10:39:15Z</time>
      </trkpt>
      <trkpt lat="48.99195" lon="-0.56786">
        <ele>126</ele>
        <time>2018-06-17T10:39:24Z</time>
      </trkpt>
      <trkpt lat="48.992" lon="-0.56779">
        <ele>129</ele>
        <time>2018-06-17T10:39:55Z</time>
      </trkpt>
      <trkpt lat="48.99203" lon="-0.56765">
        <ele>131</ele>
        <time>2018-06-17T10:39:59Z</time>
      </trkpt>
      <trkpt lat="48.99209" lon="-0.56754">
        <ele>129</ele>
        <time>2018-06-17T10:40:03Z</time>
      </trkpt>
      <trkpt lat="48.99216" lon="-0.56745">
        <ele>129</ele>
        <time>2018-06-17T10:40:09Z</time>
      </trkpt>
      <trkpt lat="48.99221" lon="-0.56737">
        <ele>125</ele>
        <time>2018-06-17T10:40:15Z</time>
      </trkpt>
      <trkpt lat="48.99228" lon="-0.56729">
        <ele>123</ele>
        <time>2018-06-17T10:40:21Z</time>
      </trkpt>
      <trkpt lat="48.99232" lon="-0.56722">
        <ele>127</ele>
        <time>2018-06-17T10:40:27Z</time>
      </trkpt>
      <trkpt lat="48.99237" lon="-0.56715">
        <ele>130</ele>
        <time>2018-06-17T10:40:32Z</time>
      </trkpt>
      <trkpt lat="48.99245" lon="-0.5671">
        <ele>130</ele>
        <time>2018-06-17T10:40:40Z</time>
      </trkpt>
      <trkpt lat="48.99253" lon="-0.56708">
        <ele>129</ele>
        <time>2018-06-17T10:41:11Z</time>
      </trkpt>
      <trkpt lat="48.99256" lon="-0.56697">
        <ele>130</ele>
        <time>2018-06-17T10:41:20Z</time>
      </trkpt>
      <trkpt lat="48.99259" lon="-0.56686">
        <ele>126</ele>
        <time>2018-06-17T10:41:26Z</time>
      </trkpt>
      <trkpt lat="48.99266" lon="-0.56676">
        <ele>127</ele>
        <time>2018-06-17T10:41:31Z</time>
      </trkpt>
      <trkpt lat="48.99269" lon="-0.56664">
        <ele>128</ele>
        <time>2018-06-17T10:41:53Z</time>
      </trkpt>
      <trkpt lat="48.99273" lon="-0.56655">
        <ele>128</ele>
        <time>2018-06-17T10:41:57Z</time>
      </trkpt>
      <trkpt lat="48.99277" lon="-0.56645">
        <ele>130</ele>
        <time>2018-06-17T10:42:02Z</time>
      </trkpt>
      <trkpt lat="48.99284" lon="-0.56636">
        <ele>130</ele>
        <time>2018-06-17T10:42:09Z</time>
      </trkpt>
      <trkpt lat="48.99286" lon="-0.56626">
        <ele>130</ele>
        <time>2018-06-17T10:42:14Z</time>
      </trkpt>
      <trkpt lat="48.99285" lon="-0.56613">
        <ele>131</ele>
        <time>2018-06-17T10:42:19Z</time>
      </trkpt>
      <trkpt lat="48.99288" lon="-0.56603">
        <ele>130</ele>
        <time>2018-06-17T10:42:24Z</time>
      </trkpt>
      <trkpt lat="48.9929" lon="-0.56592">
        <ele>129</ele>
        <time>2018-06-17T10:42:31Z</time>
      </trkpt>
      <trkpt lat="48.99297" lon="-0.56588">
        <ele>122</ele>
        <time>2018-06-17T10:42:36Z</time>
      </trkpt>
      <trkpt lat="48.993" lon="-0.56577">
        <ele>122</ele>
        <time>2018-06-17T10:42:41Z</time>
      </trkpt>
      <trkpt lat="48.99301" lon="-0.56565">
        <ele>125</ele>
        <time>2018-06-17T10:42:52Z</time>
      </trkpt>
      <trkpt lat="48.99306" lon="-0.56556">
        <ele>128</ele>
        <time>2018-06-17T10:42:58Z</time>
      </trkpt>
      <trkpt lat="48.99311" lon="-0.56545">
        <ele>128</ele>
        <time>2018-06-17T10:43:07Z</time>
      </trkpt>
      <trkpt lat="48.99317" lon="-0.56536">
        <ele>128</ele>
        <time>2018-06-17T10:43:13Z</time>
      </trkpt>
      <trkpt lat="48.99323" lon="-0.5653">
        <ele>131</ele>
        <time>2018-06-17T10:43:20Z</time>
      </trkpt>
      <trkpt lat="48.9933" lon="-0.56525">
        <ele>130</ele>
        <time>2018-06-17T10:43:26Z</time>
      </trkpt>
      <trkpt lat="48.99336" lon="-0.56517">
        <ele>130</ele>
        <time>2018-06-17T10:43:32Z</time>
      </trkpt>
      <trkpt lat="48.99337" lon="-0.56504">
        <ele>125</ele>
        <time>2018-06-17T10:43:45Z</time>
      </trkpt>
      <trkpt lat="48.99343" lon="-0.56497">
        <ele>118</ele>
        <time>2018-06-17T10:43:52Z</time>
      </trkpt>
      <trkpt lat="48.99347" lon="-0.56486">
        <ele>121</ele>
        <time>2018-06-17T10:44:16Z</time>
      </trkpt>
      <trkpt lat="48.99351" lon="-0.56475">
        <ele>125</ele>
        <time>2018-06-17T10:44:26Z</time>
      </trkpt>
      <trkpt lat="48.99361" lon="-0.56471">
        <ele>125</ele>
        <time>2018-06-17T10:44:30Z</time>
      </trkpt>
      <trkpt lat="48.99363" lon="-0.56456">
        <ele>123</ele>
        <time>2018-06-17T10:44:35Z</time>
      </trkpt>
      <trkpt lat="48.99369" lon="-0.56445">
        <ele>123</ele>
        <time>2018-06-17T10:44:41Z</time>
      </trkpt>
      <trkpt lat="48.99377" lon="-0.56443">
        <ele>122</ele>
        <time>2018-06-17T10:44:52Z</time>
      </trkpt>
      <trkpt lat="48.99377" lon="-0.56432">
        <ele>123</ele>
        <time>2018-06-17T10:45:19Z</time>
      </trkpt>
      <trkpt lat="48.99382" lon="-0.56421">
        <ele>122</ele>
        <time>2018-06-17T10:45:23Z</time>
      </trkpt>
      <trkpt lat="48.99384" lon="-0.56411">
        <ele>123</ele>
        <time>2018-06-17T10:45:30Z</time>
      </trkpt>
      <trkpt lat="48.99382" lon="-0.56399">
        <ele>121</ele>
        <time>2018-06-17T10:45:37Z</time>
      </trkpt>
      <trkpt lat="48.99382" lon="-0.56387">
        <ele>122</ele>
        <time>2018-06-17T10:45:45Z</time>
      </trkpt>
      <trkpt lat="48.99385" lon="-0.56374">
        <ele>121</ele>
        <time>2018-06-17T10:45:53Z</time>
      </trkpt>
      <trkpt lat="48.99387" lon="-0.56361">
        <ele>120</ele>
        <time>2018-06-17T10:46:00Z</time>
      </trkpt>
      <trkpt lat="48.99394" lon="-0.56353">
        <ele>118</ele>
        <time>2018-06-17T10:46:08Z</time>
      </trkpt>
      <trkpt lat="48.99402" lon="-0.56348">
        <ele>120</ele>
        <time>2018-06-17T10:46:14Z</time>
      </trkpt>
      <trkpt lat="48.99402" lon="-0.56335">
        <ele>123</ele>
        <time>2018-06-17T10:46:22Z</time>
      </trkpt>
      <trkpt lat="48.99404" lon="-0.56325">
        <ele>123</ele>
        <time>2018-06-17T10:46:28Z</time>
      </trkpt>
      <trkpt lat="48.994" lon="-0.56312">
        <ele>125</ele>
        <time>2018-06-17T10:46:32Z</time>
      </trkpt>
      <trkpt lat="48.99404" lon="-0.563">
        <ele>126</ele>
        <time>2018-06-17T10:46:44Z</time>
      </trkpt>
      <trkpt lat="48.99409" lon="-0.56291">
        <ele>124</ele>
        <time>2018-06-17T10:46:54Z</time>
      </trkpt>
      <trkpt lat="48.99418" lon="-0.56284">
        <ele>123</ele>
        <time>2018-06-17T10:46:59Z</time>
      </trkpt>
      <trkpt lat="48.99422" lon="-0.56271">
        <ele>125</ele>
        <time>2018-06-17T10:47:06Z</time>
      </trkpt>
      <trkpt lat="48.99421" lon="-0.56259">
        <ele>123</ele>
        <time>2018-06-17T10:47:12Z</time>
      </trkpt>
      <trkpt lat="48.99423" lon="-0.56245">
        <ele>123</ele>
        <time>2018-06-17T10:47:18Z</time>
      </trkpt>
      <trkpt lat="48.99425" lon="-0.56232">
        <ele>124</ele>
        <time>2018-06-17T10:47:26Z</time>
      </trkpt>
      <trkpt lat="48.99429" lon="-0.5622">
        <ele>123</ele>
        <time>2018-06-17T10:47:34Z</time>
      </trkpt>
      <trkpt lat="48.99433" lon="-0.56209">
        <ele>119</ele>
        <time>2018-06-17T10:47:43Z</time>
      </trkpt>
      <trkpt lat="48.99432" lon="-0.56197">
        <ele>119</ele>
        <time>2018-06-17T10:47:49Z</time>
      </trkpt>
      <trkpt lat="48.99436" lon="-0.56188">
        <ele>118</ele>
        <time>2018-06-17T10:47:56Z</time>
      </trkpt>
      <trkpt lat="48.99435" lon="-0.56175">
        <ele>120</ele>
        <time>2018-06-17T10:48:18Z</time>
      </trkpt>
      <trkpt lat="48.99432" lon="-0.56164">
        <ele>121</ele>
        <time>2018-06-17T10:48:24Z</time>
      </trkpt>
      <trkpt lat="48.99434" lon="-0.56152">
        <ele>121</ele>
        <time>2018-06-17T10:48:47Z</time>
      </trkpt>
      <trkpt lat="48.99438" lon="-0.56139">
        <ele>118</ele>
        <time>2018-06-17T10:49:55Z</time>
      </trkpt>
      <trkpt lat="48.99438" lon="-0.56126">
        <ele>120</ele>
        <time>2018-06-17T10:49:59Z</time>
      </trkpt>
      <trkpt lat="48.99432" lon="-0.56115">
        <ele>123</ele>
        <time>2018-06-17T10:50:04Z</time>
      </trkpt>
      <trkpt lat="48.99437" lon="-0.56106">
        <ele>122</ele>
        <time>2018-06-17T10:50:09Z</time>
      </trkpt>
      <trkpt lat="48.99439" lon="-0.56093">
        <ele>123</ele>
        <time>2018-06-17T10:50:14Z</time>
      </trkpt>
      <trkpt lat="48.99442" lon="-0.56082">
        <ele>121</ele>
        <time>2018-06-17T10:50:21Z</time>
      </trkpt>
      <trkpt lat="48.99441" lon="-0.56069">
        <ele>120</ele>
        <time>2018-06-17T10:50:26Z</time>
      </trkpt>
      <trkpt lat="48.99446" lon="-0.56058">
        <ele>118</ele>
        <time>2018-06-17T10:50:32Z</time>
      </trkpt>
      <trkpt lat="48.99447" lon="-0.56048">
        <ele>119</ele>
        <time>2018-06-17T10:50:40Z</time>
      </trkpt>
      <trkpt lat="48.99451" lon="-0.56037">
        <ele>115</ele>
        <time>2018-06-17T10:50:45Z</time>
      </trkpt>
      <trkpt lat="48.99459" lon="-0.56026">
        <ele>111</ele>
        <time>2018-06-17T10:50:50Z</time>
      </trkpt>
      <trkpt lat="48.99452" lon="-0.56021">
        <ele>111</ele>
        <time>2018-06-17T10:50:55Z</time>
      </trkpt>
      <trkpt lat="48.99453" lon="-0.56009">
        <ele>108</ele>
        <time>2018-06-17T10:51:07Z</time>
      </trkpt>
      <trkpt lat="48.99448" lon="-0.55998">
        <ele>110</ele>
        <time>2018-06-17T10:51:14Z</time>
      </trkpt>
      <trkpt lat="48.99447" lon="-0.55986">
        <ele>109</ele>
        <time>2018-06-17T10:51:21Z</time>
      </trkpt>
      <trkpt lat="48.99449" lon="-0.55974">
        <ele>109</ele>
        <time>2018-06-17T10:51:30Z</time>
      </trkpt>
      <trkpt lat="48.99452" lon="-0.55964">
        <ele>107</ele>
        <time>2018-06-17T10:51:35Z</time>
      </trkpt>
      <trkpt lat="48.99449" lon="-0.55952">
        <ele>111</ele>
        <time>2018-06-17T10:51:43Z</time>
      </trkpt>
      <trkpt lat="48.99447" lon="-0.5594">
        <ele>111</ele>
        <time>2018-06-17T10:51:52Z</time>
      </trkpt>
      <trkpt lat="48.99444" lon="-0.55927">
        <ele>110</ele>
        <time>2018-06-17T10:52:01Z</time>
      </trkpt>
      <trkpt lat="48.99445" lon="-0.55918">
        <ele>109</ele>
        <time>2018-06-17T10:52:07Z</time>
      </trkpt>
      <trkpt lat="48.99447" lon="-0.55906">
        <ele>106</ele>
        <time>2018-06-17T10:52:13Z</time>
      </trkpt>
      <trkpt lat="48.99448" lon="-0.55893">
        <ele>103</ele>
        <time>2018-06-17T10:52:19Z</time>
      </trkpt>
      <trkpt lat="48.99448" lon="-0.55883">
        <ele>104</ele>
        <time>2018-06-17T10:52:26Z</time>
      </trkpt>
      <trkpt lat="48.9945" lon="-0.55871">
        <ele>103</ele>
        <time>2018-06-17T10:52:36Z</time>
      </trkpt>
      <trkpt lat="48.9945" lon="-0.55859">
        <ele>104</ele>
        <time>2018-06-17T10:52:53Z</time>
      </trkpt>
      <trkpt lat="48.99452" lon="-0.55846">
        <ele>107</ele>
        <time>2018-06-17T10:53:20Z</time>
      </trkpt>
      <trkpt lat="48.99455" lon="-0.55832">
        <ele>106</ele>
        <time>2018-06-17T10:53:25Z</time>
      </trkpt>
      <trkpt lat="48.99453" lon="-0.5582">
        <ele>106</ele>
        <time>2018-06-17T10:53:29Z</time>
      </trkpt>
      <trkpt lat="48.99451" lon="-0.55809">
        <ele>107</ele>
        <time>2018-06-17T10:53:34Z</time>
      </trkpt>
      <trkpt lat="48.99448" lon="-0.55798">
        <ele>110</ele>
        <time>2018-06-17T10:53:42Z</time>
      </trkpt>
      <trkpt lat="48.99448" lon="-0.55785">
        <ele>108</ele>
        <time>2018-06-17T10:54:12Z</time>
      </trkpt>
      <trkpt lat="48.99447" lon="-0.55771">
        <ele>109</ele>
        <time>2018-06-17T10:54:27Z</time>
      </trkpt>
      <trkpt lat="48.99455" lon="-0.55768">
        <ele>110</ele>
        <time>2018-06-17T10:54:38Z</time>
      </trkpt>
      <trkpt lat="48.99464" lon="-0.55767">
        <ele>113</ele>
        <time>2018-06-17T10:54:43Z</time>
      </trkpt>
      <trkpt lat="48.9947" lon="-0.55766">
        <ele>115</ele>
        <time>2018-06-17T10:54:47Z</time>
      </trkpt>
      <trkpt lat="48.99479" lon="-0.55763">
        <ele>110</ele>
        <time>2018-06-17T10:54:52Z</time>
      </trkpt>
      <trkpt lat="48.99487" lon="-0.5576">
        <ele>107</ele>
        <time>2018-06-17T10:54:57Z</time>
      </trkpt>
      <trkpt lat="48.99491" lon="-0.55772">
        <ele>111</ele>
        <time>2018-06-17T10:55:43Z</time>
      </trkpt>
      <trkpt lat="48.99498" lon="-0.55778">
        <ele>109</ele>
        <time>2018-06-17T10:55:50Z</time>
      </trkpt>
      <trkpt lat="48.99499" lon="-0.55765">
        <ele>106</ele>
        <time>2018-06-17T10:55:54Z</time>
      </trkpt>
      <trkpt lat="48.99531" lon="-0.55778">
        <ele>112</ele>
        <time>2018-06-17T10:55:59Z</time>
      </trkpt>
      <trkpt lat="48.99507" lon="-0.55786">
        <ele>106</ele>
        <time>2018-06-17T10:56:03Z</time>
      </trkpt>
      <trkpt lat="48.99514" lon="-0.55786">
        <ele>103</ele>
        <time>2018-06-17T10:56:11Z</time>
      </trkpt>
      <trkpt lat="48.99522" lon="-0.55783">
        <ele>104</ele>
        <time>2018-06-17T10:56:15Z</time>
      </trkpt>
      <trkpt lat="48.99529" lon="-0.55785">
        <ele>109</ele>
        <time>2018-06-17T10:56:41Z</time>
      </trkpt>
      <trkpt lat="48.99535" lon="-0.55784">
        <ele>114</ele>
        <time>2018-06-17T10:57:06Z</time>
      </trkpt>
      <trkpt lat="48.99546" lon="-0.55787">
        <ele>114</ele>
        <time>2018-06-17T10:57:10Z</time>
      </trkpt>
      <trkpt lat="48.99552" lon="-0.55789">
        <ele>113</ele>
        <time>2018-06-17T10:57:14Z</time>
      </trkpt>
      <trkpt lat="48.99559" lon="-0.55788">
        <ele>114</ele>
        <time>2018-06-17T10:57:19Z</time>
      </trkpt>
      <trkpt lat="48.99566" lon="-0.55787">
        <ele>114</ele>
        <time>2018-06-17T10:57:23Z</time>
      </trkpt>
      <trkpt lat="48.99578" lon="-0.55783">
        <ele>114</ele>
        <time>2018-06-17T10:57:28Z</time>
      </trkpt>
      <trkpt lat="48.99587" lon="-0.55784">
        <ele>112</ele>
        <time>2018-06-17T10:57:32Z</time>
      </trkpt>
      <trkpt lat="48.99594" lon="-0.55781">
        <ele>117</ele>
        <time>2018-06-17T10:57:37Z</time>
      </trkpt>
      <trkpt lat="48.996" lon="-0.55775">
        <ele>116</ele>
        <time>2018-06-17T10:57:42Z</time>
      </trkpt>
      <trkpt lat="48.99609" lon="-0.55773">
        <ele>113</ele>
        <time>2018-06-17T10:57:51Z</time>
      </trkpt>
      <trkpt lat="48.99616" lon="-0.55767">
        <ele>113</ele>
        <time>2018-06-17T10:57:59Z</time>
      </trkpt>
      <trkpt lat="48.99622" lon="-0.55764">
        <ele>114</ele>
        <time>2018-06-17T10:58:06Z</time>
      </trkpt>
      <trkpt lat="48.9963" lon="-0.55763">
        <ele>117</ele>
        <time>2018-06-17T10:58:11Z</time>
      </trkpt>
      <trkpt lat="48.99638" lon="-0.55764">
        <ele>120</ele>
        <time>2018-06-17T10:58:26Z</time>
      </trkpt>
      <trkpt lat="48.99647" lon="-0.55764">
        <ele>122</ele>
        <time>2018-06-17T10:58:31Z</time>
      </trkpt>
      <trkpt lat="48.99655" lon="-0.55766">
        <ele>126</ele>
        <time>2018-06-17T10:59:07Z</time>
      </trkpt>
      <trkpt lat="48.99663" lon="-0.55766">
        <ele>126</ele>
        <time>2018-06-17T10:59:15Z</time>
      </trkpt>
      <trkpt lat="48.9967" lon="-0.55768">
        <ele>126</ele>
        <time>2018-06-17T10:59:21Z</time>
      </trkpt>
      <trkpt lat="48.99678" lon="-0.5577">
        <ele>125</ele>
        <time>2018-06-17T10:59:37Z</time>
      </trkpt>
      <trkpt lat="48.99682" lon="-0.55768">
        <ele>123</ele>
        <time>2018-06-17T10:59:42Z</time>
      </trkpt>
      <trkpt lat="48.99691" lon="-0.55768">
        <ele>119</ele>
        <time>2018-06-17T10:59:55Z</time>
      </trkpt>
      <trkpt lat="48.99697" lon="-0.55764">
        <ele>119</ele>
        <time>2018-06-17T11:00:03Z</time>
      </trkpt>
      <trkpt lat="48.99714" lon="-0.55767">
        <ele>113</ele>
        <time>2018-06-17T11:00:08Z</time>
      </trkpt>
      <trkpt lat="48.99719" lon="-0.55776">
        <ele>111</ele>
        <time>2018-06-17T11:00:13Z</time>
      </trkpt>
      <trkpt lat="48.99723" lon="-0.55788">
        <ele>112</ele>
        <time>2018-06-17T11:00:19Z</time>
      </trkpt>
      <trkpt lat="48.99729" lon="-0.55797">
        <ele>114</ele>
        <time>2018-06-17T11:00:26Z</time>
      </trkpt>
      <trkpt lat="48.99732" lon="-0.55801">
        <ele>115</ele>
        <time>2018-06-17T11:00:30Z</time>
      </trkpt>
      <trkpt lat="48.99739" lon="-0.55809">
        <ele>118</ele>
        <time>2018-06-17T11:00:35Z</time>
      </trkpt>
      <trkpt lat="48.99745" lon="-0.55817">
        <ele>119</ele>
        <time>2018-06-17T11:00:40Z</time>
      </trkpt>
      <trkpt lat="48.99752" lon="-0.55823">
        <ele>118</ele>
        <time>2018-06-17T11:00:45Z</time>
      </trkpt>
      <trkpt lat="48.99751" lon="-0.55836">
        <ele>124</ele>
        <time>2018-06-17T11:01:33Z</time>
      </trkpt>
      <trkpt lat="48.99751" lon="-0.55848">
        <ele>126</ele>
        <time>2018-06-17T11:01:37Z</time>
      </trkpt>
      <trkpt lat="48.9976" lon="-0.55856">
        <ele>126</ele>
        <time>2018-06-17T11:01:42Z</time>
      </trkpt>
      <trkpt lat="48.99768" lon="-0.55863">
        <ele>124</ele>
        <time>2018-06-17T11:01:47Z</time>
      </trkpt>
      <trkpt lat="48.99765" lon="-0.55875">
        <ele>124</ele>
        <time>2018-06-17T11:01:52Z</time>
      </trkpt>
      <trkpt lat="48.99758" lon="-0.55885">
        <ele>120</ele>
        <time>2018-06-17T11:01:56Z</time>
      </trkpt>
      <trkpt lat="48.99759" lon="-0.55896">
        <ele>120</ele>
        <time>2018-06-17T11:02:00Z</time>
      </trkpt>
      <trkpt lat="48.99765" lon="-0.55907">
        <ele>121</ele>
        <time>2018-06-17T11:02:05Z</time>
      </trkpt>
      <trkpt lat="48.99772" lon="-0.55917">
        <ele>120</ele>
        <time>2018-06-17T11:02:10Z</time>
      </trkpt>
      <trkpt lat="48.99778" lon="-0.55926">
        <ele>117</ele>
        <time>2018-06-17T11:02:17Z</time>
      </trkpt>
      <trkpt lat="48.99785" lon="-0.55932">
        <ele>116</ele>
        <time>2018-06-17T11:02:32Z</time>
      </trkpt>
      <trkpt lat="48.99792" lon="-0.55937">
        <ele>119</ele>
        <time>2018-06-17T11:02:40Z</time>
      </trkpt>
      <trkpt lat="48.998" lon="-0.55934">
        <ele>120</ele>
        <time>2018-06-17T11:02:52Z</time>
      </trkpt>
      <trkpt lat="48.99808" lon="-0.55938">
        <ele>123</ele>
        <time>2018-06-17T11:03:03Z</time>
      </trkpt>
      <trkpt lat="48.99816" lon="-0.55941">
        <ele>121</ele>
        <time>2018-06-17T11:03:09Z</time>
      </trkpt>
      <trkpt lat="48.99825" lon="-0.55943">
        <ele>117</ele>
        <time>2018-06-17T11:03:14Z</time>
      </trkpt>
      <trkpt lat="48.99834" lon="-0.55943">
        <ele>119</ele>
        <time>2018-06-17T11:03:21Z</time>
      </trkpt>
      <trkpt lat="48.99843" lon="-0.5594">
        <ele>120</ele>
        <time>2018-06-17T11:03:30Z</time>
      </trkpt>
      <trkpt lat="48.99848" lon="-0.55931">
        <ele>126</ele>
        <time>2018-06-17T11:03:42Z</time>
      </trkpt>
      <trkpt lat="48.99857" lon="-0.5593">
        <ele>129</ele>
        <time>2018-06-17T11:03:50Z</time>
      </trkpt>
      <trkpt lat="48.99865" lon="-0.55933">
        <ele>126</ele>
        <time>2018-06-17T11:03:54Z</time>
      </trkpt>
      <trkpt lat="48.99872" lon="-0.5594">
        <ele>126</ele>
        <time>2018-06-17T11:04:03Z</time>
      </trkpt>
      <trkpt lat="48.99868" lon="-0.55949">
        <ele>129</ele>
        <time>2018-06-17T11:04:34Z</time>
      </trkpt>
      <trkpt lat="48.99868" lon="-0.55949">
        <ele>129</ele>
        <time>2018-06-17T11:04:34Z</time>
      </trkpt>
      <trkpt lat="48.99868" lon="-0.55948">
        <ele>129</ele>
        <time>2018-06-17T11:05:47Z</time>
      </trkpt>
      <trkpt lat="48.99875" lon="-0.55952">
        <ele>127</ele>
        <time>2018-06-17T11:06:32Z</time>
      </trkpt>
      <trkpt lat="48.99887" lon="-0.55954">
        <ele>131</ele>
        <time>2018-06-17T11:06:36Z</time>
      </trkpt>
      <trkpt lat="48.99902" lon="-0.55959">
        <ele>131</ele>
        <time>2018-06-17T11:06:41Z</time>
      </trkpt>
      <trkpt lat="48.99909" lon="-0.55966">
        <ele>133</ele>
        <time>2018-06-17T11:06:53Z</time>
      </trkpt>
      <trkpt lat="48.99914" lon="-0.55969">
        <ele>132</ele>
        <time>2018-06-17T11:07:02Z</time>
      </trkpt>
      <trkpt lat="48.99922" lon="-0.55968">
        <ele>133</ele>
        <time>2018-06-17T11:07:07Z</time>
      </trkpt>
      <trkpt lat="48.9993" lon="-0.55962">
        <ele>135</ele>
        <time>2018-06-17T11:07:15Z</time>
      </trkpt>
      <trkpt lat="48.99937" lon="-0.5596">
        <ele>135</ele>
        <time>2018-06-17T11:07:21Z</time>
      </trkpt>
      <trkpt lat="48.99946" lon="-0.55957">
        <ele>133</ele>
        <time>2018-06-17T11:07:27Z</time>
      </trkpt>
      <trkpt lat="48.99955" lon="-0.55965">
        <ele>129</ele>
        <time>2018-06-17T11:07:32Z</time>
      </trkpt>
      <trkpt lat="48.99961" lon="-0.55974">
        <ele>130</ele>
        <time>2018-06-17T11:07:39Z</time>
      </trkpt>
      <trkpt lat="48.99967" lon="-0.55983">
        <ele>134</ele>
        <time>2018-06-17T11:07:55Z</time>
      </trkpt>
      <trkpt lat="48.99974" lon="-0.5599">
        <ele>135</ele>
        <time>2018-06-17T11:08:03Z</time>
      </trkpt>
      <trkpt lat="48.9998" lon="-0.55996">
        <ele>133</ele>
        <time>2018-06-17T11:08:09Z</time>
      </trkpt>
      <trkpt lat="48.99987" lon="-0.56005">
        <ele>133</ele>
        <time>2018-06-17T11:08:20Z</time>
      </trkpt>
      <trkpt lat="48.99993" lon="-0.56009">
        <ele>129</ele>
        <time>2018-06-17T11:08:24Z</time>
      </trkpt>
      <trkpt lat="49" lon="-0.56017">
        <ele>129</ele>
        <time>2018-06-17T11:08:29Z</time>
      </trkpt>
      <trkpt lat="49.00006" lon="-0.56025">
        <ele>137</ele>
        <time>2018-06-17T11:09:06Z</time>
      </trkpt>
      <trkpt lat="49.00017" lon="-0.56034">
        <ele>140</ele>
        <time>2018-06-17T11:09:11Z</time>
      </trkpt>
      <trkpt lat="49.00024" lon="-0.5604">
        <ele>132</ele>
        <time>2018-06-17T11:09:20Z</time>
      </trkpt>
      <trkpt lat="49.00027" lon="-0.56052">
        <ele>134</ele>
        <time>2018-06-17T11:09:30Z</time>
      </trkpt>
      <trkpt lat="49.00038" lon="-0.56053">
        <ele>135</ele>
        <time>2018-06-17T11:09:35Z</time>
      </trkpt>
      <trkpt lat="49.00043" lon="-0.56061">
        <ele>137</ele>
        <time>2018-06-17T11:09:43Z</time>
      </trkpt>
      <trkpt lat="49.0005" lon="-0.5607">
        <ele>139</ele>
        <time>2018-06-17T11:09:52Z</time>
      </trkpt>
      <trkpt lat="49.00055" lon="-0.5608">
        <ele>141</ele>
        <time>2018-06-17T11:10:02Z</time>
      </trkpt>
      <trkpt lat="49.0006" lon="-0.56089">
        <ele>138</ele>
        <time>2018-06-17T11:10:23Z</time>
      </trkpt>
      <trkpt lat="49.00067" lon="-0.56096">
        <ele>136</ele>
        <time>2018-06-17T11:10:31Z</time>
      </trkpt>
      <trkpt lat="49.00074" lon="-0.56105">
        <ele>136</ele>
        <time>2018-06-17T11:10:40Z</time>
      </trkpt>
      <trkpt lat="49.0008" lon="-0.56108">
        <ele>135</ele>
        <time>2018-06-17T11:10:47Z</time>
      </trkpt>
      <trkpt lat="49.00087" lon="-0.56113">
        <ele>133</ele>
        <time>2018-06-17T11:10:55Z</time>
      </trkpt>
      <trkpt lat="49.00093" lon="-0.56119">
        <ele>133</ele>
        <time>2018-06-17T11:11:01Z</time>
      </trkpt>
      <trkpt lat="49.001" lon="-0.56127">
        <ele>132</ele>
        <time>2018-06-17T11:11:09Z</time>
      </trkpt>
      <trkpt lat="49.00106" lon="-0.56135">
        <ele>132</ele>
        <time>2018-06-17T11:11:15Z</time>
      </trkpt>
      <trkpt lat="49.0011" lon="-0.56146">
        <ele>132</ele>
        <time>2018-06-17T11:11:23Z</time>
      </trkpt>
      <trkpt lat="49.00117" lon="-0.56154">
        <ele>133</ele>
        <time>2018-06-17T11:11:29Z</time>
      </trkpt>
      <trkpt lat="49.00124" lon="-0.56162">
        <ele>133</ele>
        <time>2018-06-17T11:11:37Z</time>
      </trkpt>
      <trkpt lat="49.00132" lon="-0.56166">
        <ele>133</ele>
        <time>2018-06-17T11:11:43Z</time>
      </trkpt>
      <trkpt lat="49.00138" lon="-0.56171">
        <ele>135</ele>
        <time>2018-06-17T11:11:48Z</time>
      </trkpt>
      <trkpt lat="49.00145" lon="-0.56178">
        <ele>134</ele>
        <time>2018-06-17T11:12:16Z</time>
      </trkpt>
      <trkpt lat="49.00145" lon="-0.56178">
        <ele>134</ele>
        <time>2018-06-17T11:12:16Z</time>
      </trkpt>
      <trkpt lat="49.00146" lon="-0.56173">
        <ele>133</ele>
        <time>2018-06-17T11:31:16Z</time>
      </trkpt>
      <trkpt lat="49.0015" lon="-0.5618">
        <ele>133</ele>
        <time>2018-06-17T11:32:22Z</time>
      </trkpt>
      <trkpt lat="49.00158" lon="-0.56198">
        <ele>124</ele>
        <time>2018-06-17T11:32:26Z</time>
      </trkpt>
      <trkpt lat="49.00165" lon="-0.56205">
        <ele>124</ele>
        <time>2018-06-17T11:32:30Z</time>
      </trkpt>
      <trkpt lat="49.00172" lon="-0.56218">
        <ele>124</ele>
        <time>2018-06-17T11:32:34Z</time>
      </trkpt>
      <trkpt lat="49.00182" lon="-0.56233">
        <ele>128</ele>
        <time>2018-06-17T11:32:39Z</time>
      </trkpt>
      <trkpt lat="49.00181" lon="-0.56244">
        <ele>126</ele>
        <time>2018-06-17T11:33:19Z</time>
      </trkpt>
      <trkpt lat="49.00186" lon="-0.56255">
        <ele>129</ele>
        <time>2018-06-17T11:33:28Z</time>
      </trkpt>
      <trkpt lat="49.00191" lon="-0.56265">
        <ele>126</ele>
        <time>2018-06-17T11:33:36Z</time>
      </trkpt>
      <trkpt lat="49.00195" lon="-0.56277">
        <ele>124</ele>
        <time>2018-06-17T11:33:40Z</time>
      </trkpt>
      <trkpt lat="49.00201" lon="-0.56287">
        <ele>126</ele>
        <time>2018-06-17T11:33:44Z</time>
      </trkpt>
      <trkpt lat="49.00208" lon="-0.56294">
        <ele>132</ele>
        <time>2018-06-17T11:33:52Z</time>
      </trkpt>
      <trkpt lat="49.00212" lon="-0.56305">
        <ele>132</ele>
        <time>2018-06-17T11:34:01Z</time>
      </trkpt>
      <trkpt lat="49.00219" lon="-0.5631">
        <ele>136</ele>
        <time>2018-06-17T11:34:11Z</time>
      </trkpt>
      <trkpt lat="49.00229" lon="-0.56317">
        <ele>135</ele>
        <time>2018-06-17T11:34:16Z</time>
      </trkpt>
      <trkpt lat="49.00237" lon="-0.5632">
        <ele>149</ele>
        <time>2018-06-17T11:34:34Z</time>
      </trkpt>
      <trkpt lat="49.00245" lon="-0.56321">
        <ele>157</ele>
        <time>2018-06-17T11:34:42Z</time>
      </trkpt>
      <trkpt lat="49.00253" lon="-0.56322">
        <ele>161</ele>
        <time>2018-06-17T11:34:50Z</time>
      </trkpt>
      <trkpt lat="49.00262" lon="-0.5632">
        <ele>165</ele>
        <time>2018-06-17T11:35:05Z</time>
      </trkpt>
      <trkpt lat="49.0027" lon="-0.56318">
        <ele>162</ele>
        <time>2018-06-17T11:35:10Z</time>
      </trkpt>
      <trkpt lat="49.00279" lon="-0.5632">
        <ele>156</ele>
        <time>2018-06-17T11:35:16Z</time>
      </trkpt>
      <trkpt lat="49.00287" lon="-0.56316">
        <ele>151</ele>
        <time>2018-06-17T11:35:29Z</time>
      </trkpt>
      <trkpt lat="49.00296" lon="-0.56321">
        <ele>150</ele>
        <time>2018-06-17T11:35:34Z</time>
      </trkpt>
      <trkpt lat="49.00304" lon="-0.56321">
        <ele>156</ele>
        <time>2018-06-17T11:35:41Z</time>
      </trkpt>
      <trkpt lat="49.00312" lon="-0.56321">
        <ele>159</ele>
        <time>2018-06-17T11:35:50Z</time>
      </trkpt>
      <trkpt lat="49.00318" lon="-0.56318">
        <ele>164</ele>
        <time>2018-06-17T11:35:58Z</time>
      </trkpt>
      <trkpt lat="49.00328" lon="-0.56325">
        <ele>165</ele>
        <time>2018-06-17T11:36:03Z</time>
      </trkpt>
      <trkpt lat="49.00333" lon="-0.5633">
        <ele>164</ele>
        <time>2018-06-17T11:36:09Z</time>
      </trkpt>
      <trkpt lat="49.00341" lon="-0.56332">
        <ele>162</ele>
        <time>2018-06-17T11:36:15Z</time>
      </trkpt>
      <trkpt lat="49.00347" lon="-0.56341">
        <ele>157</ele>
        <time>2018-06-17T11:36:20Z</time>
      </trkpt>
      <trkpt lat="49.00354" lon="-0.56355">
        <ele>155</ele>
        <time>2018-06-17T11:36:25Z</time>
      </trkpt>
      <trkpt lat="49.00363" lon="-0.56353">
        <ele>158</ele>
        <time>2018-06-17T11:36:36Z</time>
      </trkpt>
      <trkpt lat="49.00371" lon="-0.56357">
        <ele>161</ele>
        <time>2018-06-17T11:36:46Z</time>
      </trkpt>
      <trkpt lat="49.00377" lon="-0.56363">
        <ele>156</ele>
        <time>2018-06-17T11:36:51Z</time>
      </trkpt>
      <trkpt lat="49.0038" lon="-0.56375">
        <ele>157</ele>
        <time>2018-06-17T11:37:00Z</time>
      </trkpt>
      <trkpt lat="49.00388" lon="-0.56382">
        <ele>159</ele>
        <time>2018-06-17T11:37:06Z</time>
      </trkpt>
      <trkpt lat="49.00392" lon="-0.5639">
        <ele>157</ele>
        <time>2018-06-17T11:37:11Z</time>
      </trkpt>
      <trkpt lat="49.00398" lon="-0.56395">
        <ele>156</ele>
        <time>2018-06-17T11:37:19Z</time>
      </trkpt>
      <trkpt lat="49.00401" lon="-0.56406">
        <ele>153</ele>
        <time>2018-06-17T11:37:24Z</time>
      </trkpt>
      <trkpt lat="49.00405" lon="-0.56416">
        <ele>155</ele>
        <time>2018-06-17T11:37:31Z</time>
      </trkpt>
      <trkpt lat="49.00412" lon="-0.56425">
        <ele>159</ele>
        <time>2018-06-17T11:37:39Z</time>
      </trkpt>
      <trkpt lat="49.00418" lon="-0.56434">
        <ele>155</ele>
        <time>2018-06-17T11:37:45Z</time>
      </trkpt>
      <trkpt lat="49.00422" lon="-0.56445">
        <ele>159</ele>
        <time>2018-06-17T11:37:57Z</time>
      </trkpt>
      <trkpt lat="49.00428" lon="-0.5645">
        <ele>151</ele>
        <time>2018-06-17T11:38:03Z</time>
      </trkpt>
      <trkpt lat="49.00434" lon="-0.56457">
        <ele>152</ele>
        <time>2018-06-17T11:38:09Z</time>
      </trkpt>
      <trkpt lat="49.00441" lon="-0.56461">
        <ele>154</ele>
        <time>2018-06-17T11:38:16Z</time>
      </trkpt>
      <trkpt lat="49.00449" lon="-0.56468">
        <ele>153</ele>
        <time>2018-06-17T11:38:26Z</time>
      </trkpt>
      <trkpt lat="49.00457" lon="-0.56473">
        <ele>151</ele>
        <time>2018-06-17T11:38:34Z</time>
      </trkpt>
      <trkpt lat="49.00464" lon="-0.56469">
        <ele>154</ele>
        <time>2018-06-17T11:38:42Z</time>
      </trkpt>
      <trkpt lat="49.00473" lon="-0.5647">
        <ele>153</ele>
        <time>2018-06-17T11:38:52Z</time>
      </trkpt>
      <trkpt lat="49.00481" lon="-0.5647">
        <ele>165</ele>
        <time>2018-06-17T11:39:09Z</time>
      </trkpt>
      <trkpt lat="49.0049" lon="-0.5647">
        <ele>166</ele>
        <time>2018-06-17T11:39:42Z</time>
      </trkpt>
      <trkpt lat="49.00495" lon="-0.56461">
        <ele>169</ele>
        <time>2018-06-17T11:40:09Z</time>
      </trkpt>
      <trkpt lat="49.00504" lon="-0.56458">
        <ele>170</ele>
        <time>2018-06-17T11:40:19Z</time>
      </trkpt>
      <trkpt lat="49.00512" lon="-0.56456">
        <ele>165</ele>
        <time>2018-06-17T11:40:29Z</time>
      </trkpt>
      <trkpt lat="49.0052" lon="-0.56454">
        <ele>163</ele>
        <time>2018-06-17T11:40:52Z</time>
      </trkpt>
      <trkpt lat="49.00524" lon="-0.56443">
        <ele>169</ele>
        <time>2018-06-17T11:40:58Z</time>
      </trkpt>
      <trkpt lat="49.00531" lon="-0.56437">
        <ele>171</ele>
        <time>2018-06-17T11:41:13Z</time>
      </trkpt>
      <trkpt lat="49.00537" lon="-0.56427">
        <ele>170</ele>
        <time>2018-06-17T11:41:17Z</time>
      </trkpt>
      <trkpt lat="49.00546" lon="-0.56415">
        <ele>167</ele>
        <time>2018-06-17T11:41:22Z</time>
      </trkpt>
      <trkpt lat="49.00552" lon="-0.56406">
        <ele>174</ele>
        <time>2018-06-17T11:41:36Z</time>
      </trkpt>
      <trkpt lat="49.0056" lon="-0.56405">
        <ele>174</ele>
        <time>2018-06-17T11:42:04Z</time>
      </trkpt>
      <trkpt lat="49.00565" lon="-0.56403">
        <ele>173</ele>
        <time>2018-06-17T11:42:30Z</time>
      </trkpt>
      <trkpt lat="49.00572" lon="-0.56394">
        <ele>170</ele>
        <time>2018-06-17T11:42:35Z</time>
      </trkpt>
      <trkpt lat="49.0058" lon="-0.56391">
        <ele>170</ele>
        <time>2018-06-17T11:42:41Z</time>
      </trkpt>
      <trkpt lat="49.00587" lon="-0.56386">
        <ele>172</ele>
        <time>2018-06-17T11:42:53Z</time>
      </trkpt>
      <trkpt lat="49.00594" lon="-0.56378">
        <ele>172</ele>
        <time>2018-06-17T11:43:07Z</time>
      </trkpt>
      <trkpt lat="49.00597" lon="-0.56368">
        <ele>176</ele>
        <time>2018-06-17T11:43:32Z</time>
      </trkpt>
      <trkpt lat="49.00602" lon="-0.56356">
        <ele>180</ele>
        <time>2018-06-17T11:43:36Z</time>
      </trkpt>
      <trkpt lat="49.00606" lon="-0.56344">
        <ele>178</ele>
        <time>2018-06-17T11:43:42Z</time>
      </trkpt>
      <trkpt lat="49.00614" lon="-0.56337">
        <ele>176</ele>
        <time>2018-06-17T11:43:50Z</time>
      </trkpt>
      <trkpt lat="49.00619" lon="-0.56327">
        <ele>176</ele>
        <time>2018-06-17T11:43:56Z</time>
      </trkpt>
      <trkpt lat="49.00625" lon="-0.56318">
        <ele>180</ele>
        <time>2018-06-17T11:44:01Z</time>
      </trkpt>
      <trkpt lat="49.00626" lon="-0.56305">
        <ele>182</ele>
        <time>2018-06-17T11:44:07Z</time>
      </trkpt>
      <trkpt lat="49.00632" lon="-0.56295">
        <ele>180</ele>
        <time>2018-06-17T11:44:15Z</time>
      </trkpt>
      <trkpt lat="49.00636" lon="-0.56284">
        <ele>184</ele>
        <time>2018-06-17T11:44:42Z</time>
      </trkpt>
      <trkpt lat="49.00638" lon="-0.56272">
        <ele>190</ele>
        <time>2018-06-17T11:44:50Z</time>
      </trkpt>
      <trkpt lat="49.00644" lon="-0.56259">
        <ele>188</ele>
        <time>2018-06-17T11:44:55Z</time>
      </trkpt>
      <trkpt lat="49.00647" lon="-0.56247">
        <ele>189</ele>
        <time>2018-06-17T11:45:00Z</time>
      </trkpt>
      <trkpt lat="49.00645" lon="-0.56235">
        <ele>193</ele>
        <time>2018-06-17T11:45:29Z</time>
      </trkpt>
      <trkpt lat="49.00648" lon="-0.56218">
        <ele>193</ele>
        <time>2018-06-17T11:45:34Z</time>
      </trkpt>
      <trkpt lat="49.0065" lon="-0.56206">
        <ele>192</ele>
        <time>2018-06-17T11:45:40Z</time>
      </trkpt>
      <trkpt lat="49.00654" lon="-0.56194">
        <ele>185</ele>
        <time>2018-06-17T11:46:10Z</time>
      </trkpt>
      <trkpt lat="49.00656" lon="-0.56181">
        <ele>188</ele>
        <time>2018-06-17T11:46:15Z</time>
      </trkpt>
      <trkpt lat="49.00657" lon="-0.56168">
        <ele>188</ele>
        <time>2018-06-17T11:46:20Z</time>
      </trkpt>
      <trkpt lat="49.00658" lon="-0.56155">
        <ele>188</ele>
        <time>2018-06-17T11:46:27Z</time>
      </trkpt>
      <trkpt lat="49.0066" lon="-0.56143">
        <ele>191</ele>
        <time>2018-06-17T11:46:34Z</time>
      </trkpt>
      <trkpt lat="49.00665" lon="-0.56133">
        <ele>196</ele>
        <time>2018-06-17T11:46:43Z</time>
      </trkpt>
      <trkpt lat="49.00671" lon="-0.56127">
        <ele>194</ele>
        <time>2018-06-17T11:46:48Z</time>
      </trkpt>
      <trkpt lat="49.00672" lon="-0.56114">
        <ele>195</ele>
        <time>2018-06-17T11:46:53Z</time>
      </trkpt>
      <trkpt lat="49.00677" lon="-0.56102">
        <ele>195</ele>
        <time>2018-06-17T11:46:58Z</time>
      </trkpt>
      <trkpt lat="49.0068" lon="-0.56091">
        <ele>199</ele>
        <time>2018-06-17T11:47:06Z</time>
      </trkpt>
      <trkpt lat="49.00688" lon="-0.56084">
        <ele>203</ele>
        <time>2018-06-17T11:47:15Z</time>
      </trkpt>
      <trkpt lat="49.00692" lon="-0.56072">
        <ele>198</ele>
        <time>2018-06-17T11:47:23Z</time>
      </trkpt>
      <trkpt lat="49.00696" lon="-0.56061">
        <ele>199</ele>
        <time>2018-06-17T11:47:30Z</time>
      </trkpt>
      <trkpt lat="49.00701" lon="-0.5605">
        <ele>200</ele>
        <time>2018-06-17T11:47:36Z</time>
      </trkpt>
      <trkpt lat="49.00705" lon="-0.56043">
        <ele>198</ele>
        <time>2018-06-17T11:47:46Z</time>
      </trkpt>
      <trkpt lat="49.00712" lon="-0.56041">
        <ele>187</ele>
        <time>2018-06-17T11:47:51Z</time>
      </trkpt>
      <trkpt lat="49.00721" lon="-0.56039">
        <ele>180</ele>
        <time>2018-06-17T11:48:01Z</time>
      </trkpt>
      <trkpt lat="49.00725" lon="-0.56028">
        <ele>191</ele>
        <time>2018-06-17T11:48:13Z</time>
      </trkpt>
      <trkpt lat="49.00733" lon="-0.56023">
        <ele>188</ele>
        <time>2018-06-17T11:48:24Z</time>
      </trkpt>
      <trkpt lat="49.0074" lon="-0.56017">
        <ele>189</ele>
        <time>2018-06-17T11:48:32Z</time>
      </trkpt>
      <trkpt lat="49.00749" lon="-0.56014">
        <ele>194</ele>
        <time>2018-06-17T11:48:49Z</time>
      </trkpt>
      <trkpt lat="49.00756" lon="-0.56009">
        <ele>193</ele>
        <time>2018-06-17T11:48:58Z</time>
      </trkpt>
      <trkpt lat="49.00765" lon="-0.56006">
        <ele>191</ele>
        <time>2018-06-17T11:49:06Z</time>
      </trkpt>
      <trkpt lat="49.00772" lon="-0.55999">
        <ele>193</ele>
        <time>2018-06-17T11:49:15Z</time>
      </trkpt>
      <trkpt lat="49.00781" lon="-0.55994">
        <ele>196</ele>
        <time>2018-06-17T11:49:24Z</time>
      </trkpt>
      <trkpt lat="49.00789" lon="-0.55995">
        <ele>193</ele>
        <time>2018-06-17T11:49:32Z</time>
      </trkpt>
      <trkpt lat="49.00797" lon="-0.5599">
        <ele>195</ele>
        <time>2018-06-17T11:49:57Z</time>
      </trkpt>
      <trkpt lat="49.00805" lon="-0.55987">
        <ele>200</ele>
        <time>2018-06-17T11:50:29Z</time>
      </trkpt>
      <trkpt lat="49.00813" lon="-0.5598">
        <ele>200</ele>
        <time>2018-06-17T11:50:37Z</time>
      </trkpt>
      <trkpt lat="49.00821" lon="-0.55974">
        <ele>202</ele>
        <time>2018-06-17T11:51:03Z</time>
      </trkpt>
      <trkpt lat="49.00828" lon="-0.55966">
        <ele>202</ele>
        <time>2018-06-17T11:51:10Z</time>
      </trkpt>
      <trkpt lat="49.00836" lon="-0.55962">
        <ele>197</ele>
        <time>2018-06-17T11:51:15Z</time>
      </trkpt>
      <trkpt lat="49.00848" lon="-0.55957">
        <ele>195</ele>
        <time>2018-06-17T11:51:20Z</time>
      </trkpt>
      <trkpt lat="49.00854" lon="-0.55952">
        <ele>191</ele>
        <time>2018-06-17T11:51:30Z</time>
      </trkpt>
      <trkpt lat="49.0086" lon="-0.55944">
        <ele>192</ele>
        <time>2018-06-17T11:51:58Z</time>
      </trkpt>
      <trkpt lat="49.00867" lon="-0.55938">
        <ele>192</ele>
        <time>2018-06-17T11:52:05Z</time>
      </trkpt>
      <trkpt lat="49.00875" lon="-0.55933">
        <ele>191</ele>
        <time>2018-06-17T11:52:11Z</time>
      </trkpt>
      <trkpt lat="49.00882" lon="-0.55928">
        <ele>190</ele>
        <time>2018-06-17T11:52:16Z</time>
      </trkpt>
      <trkpt lat="49.00887" lon="-0.55918">
        <ele>191</ele>
        <time>2018-06-17T11:52:23Z</time>
      </trkpt>
      <trkpt lat="49.00894" lon="-0.55914">
        <ele>192</ele>
        <time>2018-06-17T11:52:32Z</time>
      </trkpt>
      <trkpt lat="49.00902" lon="-0.55908">
        <ele>197</ele>
        <time>2018-06-17T11:52:40Z</time>
      </trkpt>
      <trkpt lat="49.00926" lon="-0.55861">
        <ele>211</ele>
        <time>2018-06-17T11:53:17Z</time>
      </trkpt>
      <trkpt lat="49.00935" lon="-0.55858">
        <ele>211</ele>
        <time>2018-06-17T11:53:36Z</time>
      </trkpt>
      <trkpt lat="49.00943" lon="-0.55852">
        <ele>205</ele>
        <time>2018-06-17T11:54:02Z</time>
      </trkpt>
      <trkpt lat="49.00949" lon="-0.55844">
        <ele>201</ele>
        <time>2018-06-17T11:54:08Z</time>
      </trkpt>
      <trkpt lat="49.00954" lon="-0.55835">
        <ele>198</ele>
        <time>2018-06-17T11:54:16Z</time>
      </trkpt>
      <trkpt lat="49.00956" lon="-0.55826">
        <ele>197</ele>
        <time>2018-06-17T11:54:28Z</time>
      </trkpt>
      <trkpt lat="49.00961" lon="-0.55816">
        <ele>195</ele>
        <time>2018-06-17T11:54:33Z</time>
      </trkpt>
      <trkpt lat="49.00964" lon="-0.55804">
        <ele>192</ele>
        <time>2018-06-17T11:54:39Z</time>
      </trkpt>
      <trkpt lat="49.00966" lon="-0.55791">
        <ele>193</ele>
        <time>2018-06-17T11:54:45Z</time>
      </trkpt>
      <trkpt lat="49.0097" lon="-0.5578">
        <ele>195</ele>
        <time>2018-06-17T11:54:56Z</time>
      </trkpt>
      <trkpt lat="49.0097" lon="-0.55769">
        <ele>193</ele>
        <time>2018-06-17T11:55:02Z</time>
      </trkpt>
      <trkpt lat="49.00975" lon="-0.55757">
        <ele>196</ele>
        <time>2018-06-17T11:55:32Z</time>
      </trkpt>
      <trkpt lat="49.00979" lon="-0.55747">
        <ele>196</ele>
        <time>2018-06-17T11:55:45Z</time>
      </trkpt>
      <trkpt lat="49.00985" lon="-0.55744">
        <ele>194</ele>
        <time>2018-06-17T11:55:49Z</time>
      </trkpt>
      <trkpt lat="49.00989" lon="-0.55731">
        <ele>195</ele>
        <time>2018-06-17T11:55:54Z</time>
      </trkpt>
      <trkpt lat="49.00995" lon="-0.55722">
        <ele>196</ele>
        <time>2018-06-17T11:56:02Z</time>
      </trkpt>
      <trkpt lat="49.0099" lon="-0.55712">
        <ele>200</ele>
        <time>2018-06-17T11:56:23Z</time>
      </trkpt>
      <trkpt lat="49.00984" lon="-0.55703">
        <ele>202</ele>
        <time>2018-06-17T11:56:51Z</time>
      </trkpt>
      <trkpt lat="49.00974" lon="-0.55701">
        <ele>205</ele>
        <time>2018-06-17T11:56:56Z</time>
      </trkpt>
      <trkpt lat="49.00967" lon="-0.55696">
        <ele>202</ele>
        <time>2018-06-17T11:57:03Z</time>
      </trkpt>
      <trkpt lat="49.00957" lon="-0.55698">
        <ele>203</ele>
        <time>2018-06-17T11:57:07Z</time>
      </trkpt>
      <trkpt lat="49.00949" lon="-0.55702">
        <ele>207</ele>
        <time>2018-06-17T11:57:16Z</time>
      </trkpt>
      <trkpt lat="49.0094" lon="-0.55702">
        <ele>209</ele>
        <time>2018-06-17T11:57:25Z</time>
      </trkpt>
      <trkpt lat="49.00933" lon="-0.55703">
        <ele>208</ele>
        <time>2018-06-17T11:57:31Z</time>
      </trkpt>
      <trkpt lat="49.00925" lon="-0.55701">
        <ele>208</ele>
        <time>2018-06-17T11:57:44Z</time>
      </trkpt>
      <trkpt lat="49.00918" lon="-0.55703">
        <ele>211</ele>
        <time>2018-06-17T11:57:52Z</time>
      </trkpt>
      <trkpt lat="49.0091" lon="-0.55707">
        <ele>210</ele>
        <time>2018-06-17T11:57:59Z</time>
      </trkpt>
      <trkpt lat="49.00901" lon="-0.5571">
        <ele>209</ele>
        <time>2018-06-17T11:58:04Z</time>
      </trkpt>
      <trkpt lat="49.00896" lon="-0.55702">
        <ele>207</ele>
        <time>2018-06-17T11:58:10Z</time>
      </trkpt>
      <trkpt lat="49.00888" lon="-0.55697">
        <ele>207</ele>
        <time>2018-06-17T11:58:34Z</time>
      </trkpt>
      <trkpt lat="49.0088" lon="-0.55687">
        <ele>206</ele>
        <time>2018-06-17T11:58:39Z</time>
      </trkpt>
      <trkpt lat="49.00875" lon="-0.55675">
        <ele>208</ele>
        <time>2018-06-17T11:58:46Z</time>
      </trkpt>
      <trkpt lat="49.00874" lon="-0.55663">
        <ele>207</ele>
        <time>2018-06-17T11:58:55Z</time>
      </trkpt>
      <trkpt lat="49.00872" lon="-0.55652">
        <ele>205</ele>
        <time>2018-06-17T11:59:02Z</time>
      </trkpt>
      <trkpt lat="49.00869" lon="-0.5564">
        <ele>206</ele>
        <time>2018-06-17T11:59:10Z</time>
      </trkpt>
      <trkpt lat="49.00866" lon="-0.55628">
        <ele>207</ele>
        <time>2018-06-17T11:59:20Z</time>
      </trkpt>
      <trkpt lat="49.00864" lon="-0.55617">
        <ele>209</ele>
        <time>2018-06-17T11:59:27Z</time>
      </trkpt>
      <trkpt lat="49.00866" lon="-0.55604">
        <ele>208</ele>
        <time>2018-06-17T11:59:32Z</time>
      </trkpt>
      <trkpt lat="49.00862" lon="-0.55592">
        <ele>209</ele>
        <time>2018-06-17T11:59:40Z</time>
      </trkpt>
      <trkpt lat="49.0086" lon="-0.5558">
        <ele>212</ele>
        <time>2018-06-17T11:59:47Z</time>
      </trkpt>
      <trkpt lat="49.00855" lon="-0.55568">
        <ele>210</ele>
        <time>2018-06-17T11:59:56Z</time>
      </trkpt>
      <trkpt lat="49.00854" lon="-0.55556">
        <ele>210</ele>
        <time>2018-06-17T12:00:04Z</time>
      </trkpt>
      <trkpt lat="49.00851" lon="-0.55543">
        <ele>209</ele>
        <time>2018-06-17T12:00:19Z</time>
      </trkpt>
      <trkpt lat="49.00848" lon="-0.55532">
        <ele>211</ele>
        <time>2018-06-17T12:00:27Z</time>
      </trkpt>
      <trkpt lat="49.00845" lon="-0.55519">
        <ele>212</ele>
        <time>2018-06-17T12:00:36Z</time>
      </trkpt>
      <trkpt lat="49.00844" lon="-0.55507">
        <ele>213</ele>
        <time>2018-06-17T12:01:02Z</time>
      </trkpt>
      <trkpt lat="49.00842" lon="-0.55495">
        <ele>213</ele>
        <time>2018-06-17T12:01:10Z</time>
      </trkpt>
      <trkpt lat="49.00842" lon="-0.55482">
        <ele>213</ele>
        <time>2018-06-17T12:01:17Z</time>
      </trkpt>
      <trkpt lat="49.0084" lon="-0.5547">
        <ele>217</ele>
        <time>2018-06-17T12:01:23Z</time>
      </trkpt>
      <trkpt lat="49.00838" lon="-0.55457">
        <ele>218</ele>
        <time>2018-06-17T12:01:30Z</time>
      </trkpt>
      <trkpt lat="49.00838" lon="-0.55445">
        <ele>218</ele>
        <time>2018-06-17T12:01:37Z</time>
      </trkpt>
      <trkpt lat="49.00837" lon="-0.55431">
        <ele>217</ele>
        <time>2018-06-17T12:01:48Z</time>
      </trkpt>
      <trkpt lat="49.0083" lon="-0.55429">
        <ele>221</ele>
        <time>2018-06-17T12:01:58Z</time>
      </trkpt>
      <trkpt lat="49.00822" lon="-0.55424">
        <ele>222</ele>
        <time>2018-06-17T12:02:05Z</time>
      </trkpt>
      <trkpt lat="49.00814" lon="-0.5542">
        <ele>222</ele>
        <time>2018-06-17T12:02:13Z</time>
      </trkpt>
      <trkpt lat="49.00807" lon="-0.55417">
        <ele>219</ele>
        <time>2018-06-17T12:02:20Z</time>
      </trkpt>
      <trkpt lat="49.00799" lon="-0.55413">
        <ele>219</ele>
        <time>2018-06-17T12:02:27Z</time>
      </trkpt>
      <trkpt lat="49.00791" lon="-0.55411">
        <ele>219</ele>
        <time>2018-06-17T12:02:45Z</time>
      </trkpt>
      <trkpt lat="49.00783" lon="-0.55409">
        <ele>223</ele>
        <time>2018-06-17T12:02:49Z</time>
      </trkpt>
      <trkpt lat="49.00774" lon="-0.55406">
        <ele>224</ele>
        <time>2018-06-17T12:02:57Z</time>
      </trkpt>
      <trkpt lat="49.00766" lon="-0.55402">
        <ele>221</ele>
        <time>2018-06-17T12:03:04Z</time>
      </trkpt>
      <trkpt lat="49.00759" lon="-0.55396">
        <ele>221</ele>
        <time>2018-06-17T12:03:11Z</time>
      </trkpt>
      <trkpt lat="49.00753" lon="-0.55389">
        <ele>224</ele>
        <time>2018-06-17T12:03:18Z</time>
      </trkpt>
      <trkpt lat="49.00746" lon="-0.55382">
        <ele>224</ele>
        <time>2018-06-17T12:03:25Z</time>
      </trkpt>
      <trkpt lat="49.00739" lon="-0.55377">
        <ele>226</ele>
        <time>2018-06-17T12:03:31Z</time>
      </trkpt>
      <trkpt lat="49.00734" lon="-0.5537">
        <ele>226</ele>
        <time>2018-06-17T12:03:37Z</time>
      </trkpt>
      <trkpt lat="49.00722" lon="-0.55345">
        <ele>221</ele>
        <time>2018-06-17T12:03:41Z</time>
      </trkpt>
      <trkpt lat="49.0072" lon="-0.55335">
        <ele>220</ele>
        <time>2018-06-17T12:03:53Z</time>
      </trkpt>
      <trkpt lat="49.00713" lon="-0.55328">
        <ele>221</ele>
        <time>2018-06-17T12:04:12Z</time>
      </trkpt>
      <trkpt lat="49.00705" lon="-0.55323">
        <ele>220</ele>
        <time>2018-06-17T12:04:20Z</time>
      </trkpt>
      <trkpt lat="49.00698" lon="-0.55317">
        <ele>223</ele>
        <time>2018-06-17T12:04:35Z</time>
      </trkpt>
      <trkpt lat="49.00691" lon="-0.55311">
        <ele>223</ele>
        <time>2018-06-17T12:04:43Z</time>
      </trkpt>
      <trkpt lat="49.00684" lon="-0.55305">
        <ele>225</ele>
        <time>2018-06-17T12:04:51Z</time>
      </trkpt>
      <trkpt lat="49.00677" lon="-0.553">
        <ele>227</ele>
        <time>2018-06-17T12:04:59Z</time>
      </trkpt>
      <trkpt lat="49.00669" lon="-0.55297">
        <ele>226</ele>
        <time>2018-06-17T12:05:07Z</time>
      </trkpt>
      <trkpt lat="49.0066" lon="-0.55296">
        <ele>227</ele>
        <time>2018-06-17T12:05:13Z</time>
      </trkpt>
      <trkpt lat="49.00651" lon="-0.55292">
        <ele>226</ele>
        <time>2018-06-17T12:05:29Z</time>
      </trkpt>
      <trkpt lat="49.00643" lon="-0.55288">
        <ele>226</ele>
        <time>2018-06-17T12:06:06Z</time>
      </trkpt>
      <trkpt lat="49.00635" lon="-0.55288">
        <ele>227</ele>
        <time>2018-06-17T12:06:13Z</time>
      </trkpt>
      <trkpt lat="49.00627" lon="-0.55289">
        <ele>230</ele>
        <time>2018-06-17T12:06:21Z</time>
      </trkpt>
      <trkpt lat="49.0062" lon="-0.55283">
        <ele>228</ele>
        <time>2018-06-17T12:06:27Z</time>
      </trkpt>
      <trkpt lat="49.00612" lon="-0.55277">
        <ele>229</ele>
        <time>2018-06-17T12:06:35Z</time>
      </trkpt>
      <trkpt lat="49.00604" lon="-0.55276">
        <ele>229</ele>
        <time>2018-06-17T12:06:42Z</time>
      </trkpt>
      <trkpt lat="49.00596" lon="-0.55271">
        <ele>230</ele>
        <time>2018-06-17T12:06:49Z</time>
      </trkpt>
      <trkpt lat="49.00589" lon="-0.55263">
        <ele>229</ele>
        <time>2018-06-17T12:07:04Z</time>
      </trkpt>
      <trkpt lat="49.00583" lon="-0.55255">
        <ele>231</ele>
        <time>2018-06-17T12:07:11Z</time>
      </trkpt>
      <trkpt lat="49.00576" lon="-0.55248">
        <ele>231</ele>
        <time>2018-06-17T12:07:18Z</time>
      </trkpt>
      <trkpt lat="49.00569" lon="-0.5524">
        <ele>231</ele>
        <time>2018-06-17T12:07:25Z</time>
      </trkpt>
      <trkpt lat="49.00564" lon="-0.5523">
        <ele>229</ele>
        <time>2018-06-17T12:07:32Z</time>
      </trkpt>
      <trkpt lat="49.00557" lon="-0.55223">
        <ele>232</ele>
        <time>2018-06-17T12:07:40Z</time>
      </trkpt>
      <trkpt lat="49.0055" lon="-0.55215">
        <ele>232</ele>
        <time>2018-06-17T12:07:47Z</time>
      </trkpt>
      <trkpt lat="49.00545" lon="-0.55206">
        <ele>233</ele>
        <time>2018-06-17T12:07:54Z</time>
      </trkpt>
      <trkpt lat="49.00538" lon="-0.55199">
        <ele>234</ele>
        <time>2018-06-17T12:08:01Z</time>
      </trkpt>
      <trkpt lat="49.00533" lon="-0.55188">
        <ele>234</ele>
        <time>2018-06-17T12:08:12Z</time>
      </trkpt>
      <trkpt lat="49.00525" lon="-0.55186">
        <ele>234</ele>
        <time>2018-06-17T12:08:19Z</time>
      </trkpt>
      <trkpt lat="49.00519" lon="-0.55177">
        <ele>233</ele>
        <time>2018-06-17T12:08:25Z</time>
      </trkpt>
      <trkpt lat="49.00515" lon="-0.55166">
        <ele>231</ele>
        <time>2018-06-17T12:08:33Z</time>
      </trkpt>
      <trkpt lat="49.00509" lon="-0.55157">
        <ele>232</ele>
        <time>2018-06-17T12:08:41Z</time>
      </trkpt>
      <trkpt lat="49.00504" lon="-0.55148">
        <ele>232</ele>
        <time>2018-06-17T12:08:52Z</time>
      </trkpt>
      <trkpt lat="49.00498" lon="-0.55139">
        <ele>232</ele>
        <time>2018-06-17T12:08:59Z</time>
      </trkpt>
      <trkpt lat="49.00491" lon="-0.55131">
        <ele>232</ele>
        <time>2018-06-17T12:09:07Z</time>
      </trkpt>
      <trkpt lat="49.00483" lon="-0.55123">
        <ele>232</ele>
        <time>2018-06-17T12:09:15Z</time>
      </trkpt>
      <trkpt lat="49.00478" lon="-0.55115">
        <ele>232</ele>
        <time>2018-06-17T12:09:22Z</time>
      </trkpt>
      <trkpt lat="49.00472" lon="-0.55106">
        <ele>231</ele>
        <time>2018-06-17T12:09:29Z</time>
      </trkpt>
      <trkpt lat="49.00466" lon="-0.55098">
        <ele>232</ele>
        <time>2018-06-17T12:09:36Z</time>
      </trkpt>
      <trkpt lat="49.00459" lon="-0.55092">
        <ele>232</ele>
        <time>2018-06-17T12:09:43Z</time>
      </trkpt>
      <trkpt lat="49.00452" lon="-0.55085">
        <ele>233</ele>
        <time>2018-06-17T12:09:50Z</time>
      </trkpt>
      <trkpt lat="49.00447" lon="-0.55075">
        <ele>231</ele>
        <time>2018-06-17T12:09:57Z</time>
      </trkpt>
      <trkpt lat="49.00439" lon="-0.55068">
        <ele>230</ele>
        <time>2018-06-17T12:10:07Z</time>
      </trkpt>
      <trkpt lat="49.00433" lon="-0.5506">
        <ele>225</ele>
        <time>2018-06-17T12:10:14Z</time>
      </trkpt>
      <trkpt lat="49.00426" lon="-0.55054">
        <ele>227</ele>
        <time>2018-06-17T12:10:22Z</time>
      </trkpt>
      <trkpt lat="49.00419" lon="-0.55046">
        <ele>225</ele>
        <time>2018-06-17T12:10:33Z</time>
      </trkpt>
      <trkpt lat="49.00412" lon="-0.5504">
        <ele>225</ele>
        <time>2018-06-17T12:10:43Z</time>
      </trkpt>
      <trkpt lat="49.00405" lon="-0.55033">
        <ele>226</ele>
        <time>2018-06-17T12:10:51Z</time>
      </trkpt>
      <trkpt lat="49.00399" lon="-0.55025">
        <ele>224</ele>
        <time>2018-06-17T12:11:02Z</time>
      </trkpt>
      <trkpt lat="49.00391" lon="-0.55021">
        <ele>225</ele>
        <time>2018-06-17T12:11:12Z</time>
      </trkpt>
      <trkpt lat="49.00385" lon="-0.55012">
        <ele>221</ele>
        <time>2018-06-17T12:11:20Z</time>
      </trkpt>
      <trkpt lat="49.00377" lon="-0.55006">
        <ele>221</ele>
        <time>2018-06-17T12:11:29Z</time>
      </trkpt>
      <trkpt lat="49.00369" lon="-0.55001">
        <ele>220</ele>
        <time>2018-06-17T12:11:37Z</time>
      </trkpt>
      <trkpt lat="49.00361" lon="-0.54994">
        <ele>220</ele>
        <time>2018-06-17T12:11:47Z</time>
      </trkpt>
      <trkpt lat="49.00355" lon="-0.54986">
        <ele>220</ele>
        <time>2018-06-17T12:11:54Z</time>
      </trkpt>
      <trkpt lat="49.00347" lon="-0.5498">
        <ele>219</ele>
        <time>2018-06-17T12:12:02Z</time>
      </trkpt>
      <trkpt lat="49.00341" lon="-0.54973">
        <ele>219</ele>
        <time>2018-06-17T12:12:10Z</time>
      </trkpt>
      <trkpt lat="49.00334" lon="-0.54965">
        <ele>220</ele>
        <time>2018-06-17T12:12:19Z</time>
      </trkpt>
      <trkpt lat="49.00327" lon="-0.54959">
        <ele>219</ele>
        <time>2018-06-17T12:12:26Z</time>
      </trkpt>
      <trkpt lat="49.00307" lon="-0.54939">
        <ele>235</ele>
        <time>2018-06-17T12:12:58Z</time>
      </trkpt>
      <trkpt lat="49.00297" lon="-0.54928">
        <ele>211</ele>
        <time>2018-06-17T12:13:03Z</time>
      </trkpt>
      <trkpt lat="49.00289" lon="-0.54924">
        <ele>216</ele>
        <time>2018-06-17T12:13:11Z</time>
      </trkpt>
      <trkpt lat="49.00283" lon="-0.54915">
        <ele>218</ele>
        <time>2018-06-17T12:13:19Z</time>
      </trkpt>
      <trkpt lat="49.00275" lon="-0.54911">
        <ele>218</ele>
        <time>2018-06-17T12:13:28Z</time>
      </trkpt>
      <trkpt lat="49.00267" lon="-0.54906">
        <ele>215</ele>
        <time>2018-06-17T12:13:36Z</time>
      </trkpt>
      <trkpt lat="49.00259" lon="-0.549">
        <ele>216</ele>
        <time>2018-06-17T12:13:42Z</time>
      </trkpt>
      <trkpt lat="49.00252" lon="-0.54897">
        <ele>216</ele>
        <time>2018-06-17T12:13:50Z</time>
      </trkpt>
      <trkpt lat="49.00246" lon="-0.54888">
        <ele>215</ele>
        <time>2018-06-17T12:13:57Z</time>
      </trkpt>
      <trkpt lat="49.00238" lon="-0.54882">
        <ele>212</ele>
        <time>2018-06-17T12:14:06Z</time>
      </trkpt>
      <trkpt lat="49.00233" lon="-0.54871">
        <ele>214</ele>
        <time>2018-06-17T12:14:16Z</time>
      </trkpt>
      <trkpt lat="49.00225" lon="-0.54867">
        <ele>214</ele>
        <time>2018-06-17T12:14:23Z</time>
      </trkpt>
      <trkpt lat="49.00219" lon="-0.54859">
        <ele>210</ele>
        <time>2018-06-17T12:14:30Z</time>
      </trkpt>
      <trkpt lat="49.0021" lon="-0.54854">
        <ele>211</ele>
        <time>2018-06-17T12:14:39Z</time>
      </trkpt>
      <trkpt lat="49.00204" lon="-0.54845">
        <ele>208</ele>
        <time>2018-06-17T12:14:49Z</time>
      </trkpt>
      <trkpt lat="49.00197" lon="-0.54838">
        <ele>204</ele>
        <time>2018-06-17T12:14:57Z</time>
      </trkpt>
      <trkpt lat="49.00191" lon="-0.54831">
        <ele>205</ele>
        <time>2018-06-17T12:15:06Z</time>
      </trkpt>
      <trkpt lat="49.00184" lon="-0.54823">
        <ele>206</ele>
        <time>2018-06-17T12:15:15Z</time>
      </trkpt>
      <trkpt lat="49.00178" lon="-0.54814">
        <ele>207</ele>
        <time>2018-06-17T12:15:25Z</time>
      </trkpt>
      <trkpt lat="49.00171" lon="-0.54808">
        <ele>206</ele>
        <time>2018-06-17T12:15:33Z</time>
      </trkpt>
      <trkpt lat="49.00163" lon="-0.54801">
        <ele>204</ele>
        <time>2018-06-17T12:15:41Z</time>
      </trkpt>
      <trkpt lat="49.00155" lon="-0.54797">
        <ele>201</ele>
        <time>2018-06-17T12:15:49Z</time>
      </trkpt>
      <trkpt lat="49.00149" lon="-0.5479">
        <ele>198</ele>
        <time>2018-06-17T12:15:56Z</time>
      </trkpt>
      <trkpt lat="49.00142" lon="-0.54784">
        <ele>198</ele>
        <time>2018-06-17T12:16:04Z</time>
      </trkpt>
      <trkpt lat="49.00134" lon="-0.54777">
        <ele>200</ele>
        <time>2018-06-17T12:16:12Z</time>
      </trkpt>
      <trkpt lat="49.00127" lon="-0.5477">
        <ele>200</ele>
        <time>2018-06-17T12:16:19Z</time>
      </trkpt>
      <trkpt lat="49.0012" lon="-0.54764">
        <ele>201</ele>
        <time>2018-06-17T12:16:26Z</time>
      </trkpt>
      <trkpt lat="49.00113" lon="-0.54759">
        <ele>201</ele>
        <time>2018-06-17T12:16:39Z</time>
      </trkpt>
      <trkpt lat="49.00106" lon="-0.54752">
        <ele>201</ele>
        <time>2018-06-17T12:16:47Z</time>
      </trkpt>
      <trkpt lat="49.00099" lon="-0.54745">
        <ele>201</ele>
        <time>2018-06-17T12:16:57Z</time>
      </trkpt>
      <trkpt lat="49.00092" lon="-0.5474">
        <ele>199</ele>
        <time>2018-06-17T12:17:03Z</time>
      </trkpt>
      <trkpt lat="49.00084" lon="-0.54736">
        <ele>196</ele>
        <time>2018-06-17T12:17:08Z</time>
      </trkpt>
      <trkpt lat="49.00076" lon="-0.54732">
        <ele>192</ele>
        <time>2018-06-17T12:17:25Z</time>
      </trkpt>
      <trkpt lat="49.00069" lon="-0.54728">
        <ele>187</ele>
        <time>2018-06-17T12:17:45Z</time>
      </trkpt>
      <trkpt lat="49.00061" lon="-0.54723">
        <ele>188</ele>
        <time>2018-06-17T12:17:52Z</time>
      </trkpt>
      <trkpt lat="49.00054" lon="-0.54717">
        <ele>194</ele>
        <time>2018-06-17T12:18:01Z</time>
      </trkpt>
      <trkpt lat="49.00053" lon="-0.54705">
        <ele>195</ele>
        <time>2018-06-17T12:18:09Z</time>
      </trkpt>
      <trkpt lat="49.00046" lon="-0.54695">
        <ele>190</ele>
        <time>2018-06-17T12:18:20Z</time>
      </trkpt>
      <trkpt lat="49.00038" lon="-0.54697">
        <ele>191</ele>
        <time>2018-06-17T12:18:30Z</time>
      </trkpt>
      <trkpt lat="49.0003" lon="-0.54699">
        <ele>189</ele>
        <time>2018-06-17T12:18:38Z</time>
      </trkpt>
      <trkpt lat="49.00022" lon="-0.54701">
        <ele>190</ele>
        <time>2018-06-17T12:18:46Z</time>
      </trkpt>
      <trkpt lat="49.00014" lon="-0.54699">
        <ele>189</ele>
        <time>2018-06-17T12:18:55Z</time>
      </trkpt>
      <trkpt lat="49.00006" lon="-0.54699">
        <ele>190</ele>
        <time>2018-06-17T12:19:01Z</time>
      </trkpt>
      <trkpt lat="48.99998" lon="-0.54697">
        <ele>191</ele>
        <time>2018-06-17T12:19:07Z</time>
      </trkpt>
      <trkpt lat="48.99991" lon="-0.54697">
        <ele>187</ele>
        <time>2018-06-17T12:19:15Z</time>
      </trkpt>
      <trkpt lat="48.99982" lon="-0.54697">
        <ele>191</ele>
        <time>2018-06-17T12:19:23Z</time>
      </trkpt>
      <trkpt lat="48.99976" lon="-0.54699">
        <ele>188</ele>
        <time>2018-06-17T12:19:29Z</time>
      </trkpt>
      <trkpt lat="48.99967" lon="-0.54698">
        <ele>189</ele>
        <time>2018-06-17T12:19:36Z</time>
      </trkpt>
      <trkpt lat="48.99959" lon="-0.54694">
        <ele>188</ele>
        <time>2018-06-17T12:19:43Z</time>
      </trkpt>
      <trkpt lat="48.99952" lon="-0.54686">
        <ele>185</ele>
        <time>2018-06-17T12:19:50Z</time>
      </trkpt>
      <trkpt lat="48.99944" lon="-0.54684">
        <ele>184</ele>
        <time>2018-06-17T12:19:57Z</time>
      </trkpt>
      <trkpt lat="48.99937" lon="-0.54679">
        <ele>180</ele>
        <time>2018-06-17T12:20:03Z</time>
      </trkpt>
      <trkpt lat="48.99931" lon="-0.54676">
        <ele>180</ele>
        <time>2018-06-17T12:20:12Z</time>
      </trkpt>
      <trkpt lat="48.99923" lon="-0.5467">
        <ele>183</ele>
        <time>2018-06-17T12:20:18Z</time>
      </trkpt>
      <trkpt lat="48.99915" lon="-0.54667">
        <ele>181</ele>
        <time>2018-06-17T12:20:24Z</time>
      </trkpt>
      <trkpt lat="48.99907" lon="-0.54664">
        <ele>178</ele>
        <time>2018-06-17T12:20:39Z</time>
      </trkpt>
      <trkpt lat="48.99899" lon="-0.54663">
        <ele>174</ele>
        <time>2018-06-17T12:20:46Z</time>
      </trkpt>
      <trkpt lat="48.9989" lon="-0.54658">
        <ele>175</ele>
        <time>2018-06-17T12:20:54Z</time>
      </trkpt>
      <trkpt lat="48.99882" lon="-0.54655">
        <ele>178</ele>
        <time>2018-06-17T12:21:03Z</time>
      </trkpt>
      <trkpt lat="48.99875" lon="-0.54655">
        <ele>177</ele>
        <time>2018-06-17T12:21:09Z</time>
      </trkpt>
      <trkpt lat="48.99868" lon="-0.5465">
        <ele>182</ele>
        <time>2018-06-17T12:21:15Z</time>
      </trkpt>
      <trkpt lat="48.9986" lon="-0.54647">
        <ele>182</ele>
        <time>2018-06-17T12:21:22Z</time>
      </trkpt>
      <trkpt lat="48.99853" lon="-0.54641">
        <ele>181</ele>
        <time>2018-06-17T12:21:29Z</time>
      </trkpt>
      <trkpt lat="48.99844" lon="-0.54639">
        <ele>178</ele>
        <time>2018-06-17T12:21:39Z</time>
      </trkpt>
      <trkpt lat="48.99838" lon="-0.54632">
        <ele>179</ele>
        <time>2018-06-17T12:21:45Z</time>
      </trkpt>
      <trkpt lat="48.99831" lon="-0.54628">
        <ele>176</ele>
        <time>2018-06-17T12:21:52Z</time>
      </trkpt>
      <trkpt lat="48.99823" lon="-0.54624">
        <ele>177</ele>
        <time>2018-06-17T12:22:02Z</time>
      </trkpt>
      <trkpt lat="48.99815" lon="-0.54622">
        <ele>175</ele>
        <time>2018-06-17T12:22:09Z</time>
      </trkpt>
      <trkpt lat="48.99807" lon="-0.54618">
        <ele>177</ele>
        <time>2018-06-17T12:22:17Z</time>
      </trkpt>
      <trkpt lat="48.99799" lon="-0.54613">
        <ele>176</ele>
        <time>2018-06-17T12:22:24Z</time>
      </trkpt>
      <trkpt lat="48.99791" lon="-0.54609">
        <ele>175</ele>
        <time>2018-06-17T12:22:33Z</time>
      </trkpt>
      <trkpt lat="48.99784" lon="-0.54603">
        <ele>170</ele>
        <time>2018-06-17T12:22:40Z</time>
      </trkpt>
      <trkpt lat="48.99778" lon="-0.54592">
        <ele>171</ele>
        <time>2018-06-17T12:22:51Z</time>
      </trkpt>
      <trkpt lat="48.99774" lon="-0.54581">
        <ele>168</ele>
        <time>2018-06-17T12:23:02Z</time>
      </trkpt>
      <trkpt lat="48.99765" lon="-0.54577">
        <ele>166</ele>
        <time>2018-06-17T12:23:10Z</time>
      </trkpt>
      <trkpt lat="48.99758" lon="-0.54571">
        <ele>169</ele>
        <time>2018-06-17T12:23:17Z</time>
      </trkpt>
      <trkpt lat="48.99754" lon="-0.54561">
        <ele>168</ele>
        <time>2018-06-17T12:23:25Z</time>
      </trkpt>
      <trkpt lat="48.9975" lon="-0.5455">
        <ele>167</ele>
        <time>2018-06-17T12:23:35Z</time>
      </trkpt>
      <trkpt lat="48.99749" lon="-0.54537">
        <ele>168</ele>
        <time>2018-06-17T12:23:40Z</time>
      </trkpt>
      <trkpt lat="48.99753" lon="-0.54527">
        <ele>168</ele>
        <time>2018-06-17T12:23:48Z</time>
      </trkpt>
      <trkpt lat="48.99755" lon="-0.5452">
        <ele>170</ele>
        <time>2018-06-17T12:23:55Z</time>
      </trkpt>
      <trkpt lat="48.99755" lon="-0.5452">
        <ele>170</ele>
        <time>2018-06-17T12:23:55Z</time>
      </trkpt>
    </trkseg>
  </trk>
</gpx>